<?xml version="1.0" encoding="UTF-8" standalone="no" ?>
<gpx xmlns="http://www.topografix.com/GPX/1/1" xmlns:xsi="http://www.w3.org/2001/XMLSchema-instance" xsi:schemaLocation="http://www.topografix.com/GPX/1/1 http://www.topografix.com/GPX/1/1/gpx.xsd" version="1.1" creator="VisuGPX - https://www.visugpx.com">
  <metadata>
    <name>Vacances Avril 2019 Grenoble Camargue</name>
    <desc><![CDATA[Deuxième partie du voyage après le but dans le Nord, direction le Sud. 
Pas de pluie mais Mistral d'enfer]]></desc>
  </metadata>
  <trk>
    <name><![CDATA[20190502221855-rGymn]]></name>
    <trkseg>
      <trkpt lat="43.36977" lon="4.65429">
        <ele>42.026</ele>
        <time>2019-05-01T05:59:20Z</time>
      </trkpt>
      <trkpt lat="43.36976" lon="4.65435">
        <ele>41.989</ele>
        <time>2019-05-01T05:59:31Z</time>
      </trkpt>
      <trkpt lat="43.36976" lon="4.65435">
        <ele>41.919</ele>
        <time>2019-05-01T05:59:42Z</time>
      </trkpt>
      <trkpt lat="43.36976" lon="4.65435">
        <ele>41.552</ele>
        <time>2019-05-01T05:59:52Z</time>
      </trkpt>
      <trkpt lat="43.36976" lon="4.65435">
        <ele>41.26</ele>
        <time>2019-05-01T06:00:02Z</time>
      </trkpt>
      <trkpt lat="43.36976" lon="4.65435">
        <ele>41.095</ele>
        <time>2019-05-01T06:00:13Z</time>
      </trkpt>
      <trkpt lat="43.36976" lon="4.65435">
        <ele>41.009</ele>
        <time>2019-05-01T06:00:24Z</time>
      </trkpt>
      <trkpt lat="43.36978" lon="4.65429">
        <ele>41.125</ele>
        <time>2019-05-01T06:00:35Z</time>
      </trkpt>
      <trkpt lat="43.36979" lon="4.65427">
        <ele>41.457</ele>
        <time>2019-05-01T06:00:45Z</time>
      </trkpt>
      <trkpt lat="43.36979" lon="4.65427">
        <ele>42.122</ele>
        <time>2019-05-01T06:00:55Z</time>
      </trkpt>
      <trkpt lat="43.36979" lon="4.65427">
        <ele>42.299</ele>
        <time>2019-05-01T06:01:06Z</time>
      </trkpt>
      <trkpt lat="43.36974" lon="4.65429">
        <ele>43.362</ele>
        <time>2019-05-01T06:01:17Z</time>
      </trkpt>
      <trkpt lat="43.36978" lon="4.65422">
        <ele>44.908</ele>
        <time>2019-05-01T06:01:27Z</time>
      </trkpt>
      <trkpt lat="43.36989" lon="4.65423">
        <ele>45.666</ele>
        <time>2019-05-01T06:01:38Z</time>
      </trkpt>
      <trkpt lat="43.36996" lon="4.65429">
        <ele>45.77</ele>
        <time>2019-05-01T06:01:48Z</time>
      </trkpt>
      <trkpt lat="43.37018" lon="4.65416">
        <ele>45.435</ele>
        <time>2019-05-01T06:01:59Z</time>
      </trkpt>
      <trkpt lat="43.37033" lon="4.65393">
        <ele>44.903</ele>
        <time>2019-05-01T06:02:09Z</time>
      </trkpt>
      <trkpt lat="43.37063" lon="4.65392">
        <ele>44.644</ele>
        <time>2019-05-01T06:02:20Z</time>
      </trkpt>
      <trkpt lat="43.37094" lon="4.65399">
        <ele>44.453</ele>
        <time>2019-05-01T06:02:31Z</time>
      </trkpt>
      <trkpt lat="43.3712" lon="4.65403">
        <ele>44.24</ele>
        <time>2019-05-01T06:02:42Z</time>
      </trkpt>
      <trkpt lat="43.37143" lon="4.65405">
        <ele>44.68</ele>
        <time>2019-05-01T06:02:52Z</time>
      </trkpt>
      <trkpt lat="43.37169" lon="4.65411">
        <ele>45.279</ele>
        <time>2019-05-01T06:03:02Z</time>
      </trkpt>
      <trkpt lat="43.37199" lon="4.65415">
        <ele>45.373</ele>
        <time>2019-05-01T06:03:13Z</time>
      </trkpt>
      <trkpt lat="43.37228" lon="4.65421">
        <ele>45.311</ele>
        <time>2019-05-01T06:03:24Z</time>
      </trkpt>
      <trkpt lat="43.37253" lon="4.65428">
        <ele>44.886</ele>
        <time>2019-05-01T06:03:34Z</time>
      </trkpt>
      <trkpt lat="43.37281" lon="4.65429">
        <ele>45.051</ele>
        <time>2019-05-01T06:03:45Z</time>
      </trkpt>
      <trkpt lat="43.37312" lon="4.65435">
        <ele>45.024</ele>
        <time>2019-05-01T06:03:56Z</time>
      </trkpt>
      <trkpt lat="43.37339" lon="4.65441">
        <ele>45.163</ele>
        <time>2019-05-01T06:04:06Z</time>
      </trkpt>
      <trkpt lat="43.37369" lon="4.65448">
        <ele>44.715</ele>
        <time>2019-05-01T06:04:17Z</time>
      </trkpt>
      <trkpt lat="43.37399" lon="4.65453">
        <ele>44.724</ele>
        <time>2019-05-01T06:04:28Z</time>
      </trkpt>
      <trkpt lat="43.37431" lon="4.6546">
        <ele>44.412</ele>
        <time>2019-05-01T06:04:39Z</time>
      </trkpt>
      <trkpt lat="43.37463" lon="4.65466">
        <ele>44.003</ele>
        <time>2019-05-01T06:04:50Z</time>
      </trkpt>
      <trkpt lat="43.37494" lon="4.65473">
        <ele>43.194</ele>
        <time>2019-05-01T06:05:01Z</time>
      </trkpt>
      <trkpt lat="43.37526" lon="4.65477">
        <ele>42.685</ele>
        <time>2019-05-01T06:05:12Z</time>
      </trkpt>
      <trkpt lat="43.37552" lon="4.65489">
        <ele>42.407</ele>
        <time>2019-05-01T06:05:22Z</time>
      </trkpt>
      <trkpt lat="43.37567" lon="4.65528">
        <ele>41.223</ele>
        <time>2019-05-01T06:05:33Z</time>
      </trkpt>
      <trkpt lat="43.3757" lon="4.65569">
        <ele>40.709</ele>
        <time>2019-05-01T06:05:43Z</time>
      </trkpt>
      <trkpt lat="43.3757" lon="4.65618">
        <ele>40.941</ele>
        <time>2019-05-01T06:05:54Z</time>
      </trkpt>
      <trkpt lat="43.37569" lon="4.65673">
        <ele>42.599</ele>
        <time>2019-05-01T06:06:05Z</time>
      </trkpt>
      <trkpt lat="43.37569" lon="4.65734">
        <ele>43.087</ele>
        <time>2019-05-01T06:06:16Z</time>
      </trkpt>
      <trkpt lat="43.3757" lon="4.6579">
        <ele>41.899</ele>
        <time>2019-05-01T06:06:27Z</time>
      </trkpt>
      <trkpt lat="43.37569" lon="4.65841">
        <ele>42.611</ele>
        <time>2019-05-01T06:06:38Z</time>
      </trkpt>
      <trkpt lat="43.37569" lon="4.65885">
        <ele>43.569</ele>
        <time>2019-05-01T06:06:49Z</time>
      </trkpt>
      <trkpt lat="43.37568" lon="4.65888">
        <ele>43.605</ele>
        <time>2019-05-01T06:06:59Z</time>
      </trkpt>
      <trkpt lat="43.37568" lon="4.65889">
        <ele>43.938</ele>
        <time>2019-05-01T06:07:10Z</time>
      </trkpt>
      <trkpt lat="43.37568" lon="4.65889">
        <ele>43.951</ele>
        <time>2019-05-01T06:07:20Z</time>
      </trkpt>
      <trkpt lat="43.37568" lon="4.65889">
        <ele>43.938</ele>
        <time>2019-05-01T06:07:30Z</time>
      </trkpt>
      <trkpt lat="43.37568" lon="4.65889">
        <ele>43.911</ele>
        <time>2019-05-01T06:07:40Z</time>
      </trkpt>
      <trkpt lat="43.37568" lon="4.65889">
        <ele>43.888</ele>
        <time>2019-05-01T06:07:51Z</time>
      </trkpt>
      <trkpt lat="43.37568" lon="4.65889">
        <ele>43.882</ele>
        <time>2019-05-01T06:08:01Z</time>
      </trkpt>
      <trkpt lat="43.37568" lon="4.6589">
        <ele>43.794</ele>
        <time>2019-05-01T06:08:12Z</time>
      </trkpt>
      <trkpt lat="43.37568" lon="4.6589">
        <ele>43.717</ele>
        <time>2019-05-01T06:08:22Z</time>
      </trkpt>
      <trkpt lat="43.3757" lon="4.65906">
        <ele>43.923</ele>
        <time>2019-05-01T06:08:33Z</time>
      </trkpt>
      <trkpt lat="43.37571" lon="4.65949">
        <ele>45.446</ele>
        <time>2019-05-01T06:08:43Z</time>
      </trkpt>
      <trkpt lat="43.37573" lon="4.65999">
        <ele>45.815</ele>
        <time>2019-05-01T06:08:54Z</time>
      </trkpt>
      <trkpt lat="43.37574" lon="4.66011">
        <ele>45.776</ele>
        <time>2019-05-01T06:09:05Z</time>
      </trkpt>
      <trkpt lat="43.37573" lon="4.66031">
        <ele>44.863</ele>
        <time>2019-05-01T06:09:16Z</time>
      </trkpt>
      <trkpt lat="43.37574" lon="4.6608">
        <ele>44.017</ele>
        <time>2019-05-01T06:09:26Z</time>
      </trkpt>
      <trkpt lat="43.37573" lon="4.66123">
        <ele>43.348</ele>
        <time>2019-05-01T06:09:36Z</time>
      </trkpt>
      <trkpt lat="43.37573" lon="4.66175">
        <ele>42.534</ele>
        <time>2019-05-01T06:09:47Z</time>
      </trkpt>
      <trkpt lat="43.37574" lon="4.66229">
        <ele>42.548</ele>
        <time>2019-05-01T06:09:58Z</time>
      </trkpt>
      <trkpt lat="43.37575" lon="4.66287">
        <ele>44.351</ele>
        <time>2019-05-01T06:10:09Z</time>
      </trkpt>
      <trkpt lat="43.37574" lon="4.66342">
        <ele>45.255</ele>
        <time>2019-05-01T06:10:19Z</time>
      </trkpt>
      <trkpt lat="43.37576" lon="4.66403">
        <ele>45.329</ele>
        <time>2019-05-01T06:10:30Z</time>
      </trkpt>
      <trkpt lat="43.37576" lon="4.66456">
        <ele>43.285</ele>
        <time>2019-05-01T06:10:40Z</time>
      </trkpt>
      <trkpt lat="43.37574" lon="4.66519">
        <ele>41.549</ele>
        <time>2019-05-01T06:10:51Z</time>
      </trkpt>
      <trkpt lat="43.37571" lon="4.66576">
        <ele>43.766</ele>
        <time>2019-05-01T06:11:02Z</time>
      </trkpt>
      <trkpt lat="43.37571" lon="4.66633">
        <ele>44.186</ele>
        <time>2019-05-01T06:11:12Z</time>
      </trkpt>
      <trkpt lat="43.37573" lon="4.6669">
        <ele>44.44</ele>
        <time>2019-05-01T06:11:22Z</time>
      </trkpt>
      <trkpt lat="43.37573" lon="4.6675">
        <ele>45.348</ele>
        <time>2019-05-01T06:11:32Z</time>
      </trkpt>
      <trkpt lat="43.37573" lon="4.66815">
        <ele>45.824</ele>
        <time>2019-05-01T06:11:43Z</time>
      </trkpt>
      <trkpt lat="43.37574" lon="4.66872">
        <ele>45.835</ele>
        <time>2019-05-01T06:11:53Z</time>
      </trkpt>
      <trkpt lat="43.37575" lon="4.66928">
        <ele>46.678</ele>
        <time>2019-05-01T06:12:03Z</time>
      </trkpt>
      <trkpt lat="43.37575" lon="4.66985">
        <ele>46.031</ele>
        <time>2019-05-01T06:12:14Z</time>
      </trkpt>
      <trkpt lat="43.37574" lon="4.67038">
        <ele>45.901</ele>
        <time>2019-05-01T06:12:25Z</time>
      </trkpt>
      <trkpt lat="43.37574" lon="4.67093">
        <ele>44.446</ele>
        <time>2019-05-01T06:12:36Z</time>
      </trkpt>
      <trkpt lat="43.37576" lon="4.6714">
        <ele>44.331</ele>
        <time>2019-05-01T06:12:46Z</time>
      </trkpt>
      <trkpt lat="43.37577" lon="4.67196">
        <ele>44.624</ele>
        <time>2019-05-01T06:12:57Z</time>
      </trkpt>
      <trkpt lat="43.37577" lon="4.67253">
        <ele>45.193</ele>
        <time>2019-05-01T06:13:08Z</time>
      </trkpt>
      <trkpt lat="43.37577" lon="4.67308">
        <ele>46.247</ele>
        <time>2019-05-01T06:13:19Z</time>
      </trkpt>
      <trkpt lat="43.37577" lon="4.67356">
        <ele>46.656</ele>
        <time>2019-05-01T06:13:29Z</time>
      </trkpt>
      <trkpt lat="43.37578" lon="4.67401">
        <ele>46.588</ele>
        <time>2019-05-01T06:13:40Z</time>
      </trkpt>
      <trkpt lat="43.37582" lon="4.67423">
        <ele>46.281</ele>
        <time>2019-05-01T06:13:51Z</time>
      </trkpt>
      <trkpt lat="43.37581" lon="4.67423">
        <ele>45.857</ele>
        <time>2019-05-01T06:14:02Z</time>
      </trkpt>
      <trkpt lat="43.37582" lon="4.67421">
        <ele>45.337</ele>
        <time>2019-05-01T06:14:12Z</time>
      </trkpt>
      <trkpt lat="43.37581" lon="4.67423">
        <ele>45.105</ele>
        <time>2019-05-01T06:14:22Z</time>
      </trkpt>
      <trkpt lat="43.37582" lon="4.67422">
        <ele>44.87</ele>
        <time>2019-05-01T06:14:42Z</time>
      </trkpt>
      <trkpt lat="43.37582" lon="4.67421">
        <ele>44.792</ele>
        <time>2019-05-01T06:14:52Z</time>
      </trkpt>
      <trkpt lat="43.37582" lon="4.67421">
        <ele>44.728</ele>
        <time>2019-05-01T06:15:03Z</time>
      </trkpt>
      <trkpt lat="43.37581" lon="4.67421">
        <ele>44.717</ele>
        <time>2019-05-01T06:15:13Z</time>
      </trkpt>
      <trkpt lat="43.37582" lon="4.67421">
        <ele>44.676</ele>
        <time>2019-05-01T06:15:24Z</time>
      </trkpt>
      <trkpt lat="43.37582" lon="4.67421">
        <ele>44.671</ele>
        <time>2019-05-01T06:15:35Z</time>
      </trkpt>
      <trkpt lat="43.37582" lon="4.67421">
        <ele>44.701</ele>
        <time>2019-05-01T06:15:46Z</time>
      </trkpt>
      <trkpt lat="43.37581" lon="4.67422">
        <ele>44.725</ele>
        <time>2019-05-01T06:15:57Z</time>
      </trkpt>
      <trkpt lat="43.37583" lon="4.67421">
        <ele>44.589</ele>
        <time>2019-05-01T06:16:08Z</time>
      </trkpt>
      <trkpt lat="43.37582" lon="4.67416">
        <ele>44.221</ele>
        <time>2019-05-01T06:16:18Z</time>
      </trkpt>
      <trkpt lat="43.37579" lon="4.67374">
        <ele>43.79</ele>
        <time>2019-05-01T06:16:29Z</time>
      </trkpt>
      <trkpt lat="43.37581" lon="4.67323">
        <ele>42.733</ele>
        <time>2019-05-01T06:16:40Z</time>
      </trkpt>
      <trkpt lat="43.37578" lon="4.67269">
        <ele>40.999</ele>
        <time>2019-05-01T06:16:51Z</time>
      </trkpt>
      <trkpt lat="43.37578" lon="4.67215">
        <ele>41.175</ele>
        <time>2019-05-01T06:17:02Z</time>
      </trkpt>
      <trkpt lat="43.37577" lon="4.67163">
        <ele>44.293</ele>
        <time>2019-05-01T06:17:12Z</time>
      </trkpt>
      <trkpt lat="43.37577" lon="4.67111">
        <ele>44.811</ele>
        <time>2019-05-01T06:17:23Z</time>
      </trkpt>
      <trkpt lat="43.37576" lon="4.67061">
        <ele>45.197</ele>
        <time>2019-05-01T06:17:34Z</time>
      </trkpt>
      <trkpt lat="43.37576" lon="4.67007">
        <ele>45.302</ele>
        <time>2019-05-01T06:17:45Z</time>
      </trkpt>
      <trkpt lat="43.37577" lon="4.66961">
        <ele>45.177</ele>
        <time>2019-05-01T06:17:55Z</time>
      </trkpt>
      <trkpt lat="43.37576" lon="4.66912">
        <ele>45.057</ele>
        <time>2019-05-01T06:18:05Z</time>
      </trkpt>
      <trkpt lat="43.37575" lon="4.66858">
        <ele>44.882</ele>
        <time>2019-05-01T06:18:16Z</time>
      </trkpt>
      <trkpt lat="43.37594" lon="4.66845">
        <ele>44.855</ele>
        <time>2019-05-01T06:18:27Z</time>
      </trkpt>
      <trkpt lat="43.37621" lon="4.66875">
        <ele>44.901</ele>
        <time>2019-05-01T06:18:38Z</time>
      </trkpt>
      <trkpt lat="43.37648" lon="4.66901">
        <ele>44.836</ele>
        <time>2019-05-01T06:18:49Z</time>
      </trkpt>
      <trkpt lat="43.37673" lon="4.66926">
        <ele>44.835</ele>
        <time>2019-05-01T06:19:00Z</time>
      </trkpt>
      <trkpt lat="43.37698" lon="4.66947">
        <ele>45.507</ele>
        <time>2019-05-01T06:19:11Z</time>
      </trkpt>
      <trkpt lat="43.37726" lon="4.6696">
        <ele>46.427</ele>
        <time>2019-05-01T06:19:21Z</time>
      </trkpt>
      <trkpt lat="43.37752" lon="4.6698">
        <ele>47.133</ele>
        <time>2019-05-01T06:19:32Z</time>
      </trkpt>
      <trkpt lat="43.37777" lon="4.66997">
        <ele>47.47</ele>
        <time>2019-05-01T06:19:42Z</time>
      </trkpt>
      <trkpt lat="43.37803" lon="4.67015">
        <ele>48.027</ele>
        <time>2019-05-01T06:19:53Z</time>
      </trkpt>
      <trkpt lat="43.37828" lon="4.67032">
        <ele>48.197</ele>
        <time>2019-05-01T06:20:03Z</time>
      </trkpt>
      <trkpt lat="43.37855" lon="4.67052">
        <ele>47.995</ele>
        <time>2019-05-01T06:20:14Z</time>
      </trkpt>
      <trkpt lat="43.37883" lon="4.67068">
        <ele>48.018</ele>
        <time>2019-05-01T06:20:25Z</time>
      </trkpt>
      <trkpt lat="43.37908" lon="4.67084">
        <ele>48.222</ele>
        <time>2019-05-01T06:20:35Z</time>
      </trkpt>
      <trkpt lat="43.37936" lon="4.67099">
        <ele>48.474</ele>
        <time>2019-05-01T06:20:46Z</time>
      </trkpt>
      <trkpt lat="43.37964" lon="4.67115">
        <ele>48.24</ele>
        <time>2019-05-01T06:20:57Z</time>
      </trkpt>
      <trkpt lat="43.37992" lon="4.6713">
        <ele>48.328</ele>
        <time>2019-05-01T06:21:08Z</time>
      </trkpt>
      <trkpt lat="43.38022" lon="4.67146">
        <ele>48.127</ele>
        <time>2019-05-01T06:21:19Z</time>
      </trkpt>
      <trkpt lat="43.3805" lon="4.6716">
        <ele>48.095</ele>
        <time>2019-05-01T06:21:30Z</time>
      </trkpt>
      <trkpt lat="43.38076" lon="4.67177">
        <ele>48.24</ele>
        <time>2019-05-01T06:21:41Z</time>
      </trkpt>
      <trkpt lat="43.38102" lon="4.67189">
        <ele>48.584</ele>
        <time>2019-05-01T06:21:51Z</time>
      </trkpt>
      <trkpt lat="43.38129" lon="4.67204">
        <ele>48.643</ele>
        <time>2019-05-01T06:22:02Z</time>
      </trkpt>
      <trkpt lat="43.38155" lon="4.67218">
        <ele>49.111</ele>
        <time>2019-05-01T06:22:13Z</time>
      </trkpt>
      <trkpt lat="43.38181" lon="4.67229">
        <ele>49.572</ele>
        <time>2019-05-01T06:22:23Z</time>
      </trkpt>
      <trkpt lat="43.38206" lon="4.67238">
        <ele>50.285</ele>
        <time>2019-05-01T06:22:33Z</time>
      </trkpt>
      <trkpt lat="43.38235" lon="4.67251">
        <ele>50.909</ele>
        <time>2019-05-01T06:22:44Z</time>
      </trkpt>
      <trkpt lat="43.38265" lon="4.67263">
        <ele>51.217</ele>
        <time>2019-05-01T06:22:55Z</time>
      </trkpt>
      <trkpt lat="43.38295" lon="4.67275">
        <ele>51.421</ele>
        <time>2019-05-01T06:23:06Z</time>
      </trkpt>
      <trkpt lat="43.3832" lon="4.67285">
        <ele>51.521</ele>
        <time>2019-05-01T06:23:16Z</time>
      </trkpt>
      <trkpt lat="43.38348" lon="4.67296">
        <ele>51.675</ele>
        <time>2019-05-01T06:23:27Z</time>
      </trkpt>
      <trkpt lat="43.38375" lon="4.67308">
        <ele>52.052</ele>
        <time>2019-05-01T06:23:38Z</time>
      </trkpt>
      <trkpt lat="43.38402" lon="4.6732">
        <ele>52.521</ele>
        <time>2019-05-01T06:23:49Z</time>
      </trkpt>
      <trkpt lat="43.38427" lon="4.6733">
        <ele>53.043</ele>
        <time>2019-05-01T06:23:59Z</time>
      </trkpt>
      <trkpt lat="43.38454" lon="4.67342">
        <ele>53.514</ele>
        <time>2019-05-01T06:24:10Z</time>
      </trkpt>
      <trkpt lat="43.38481" lon="4.67352">
        <ele>53.723</ele>
        <time>2019-05-01T06:24:21Z</time>
      </trkpt>
      <trkpt lat="43.38508" lon="4.67359">
        <ele>53.27</ele>
        <time>2019-05-01T06:24:32Z</time>
      </trkpt>
      <trkpt lat="43.38521" lon="4.67332">
        <ele>52.056</ele>
        <time>2019-05-01T06:24:43Z</time>
      </trkpt>
      <trkpt lat="43.3852" lon="4.67333">
        <ele>51.96</ele>
        <time>2019-05-01T06:24:54Z</time>
      </trkpt>
      <trkpt lat="43.3852" lon="4.67303">
        <ele>51.67</ele>
        <time>2019-05-01T06:25:04Z</time>
      </trkpt>
      <trkpt lat="43.38518" lon="4.67262">
        <ele>51.445</ele>
        <time>2019-05-01T06:25:14Z</time>
      </trkpt>
      <trkpt lat="43.38515" lon="4.67213">
        <ele>51.348</ele>
        <time>2019-05-01T06:25:25Z</time>
      </trkpt>
      <trkpt lat="43.38519" lon="4.67165">
        <ele>51.395</ele>
        <time>2019-05-01T06:25:36Z</time>
      </trkpt>
      <trkpt lat="43.38546" lon="4.67164">
        <ele>51.321</ele>
        <time>2019-05-01T06:25:46Z</time>
      </trkpt>
      <trkpt lat="43.38582" lon="4.67172">
        <ele>51.003</ele>
        <time>2019-05-01T06:25:57Z</time>
      </trkpt>
      <trkpt lat="43.38616" lon="4.67177">
        <ele>50.828</ele>
        <time>2019-05-01T06:26:08Z</time>
      </trkpt>
      <trkpt lat="43.38647" lon="4.67181">
        <ele>50.662</ele>
        <time>2019-05-01T06:26:18Z</time>
      </trkpt>
      <trkpt lat="43.38678" lon="4.67179">
        <ele>50.56</ele>
        <time>2019-05-01T06:26:29Z</time>
      </trkpt>
      <trkpt lat="43.38707" lon="4.67172">
        <ele>50.723</ele>
        <time>2019-05-01T06:26:40Z</time>
      </trkpt>
      <trkpt lat="43.38735" lon="4.67165">
        <ele>51.082</ele>
        <time>2019-05-01T06:26:50Z</time>
      </trkpt>
      <trkpt lat="43.38768" lon="4.67155">
        <ele>51.365</ele>
        <time>2019-05-01T06:27:01Z</time>
      </trkpt>
      <trkpt lat="43.38796" lon="4.67145">
        <ele>51.654</ele>
        <time>2019-05-01T06:27:11Z</time>
      </trkpt>
      <trkpt lat="43.38829" lon="4.67137">
        <ele>51.824</ele>
        <time>2019-05-01T06:27:22Z</time>
      </trkpt>
      <trkpt lat="43.38857" lon="4.67129">
        <ele>51.941</ele>
        <time>2019-05-01T06:27:32Z</time>
      </trkpt>
      <trkpt lat="43.38885" lon="4.67119">
        <ele>52.202</ele>
        <time>2019-05-01T06:27:43Z</time>
      </trkpt>
      <trkpt lat="43.38915" lon="4.6711">
        <ele>52.161</ele>
        <time>2019-05-01T06:27:54Z</time>
      </trkpt>
      <trkpt lat="43.38947" lon="4.67101">
        <ele>52.02</ele>
        <time>2019-05-01T06:28:05Z</time>
      </trkpt>
      <trkpt lat="43.3898" lon="4.67091">
        <ele>51.852</ele>
        <time>2019-05-01T06:28:16Z</time>
      </trkpt>
      <trkpt lat="43.39009" lon="4.67083">
        <ele>51.614</ele>
        <time>2019-05-01T06:28:26Z</time>
      </trkpt>
      <trkpt lat="43.39036" lon="4.67075">
        <ele>51.508</ele>
        <time>2019-05-01T06:28:36Z</time>
      </trkpt>
      <trkpt lat="43.39068" lon="4.67067">
        <ele>51.544</ele>
        <time>2019-05-01T06:28:47Z</time>
      </trkpt>
      <trkpt lat="43.39099" lon="4.67058">
        <ele>51.553</ele>
        <time>2019-05-01T06:28:58Z</time>
      </trkpt>
      <trkpt lat="43.39127" lon="4.6705">
        <ele>51.563</ele>
        <time>2019-05-01T06:29:08Z</time>
      </trkpt>
      <trkpt lat="43.3916" lon="4.67041">
        <ele>51.587</ele>
        <time>2019-05-01T06:29:19Z</time>
      </trkpt>
      <trkpt lat="43.39191" lon="4.67032">
        <ele>51.589</ele>
        <time>2019-05-01T06:29:30Z</time>
      </trkpt>
      <trkpt lat="43.39218" lon="4.67024">
        <ele>51.487</ele>
        <time>2019-05-01T06:29:40Z</time>
      </trkpt>
      <trkpt lat="43.39247" lon="4.67005">
        <ele>51.331</ele>
        <time>2019-05-01T06:29:51Z</time>
      </trkpt>
      <trkpt lat="43.3927" lon="4.66979">
        <ele>51.242</ele>
        <time>2019-05-01T06:30:01Z</time>
      </trkpt>
      <trkpt lat="43.39292" lon="4.6695">
        <ele>51.06</ele>
        <time>2019-05-01T06:30:11Z</time>
      </trkpt>
      <trkpt lat="43.39318" lon="4.66951">
        <ele>50.545</ele>
        <time>2019-05-01T06:30:22Z</time>
      </trkpt>
      <trkpt lat="43.39346" lon="4.66961">
        <ele>50.425</ele>
        <time>2019-05-01T06:30:33Z</time>
      </trkpt>
      <trkpt lat="43.39378" lon="4.66964">
        <ele>50.343</ele>
        <time>2019-05-01T06:30:44Z</time>
      </trkpt>
      <trkpt lat="43.39407" lon="4.66965">
        <ele>50.272</ele>
        <time>2019-05-01T06:30:55Z</time>
      </trkpt>
      <trkpt lat="43.39437" lon="4.66972">
        <ele>50.3</ele>
        <time>2019-05-01T06:31:05Z</time>
      </trkpt>
      <trkpt lat="43.39473" lon="4.66983">
        <ele>50.264</ele>
        <time>2019-05-01T06:31:16Z</time>
      </trkpt>
      <trkpt lat="43.39503" lon="4.66993">
        <ele>50.207</ele>
        <time>2019-05-01T06:31:27Z</time>
      </trkpt>
      <trkpt lat="43.39531" lon="4.67003">
        <ele>50.377</ele>
        <time>2019-05-01T06:31:37Z</time>
      </trkpt>
      <trkpt lat="43.39561" lon="4.67013">
        <ele>50.24</ele>
        <time>2019-05-01T06:31:48Z</time>
      </trkpt>
      <trkpt lat="43.39591" lon="4.67026">
        <ele>50.101</ele>
        <time>2019-05-01T06:31:59Z</time>
      </trkpt>
      <trkpt lat="43.39619" lon="4.67041">
        <ele>49.91</ele>
        <time>2019-05-01T06:32:10Z</time>
      </trkpt>
      <trkpt lat="43.39651" lon="4.67056">
        <ele>49.458</ele>
        <time>2019-05-01T06:32:21Z</time>
      </trkpt>
      <trkpt lat="43.39677" lon="4.67074">
        <ele>49.616</ele>
        <time>2019-05-01T06:32:31Z</time>
      </trkpt>
      <trkpt lat="43.39706" lon="4.67096">
        <ele>50.178</ele>
        <time>2019-05-01T06:32:42Z</time>
      </trkpt>
      <trkpt lat="43.39737" lon="4.67115">
        <ele>50.549</ele>
        <time>2019-05-01T06:32:53Z</time>
      </trkpt>
      <trkpt lat="43.39765" lon="4.67131">
        <ele>50.579</ele>
        <time>2019-05-01T06:33:04Z</time>
      </trkpt>
      <trkpt lat="43.39793" lon="4.67151">
        <ele>50.529</ele>
        <time>2019-05-01T06:33:14Z</time>
      </trkpt>
      <trkpt lat="43.3982" lon="4.67178">
        <ele>50.516</ele>
        <time>2019-05-01T06:33:25Z</time>
      </trkpt>
      <trkpt lat="43.39848" lon="4.67204">
        <ele>50.484</ele>
        <time>2019-05-01T06:33:36Z</time>
      </trkpt>
      <trkpt lat="43.39875" lon="4.6723">
        <ele>50.557</ele>
        <time>2019-05-01T06:33:47Z</time>
      </trkpt>
      <trkpt lat="43.399" lon="4.67257">
        <ele>50.659</ele>
        <time>2019-05-01T06:33:58Z</time>
      </trkpt>
      <trkpt lat="43.39925" lon="4.67282">
        <ele>50.498</ele>
        <time>2019-05-01T06:34:08Z</time>
      </trkpt>
      <trkpt lat="43.3995" lon="4.67309">
        <ele>50.542</ele>
        <time>2019-05-01T06:34:19Z</time>
      </trkpt>
      <trkpt lat="43.39981" lon="4.67304">
        <ele>50.593</ele>
        <time>2019-05-01T06:34:30Z</time>
      </trkpt>
      <trkpt lat="43.39987" lon="4.67298">
        <ele>50.487</ele>
        <time>2019-05-01T06:34:41Z</time>
      </trkpt>
      <trkpt lat="43.39986" lon="4.67298">
        <ele>50.485</ele>
        <time>2019-05-01T06:34:51Z</time>
      </trkpt>
      <trkpt lat="43.39986" lon="4.67298">
        <ele>50.484</ele>
        <time>2019-05-01T06:35:02Z</time>
      </trkpt>
      <trkpt lat="43.39986" lon="4.67298">
        <ele>50.47</ele>
        <time>2019-05-01T06:35:12Z</time>
      </trkpt>
      <trkpt lat="43.39987" lon="4.67298">
        <ele>50.467</ele>
        <time>2019-05-01T06:35:22Z</time>
      </trkpt>
      <trkpt lat="43.39987" lon="4.67298">
        <ele>50.456</ele>
        <time>2019-05-01T06:35:33Z</time>
      </trkpt>
      <trkpt lat="43.39988" lon="4.67298">
        <ele>50.441</ele>
        <time>2019-05-01T06:35:43Z</time>
      </trkpt>
      <trkpt lat="43.39989" lon="4.67298">
        <ele>50.427</ele>
        <time>2019-05-01T06:35:53Z</time>
      </trkpt>
      <trkpt lat="43.39989" lon="4.67298">
        <ele>50.409</ele>
        <time>2019-05-01T06:36:04Z</time>
      </trkpt>
      <trkpt lat="43.3999" lon="4.67298">
        <ele>50.388</ele>
        <time>2019-05-01T06:36:15Z</time>
      </trkpt>
      <trkpt lat="43.39995" lon="4.67291">
        <ele>50.359</ele>
        <time>2019-05-01T06:36:25Z</time>
      </trkpt>
      <trkpt lat="43.40016" lon="4.67263">
        <ele>50.812</ele>
        <time>2019-05-01T06:36:35Z</time>
      </trkpt>
      <trkpt lat="43.40044" lon="4.67234">
        <ele>51.319</ele>
        <time>2019-05-01T06:36:45Z</time>
      </trkpt>
      <trkpt lat="43.4007" lon="4.67201">
        <ele>51.788</ele>
        <time>2019-05-01T06:36:55Z</time>
      </trkpt>
      <trkpt lat="43.401" lon="4.67164">
        <ele>52.908</ele>
        <time>2019-05-01T06:37:06Z</time>
      </trkpt>
      <trkpt lat="43.40128" lon="4.6713">
        <ele>52.977</ele>
        <time>2019-05-01T06:37:17Z</time>
      </trkpt>
      <trkpt lat="43.40159" lon="4.67094">
        <ele>52.995</ele>
        <time>2019-05-01T06:37:28Z</time>
      </trkpt>
      <trkpt lat="43.40183" lon="4.67066">
        <ele>52.993</ele>
        <time>2019-05-01T06:37:38Z</time>
      </trkpt>
      <trkpt lat="43.4018" lon="4.67059">
        <ele>52.838</ele>
        <time>2019-05-01T06:37:48Z</time>
      </trkpt>
      <trkpt lat="43.4018" lon="4.67017">
        <ele>52.59</ele>
        <time>2019-05-01T06:37:59Z</time>
      </trkpt>
      <trkpt lat="43.40204" lon="4.66979">
        <ele>52.384</ele>
        <time>2019-05-01T06:38:10Z</time>
      </trkpt>
      <trkpt lat="43.40195" lon="4.66935">
        <ele>52.158</ele>
        <time>2019-05-01T06:38:21Z</time>
      </trkpt>
      <trkpt lat="43.40205" lon="4.6696">
        <ele>51.838</ele>
        <time>2019-05-01T06:38:31Z</time>
      </trkpt>
      <trkpt lat="43.40191" lon="4.67004">
        <ele>52.556</ele>
        <time>2019-05-01T06:38:42Z</time>
      </trkpt>
      <trkpt lat="43.40178" lon="4.67055">
        <ele>51.446</ele>
        <time>2019-05-01T06:38:53Z</time>
      </trkpt>
      <trkpt lat="43.40201" lon="4.67043">
        <ele>51.547</ele>
        <time>2019-05-01T06:39:04Z</time>
      </trkpt>
      <trkpt lat="43.40232" lon="4.67011">
        <ele>51.616</ele>
        <time>2019-05-01T06:39:15Z</time>
      </trkpt>
      <trkpt lat="43.40242" lon="4.67003">
        <ele>51.712</ele>
        <time>2019-05-01T06:39:26Z</time>
      </trkpt>
      <trkpt lat="43.40224" lon="4.67017">
        <ele>51.152</ele>
        <time>2019-05-01T06:39:37Z</time>
      </trkpt>
      <trkpt lat="43.40202" lon="4.67046">
        <ele>50.708</ele>
        <time>2019-05-01T06:39:48Z</time>
      </trkpt>
      <trkpt lat="43.40186" lon="4.67064">
        <ele>50.579</ele>
        <time>2019-05-01T06:39:59Z</time>
      </trkpt>
      <trkpt lat="43.40176" lon="4.67047">
        <ele>50.239</ele>
        <time>2019-05-01T06:40:10Z</time>
      </trkpt>
      <trkpt lat="43.40189" lon="4.67006">
        <ele>50.285</ele>
        <time>2019-05-01T06:40:20Z</time>
      </trkpt>
      <trkpt lat="43.40205" lon="4.6697">
        <ele>50.267</ele>
        <time>2019-05-01T06:40:30Z</time>
      </trkpt>
      <trkpt lat="43.4019" lon="4.66918">
        <ele>51.062</ele>
        <time>2019-05-01T06:40:41Z</time>
      </trkpt>
      <trkpt lat="43.40175" lon="4.66871">
        <ele>51.551</ele>
        <time>2019-05-01T06:40:51Z</time>
      </trkpt>
      <trkpt lat="43.40194" lon="4.66829">
        <ele>51.653</ele>
        <time>2019-05-01T06:41:02Z</time>
      </trkpt>
      <trkpt lat="43.40206" lon="4.66783">
        <ele>51.888</ele>
        <time>2019-05-01T06:41:12Z</time>
      </trkpt>
      <trkpt lat="43.40227" lon="4.66808">
        <ele>51.761</ele>
        <time>2019-05-01T06:41:22Z</time>
      </trkpt>
      <trkpt lat="43.40238" lon="4.66828">
        <ele>51.296</ele>
        <time>2019-05-01T06:41:33Z</time>
      </trkpt>
      <trkpt lat="43.40259" lon="4.6687">
        <ele>50.542</ele>
        <time>2019-05-01T06:41:43Z</time>
      </trkpt>
      <trkpt lat="43.40282" lon="4.66914">
        <ele>50.69</ele>
        <time>2019-05-01T06:41:54Z</time>
      </trkpt>
      <trkpt lat="43.403" lon="4.66945">
        <ele>51.006</ele>
        <time>2019-05-01T06:42:04Z</time>
      </trkpt>
      <trkpt lat="43.4032" lon="4.66987">
        <ele>50.856</ele>
        <time>2019-05-01T06:42:15Z</time>
      </trkpt>
      <trkpt lat="43.40339" lon="4.67033">
        <ele>50.456</ele>
        <time>2019-05-01T06:42:26Z</time>
      </trkpt>
      <trkpt lat="43.40363" lon="4.67074">
        <ele>50.323</ele>
        <time>2019-05-01T06:42:37Z</time>
      </trkpt>
      <trkpt lat="43.40386" lon="4.67117">
        <ele>50.11</ele>
        <time>2019-05-01T06:42:48Z</time>
      </trkpt>
      <trkpt lat="43.40406" lon="4.67157">
        <ele>49.944</ele>
        <time>2019-05-01T06:42:58Z</time>
      </trkpt>
      <trkpt lat="43.40429" lon="4.67199">
        <ele>50.161</ele>
        <time>2019-05-01T06:43:09Z</time>
      </trkpt>
      <trkpt lat="43.4045" lon="4.67242">
        <ele>50.478</ele>
        <time>2019-05-01T06:43:20Z</time>
      </trkpt>
      <trkpt lat="43.4047" lon="4.67281">
        <ele>50.596</ele>
        <time>2019-05-01T06:43:30Z</time>
      </trkpt>
      <trkpt lat="43.40495" lon="4.67327">
        <ele>50.657</ele>
        <time>2019-05-01T06:43:41Z</time>
      </trkpt>
      <trkpt lat="43.40515" lon="4.67369">
        <ele>50.607</ele>
        <time>2019-05-01T06:43:51Z</time>
      </trkpt>
      <trkpt lat="43.40535" lon="4.67411">
        <ele>50.645</ele>
        <time>2019-05-01T06:44:01Z</time>
      </trkpt>
      <trkpt lat="43.40556" lon="4.67451">
        <ele>50.616</ele>
        <time>2019-05-01T06:44:11Z</time>
      </trkpt>
      <trkpt lat="43.40581" lon="4.67495">
        <ele>50.56</ele>
        <time>2019-05-01T06:44:22Z</time>
      </trkpt>
      <trkpt lat="43.40604" lon="4.67543">
        <ele>51.049</ele>
        <time>2019-05-01T06:44:33Z</time>
      </trkpt>
      <trkpt lat="43.40634" lon="4.67589">
        <ele>50.434</ele>
        <time>2019-05-01T06:44:44Z</time>
      </trkpt>
      <trkpt lat="43.40666" lon="4.67629">
        <ele>47.231</ele>
        <time>2019-05-01T06:44:55Z</time>
      </trkpt>
      <trkpt lat="43.40697" lon="4.6767">
        <ele>47.762</ele>
        <time>2019-05-01T06:45:06Z</time>
      </trkpt>
      <trkpt lat="43.40726" lon="4.67696">
        <ele>49.293</ele>
        <time>2019-05-01T06:45:16Z</time>
      </trkpt>
      <trkpt lat="43.40769" lon="4.67693">
        <ele>51.053</ele>
        <time>2019-05-01T06:45:27Z</time>
      </trkpt>
      <trkpt lat="43.40807" lon="4.67693">
        <ele>51.234</ele>
        <time>2019-05-01T06:45:37Z</time>
      </trkpt>
      <trkpt lat="43.4085" lon="4.6769">
        <ele>50.483</ele>
        <time>2019-05-01T06:45:48Z</time>
      </trkpt>
      <trkpt lat="43.40891" lon="4.67691">
        <ele>50.991</ele>
        <time>2019-05-01T06:45:59Z</time>
      </trkpt>
      <trkpt lat="43.40933" lon="4.67693">
        <ele>50.736</ele>
        <time>2019-05-01T06:46:10Z</time>
      </trkpt>
      <trkpt lat="43.40973" lon="4.67686">
        <ele>50.792</ele>
        <time>2019-05-01T06:46:21Z</time>
      </trkpt>
      <trkpt lat="43.41014" lon="4.67688">
        <ele>51.25</ele>
        <time>2019-05-01T06:46:32Z</time>
      </trkpt>
      <trkpt lat="43.41053" lon="4.67687">
        <ele>51.157</ele>
        <time>2019-05-01T06:46:43Z</time>
      </trkpt>
      <trkpt lat="43.41085" lon="4.67688">
        <ele>50.823</ele>
        <time>2019-05-01T06:46:53Z</time>
      </trkpt>
      <trkpt lat="43.41219" lon="4.6789">
        <ele>25.214</ele>
        <time>2019-05-01T06:48:32Z</time>
      </trkpt>
      <trkpt lat="43.41222" lon="4.67946">
        <ele>49.219</ele>
        <time>2019-05-01T06:48:43Z</time>
      </trkpt>
      <trkpt lat="43.41233" lon="4.67991">
        <ele>51.482</ele>
        <time>2019-05-01T06:48:54Z</time>
      </trkpt>
      <trkpt lat="43.41241" lon="4.68038">
        <ele>49.54</ele>
        <time>2019-05-01T06:49:05Z</time>
      </trkpt>
      <trkpt lat="43.41252" lon="4.68088">
        <ele>50.855</ele>
        <time>2019-05-01T06:49:16Z</time>
      </trkpt>
      <trkpt lat="43.41262" lon="4.68134">
        <ele>50.991</ele>
        <time>2019-05-01T06:49:26Z</time>
      </trkpt>
      <trkpt lat="43.41273" lon="4.68187">
        <ele>51.363</ele>
        <time>2019-05-01T06:49:37Z</time>
      </trkpt>
      <trkpt lat="43.41285" lon="4.68238">
        <ele>51.06</ele>
        <time>2019-05-01T06:49:48Z</time>
      </trkpt>
      <trkpt lat="43.41296" lon="4.6829">
        <ele>52.06</ele>
        <time>2019-05-01T06:49:58Z</time>
      </trkpt>
      <trkpt lat="43.41309" lon="4.68349">
        <ele>52.004</ele>
        <time>2019-05-01T06:50:09Z</time>
      </trkpt>
      <trkpt lat="43.41319" lon="4.684">
        <ele>50.731</ele>
        <time>2019-05-01T06:50:19Z</time>
      </trkpt>
      <trkpt lat="43.41331" lon="4.68455">
        <ele>49.992</ele>
        <time>2019-05-01T06:50:30Z</time>
      </trkpt>
      <trkpt lat="43.41343" lon="4.68512">
        <ele>50.339</ele>
        <time>2019-05-01T06:50:41Z</time>
      </trkpt>
      <trkpt lat="43.41355" lon="4.68567">
        <ele>49.267</ele>
        <time>2019-05-01T06:50:52Z</time>
      </trkpt>
      <trkpt lat="43.41367" lon="4.68624">
        <ele>49.853</ele>
        <time>2019-05-01T06:51:03Z</time>
      </trkpt>
      <trkpt lat="43.41377" lon="4.68677">
        <ele>51.408</ele>
        <time>2019-05-01T06:51:14Z</time>
      </trkpt>
      <trkpt lat="43.41379" lon="4.68728">
        <ele>51.243</ele>
        <time>2019-05-01T06:51:25Z</time>
      </trkpt>
      <trkpt lat="43.41379" lon="4.68779">
        <ele>50.923</ele>
        <time>2019-05-01T06:51:35Z</time>
      </trkpt>
      <trkpt lat="43.41379" lon="4.68829">
        <ele>50.779</ele>
        <time>2019-05-01T06:51:45Z</time>
      </trkpt>
      <trkpt lat="43.41378" lon="4.68879">
        <ele>50.339</ele>
        <time>2019-05-01T06:51:55Z</time>
      </trkpt>
      <trkpt lat="43.41377" lon="4.68935">
        <ele>50.16</ele>
        <time>2019-05-01T06:52:06Z</time>
      </trkpt>
      <trkpt lat="43.41378" lon="4.68994">
        <ele>50.283</ele>
        <time>2019-05-01T06:52:17Z</time>
      </trkpt>
      <trkpt lat="43.41374" lon="4.69048">
        <ele>50.421</ele>
        <time>2019-05-01T06:52:28Z</time>
      </trkpt>
      <trkpt lat="43.41363" lon="4.69095">
        <ele>50.208</ele>
        <time>2019-05-01T06:52:38Z</time>
      </trkpt>
      <trkpt lat="43.41343" lon="4.69139">
        <ele>50.128</ele>
        <time>2019-05-01T06:52:48Z</time>
      </trkpt>
      <trkpt lat="43.41322" lon="4.69177">
        <ele>50.688</ele>
        <time>2019-05-01T06:52:59Z</time>
      </trkpt>
      <trkpt lat="43.41305" lon="4.69207">
        <ele>51.082</ele>
        <time>2019-05-01T06:53:10Z</time>
      </trkpt>
      <trkpt lat="43.41284" lon="4.69246">
        <ele>52.039</ele>
        <time>2019-05-01T06:53:21Z</time>
      </trkpt>
      <trkpt lat="43.4127" lon="4.69282">
        <ele>51.662</ele>
        <time>2019-05-01T06:53:32Z</time>
      </trkpt>
      <trkpt lat="43.41277" lon="4.69311">
        <ele>48.971</ele>
        <time>2019-05-01T06:53:42Z</time>
      </trkpt>
      <trkpt lat="43.41302" lon="4.69314">
        <ele>49.255</ele>
        <time>2019-05-01T06:53:53Z</time>
      </trkpt>
      <trkpt lat="43.41301" lon="4.69314">
        <ele>49.266</ele>
        <time>2019-05-01T06:54:03Z</time>
      </trkpt>
      <trkpt lat="43.41302" lon="4.69313">
        <ele>49.331</ele>
        <time>2019-05-01T06:54:13Z</time>
      </trkpt>
      <trkpt lat="43.41302" lon="4.69314">
        <ele>49.297</ele>
        <time>2019-05-01T06:54:23Z</time>
      </trkpt>
      <trkpt lat="43.41302" lon="4.69313">
        <ele>49.385</ele>
        <time>2019-05-01T06:54:33Z</time>
      </trkpt>
      <trkpt lat="43.41302" lon="4.69313">
        <ele>49.573</ele>
        <time>2019-05-01T06:54:45Z</time>
      </trkpt>
      <trkpt lat="43.41294" lon="4.69309">
        <ele>49.905</ele>
        <time>2019-05-01T06:54:55Z</time>
      </trkpt>
      <trkpt lat="43.41263" lon="4.69307">
        <ele>50.457</ele>
        <time>2019-05-01T06:55:05Z</time>
      </trkpt>
      <trkpt lat="43.41242" lon="4.6933">
        <ele>51.117</ele>
        <time>2019-05-01T06:55:16Z</time>
      </trkpt>
      <trkpt lat="43.41221" lon="4.69366">
        <ele>51.48</ele>
        <time>2019-05-01T06:55:27Z</time>
      </trkpt>
      <trkpt lat="43.41195" lon="4.69412">
        <ele>51.742</ele>
        <time>2019-05-01T06:55:37Z</time>
      </trkpt>
      <trkpt lat="43.41193" lon="4.69416">
        <ele>51.758</ele>
        <time>2019-05-01T06:55:48Z</time>
      </trkpt>
      <trkpt lat="43.41193" lon="4.69412">
        <ele>51.39</ele>
        <time>2019-05-01T06:55:59Z</time>
      </trkpt>
      <trkpt lat="43.41193" lon="4.69412">
        <ele>51.131</ele>
        <time>2019-05-01T06:56:09Z</time>
      </trkpt>
      <trkpt lat="43.41193" lon="4.69413">
        <ele>51.036</ele>
        <time>2019-05-01T06:56:20Z</time>
      </trkpt>
      <trkpt lat="43.41185" lon="4.69433">
        <ele>50.924</ele>
        <time>2019-05-01T06:56:30Z</time>
      </trkpt>
      <trkpt lat="43.41158" lon="4.69482">
        <ele>50.667</ele>
        <time>2019-05-01T06:56:41Z</time>
      </trkpt>
      <trkpt lat="43.41135" lon="4.69529">
        <ele>52.811</ele>
        <time>2019-05-01T06:56:51Z</time>
      </trkpt>
      <trkpt lat="43.41109" lon="4.69573">
        <ele>51.472</ele>
        <time>2019-05-01T06:57:01Z</time>
      </trkpt>
      <trkpt lat="43.41083" lon="4.69624">
        <ele>49.07</ele>
        <time>2019-05-01T06:57:12Z</time>
      </trkpt>
      <trkpt lat="43.41065" lon="4.69657">
        <ele>48.937</ele>
        <time>2019-05-01T06:57:22Z</time>
      </trkpt>
      <trkpt lat="43.41048" lon="4.69693">
        <ele>49.104</ele>
        <time>2019-05-01T06:57:32Z</time>
      </trkpt>
      <trkpt lat="43.41023" lon="4.6974">
        <ele>50.043</ele>
        <time>2019-05-01T06:57:42Z</time>
      </trkpt>
      <trkpt lat="43.40994" lon="4.69794">
        <ele>50.946</ele>
        <time>2019-05-01T06:57:53Z</time>
      </trkpt>
      <trkpt lat="43.40966" lon="4.69844">
        <ele>50.456</ele>
        <time>2019-05-01T06:58:04Z</time>
      </trkpt>
      <trkpt lat="43.40941" lon="4.69891">
        <ele>51.424</ele>
        <time>2019-05-01T06:58:14Z</time>
      </trkpt>
      <trkpt lat="43.40913" lon="4.6994">
        <ele>51.076</ele>
        <time>2019-05-01T06:58:25Z</time>
      </trkpt>
      <trkpt lat="43.40901" lon="4.69964">
        <ele>50.958</ele>
        <time>2019-05-01T06:58:35Z</time>
      </trkpt>
      <trkpt lat="43.4088" lon="4.70002">
        <ele>50.038</ele>
        <time>2019-05-01T06:58:46Z</time>
      </trkpt>
      <trkpt lat="43.40865" lon="4.70055">
        <ele>48.618</ele>
        <time>2019-05-01T06:58:56Z</time>
      </trkpt>
      <trkpt lat="43.40878" lon="4.701">
        <ele>49.027</ele>
        <time>2019-05-01T06:59:06Z</time>
      </trkpt>
      <trkpt lat="43.40855" lon="4.70144">
        <ele>48.482</ele>
        <time>2019-05-01T06:59:17Z</time>
      </trkpt>
      <trkpt lat="43.4083" lon="4.70202">
        <ele>49.756</ele>
        <time>2019-05-01T06:59:28Z</time>
      </trkpt>
      <trkpt lat="43.40806" lon="4.70265">
        <ele>46.617</ele>
        <time>2019-05-01T06:59:39Z</time>
      </trkpt>
      <trkpt lat="43.40784" lon="4.70324">
        <ele>47.917</ele>
        <time>2019-05-01T06:59:49Z</time>
      </trkpt>
      <trkpt lat="43.40755" lon="4.70389">
        <ele>50.213</ele>
        <time>2019-05-01T07:00:00Z</time>
      </trkpt>
      <trkpt lat="43.40729" lon="4.70453">
        <ele>51.44</ele>
        <time>2019-05-01T07:00:11Z</time>
      </trkpt>
      <trkpt lat="43.40703" lon="4.70521">
        <ele>51.548</ele>
        <time>2019-05-01T07:00:22Z</time>
      </trkpt>
      <trkpt lat="43.40678" lon="4.70585">
        <ele>51.298</ele>
        <time>2019-05-01T07:00:32Z</time>
      </trkpt>
      <trkpt lat="43.40654" lon="4.70648">
        <ele>51.718</ele>
        <time>2019-05-01T07:00:42Z</time>
      </trkpt>
      <trkpt lat="43.4063" lon="4.70717">
        <ele>51.097</ele>
        <time>2019-05-01T07:00:53Z</time>
      </trkpt>
      <trkpt lat="43.40602" lon="4.70789">
        <ele>51.216</ele>
        <time>2019-05-01T07:01:04Z</time>
      </trkpt>
      <trkpt lat="43.40575" lon="4.70859">
        <ele>51.199</ele>
        <time>2019-05-01T07:01:15Z</time>
      </trkpt>
      <trkpt lat="43.40548" lon="4.70929">
        <ele>50.638</ele>
        <time>2019-05-01T07:01:26Z</time>
      </trkpt>
      <trkpt lat="43.40524" lon="4.70995">
        <ele>51.115</ele>
        <time>2019-05-01T07:01:36Z</time>
      </trkpt>
      <trkpt lat="43.40497" lon="4.71066">
        <ele>50.855</ele>
        <time>2019-05-01T07:01:47Z</time>
      </trkpt>
      <trkpt lat="43.4047" lon="4.71137">
        <ele>50.669</ele>
        <time>2019-05-01T07:01:58Z</time>
      </trkpt>
      <trkpt lat="43.40444" lon="4.71208">
        <ele>51.22</ele>
        <time>2019-05-01T07:02:09Z</time>
      </trkpt>
      <trkpt lat="43.40419" lon="4.71274">
        <ele>51.926</ele>
        <time>2019-05-01T07:02:19Z</time>
      </trkpt>
      <trkpt lat="43.40436" lon="4.71344">
        <ele>51.997</ele>
        <time>2019-05-01T07:02:30Z</time>
      </trkpt>
      <trkpt lat="43.40458" lon="4.71409">
        <ele>51.627</ele>
        <time>2019-05-01T07:02:41Z</time>
      </trkpt>
      <trkpt lat="43.40481" lon="4.71479">
        <ele>51.468</ele>
        <time>2019-05-01T07:02:52Z</time>
      </trkpt>
      <trkpt lat="43.40504" lon="4.71546">
        <ele>50.524</ele>
        <time>2019-05-01T07:03:03Z</time>
      </trkpt>
      <trkpt lat="43.40527" lon="4.71615">
        <ele>51.193</ele>
        <time>2019-05-01T07:03:14Z</time>
      </trkpt>
      <trkpt lat="43.40548" lon="4.71675">
        <ele>50.559</ele>
        <time>2019-05-01T07:03:24Z</time>
      </trkpt>
      <trkpt lat="43.4057" lon="4.7174">
        <ele>49.955</ele>
        <time>2019-05-01T07:03:35Z</time>
      </trkpt>
      <trkpt lat="43.40575" lon="4.7181">
        <ele>49.852</ele>
        <time>2019-05-01T07:03:45Z</time>
      </trkpt>
      <trkpt lat="43.40564" lon="4.71887">
        <ele>49.516</ele>
        <time>2019-05-01T07:03:56Z</time>
      </trkpt>
      <trkpt lat="43.40553" lon="4.71962">
        <ele>49.357</ele>
        <time>2019-05-01T07:04:07Z</time>
      </trkpt>
      <trkpt lat="43.40542" lon="4.72037">
        <ele>49.944</ele>
        <time>2019-05-01T07:04:18Z</time>
      </trkpt>
      <trkpt lat="43.40534" lon="4.721">
        <ele>49.534</ele>
        <time>2019-05-01T07:04:28Z</time>
      </trkpt>
      <trkpt lat="43.40525" lon="4.72169">
        <ele>48.319</ele>
        <time>2019-05-01T07:04:39Z</time>
      </trkpt>
      <trkpt lat="43.40515" lon="4.72239">
        <ele>47.34</ele>
        <time>2019-05-01T07:04:50Z</time>
      </trkpt>
      <trkpt lat="43.40505" lon="4.72302">
        <ele>46.625</ele>
        <time>2019-05-01T07:05:00Z</time>
      </trkpt>
      <trkpt lat="43.405" lon="4.72371">
        <ele>46.589</ele>
        <time>2019-05-01T07:05:11Z</time>
      </trkpt>
      <trkpt lat="43.405" lon="4.72435">
        <ele>45.732</ele>
        <time>2019-05-01T07:05:21Z</time>
      </trkpt>
      <trkpt lat="43.40521" lon="4.72484">
        <ele>49.092</ele>
        <time>2019-05-01T07:05:31Z</time>
      </trkpt>
      <trkpt lat="43.40562" lon="4.72508">
        <ele>54.518</ele>
        <time>2019-05-01T07:05:42Z</time>
      </trkpt>
      <trkpt lat="43.40598" lon="4.72526">
        <ele>54.812</ele>
        <time>2019-05-01T07:05:52Z</time>
      </trkpt>
      <trkpt lat="43.40636" lon="4.72543">
        <ele>55.126</ele>
        <time>2019-05-01T07:06:02Z</time>
      </trkpt>
      <trkpt lat="43.40673" lon="4.72563">
        <ele>55.379</ele>
        <time>2019-05-01T07:06:12Z</time>
      </trkpt>
      <trkpt lat="43.40714" lon="4.72583">
        <ele>55.384</ele>
        <time>2019-05-01T07:06:23Z</time>
      </trkpt>
      <trkpt lat="43.40752" lon="4.72602">
        <ele>56.04</ele>
        <time>2019-05-01T07:06:33Z</time>
      </trkpt>
      <trkpt lat="43.40793" lon="4.72622">
        <ele>56.879</ele>
        <time>2019-05-01T07:06:43Z</time>
      </trkpt>
      <trkpt lat="43.40833" lon="4.72643">
        <ele>56.197</ele>
        <time>2019-05-01T07:06:53Z</time>
      </trkpt>
      <trkpt lat="43.40873" lon="4.72666">
        <ele>58.231</ele>
        <time>2019-05-01T07:07:03Z</time>
      </trkpt>
      <trkpt lat="43.40914" lon="4.72686">
        <ele>59.375</ele>
        <time>2019-05-01T07:07:14Z</time>
      </trkpt>
      <trkpt lat="43.40951" lon="4.72708">
        <ele>60.226</ele>
        <time>2019-05-01T07:07:24Z</time>
      </trkpt>
      <trkpt lat="43.40992" lon="4.72724">
        <ele>62.129</ele>
        <time>2019-05-01T07:07:35Z</time>
      </trkpt>
      <trkpt lat="43.40987" lon="4.72711">
        <ele>61.471</ele>
        <time>2019-05-01T07:07:45Z</time>
      </trkpt>
      <trkpt lat="43.40996" lon="4.72716">
        <ele>61.117</ele>
        <time>2019-05-01T07:07:56Z</time>
      </trkpt>
      <trkpt lat="43.40997" lon="4.72716">
        <ele>61.071</ele>
        <time>2019-05-01T07:08:06Z</time>
      </trkpt>
      <trkpt lat="43.40997" lon="4.72716">
        <ele>61.05</ele>
        <time>2019-05-01T07:08:17Z</time>
      </trkpt>
      <trkpt lat="43.40997" lon="4.72716">
        <ele>61.056</ele>
        <time>2019-05-01T07:08:28Z</time>
      </trkpt>
      <trkpt lat="43.40997" lon="4.72716">
        <ele>61.035</ele>
        <time>2019-05-01T07:08:39Z</time>
      </trkpt>
      <trkpt lat="43.40997" lon="4.72715">
        <ele>61.036</ele>
        <time>2019-05-01T07:08:49Z</time>
      </trkpt>
      <trkpt lat="43.40997" lon="4.72716">
        <ele>61.079</ele>
        <time>2019-05-01T07:08:59Z</time>
      </trkpt>
      <trkpt lat="43.40997" lon="4.72716">
        <ele>61.084</ele>
        <time>2019-05-01T07:09:10Z</time>
      </trkpt>
      <trkpt lat="43.40998" lon="4.72719">
        <ele>61.067</ele>
        <time>2019-05-01T07:09:20Z</time>
      </trkpt>
      <trkpt lat="43.41" lon="4.72717">
        <ele>60.662</ele>
        <time>2019-05-01T07:09:32Z</time>
      </trkpt>
      <trkpt lat="43.41" lon="4.72717">
        <ele>60.491</ele>
        <time>2019-05-01T07:09:43Z</time>
      </trkpt>
      <trkpt lat="43.41001" lon="4.72718">
        <ele>60.384</ele>
        <time>2019-05-01T07:09:54Z</time>
      </trkpt>
      <trkpt lat="43.41001" lon="4.72719">
        <ele>60.222</ele>
        <time>2019-05-01T07:10:05Z</time>
      </trkpt>
      <trkpt lat="43.41002" lon="4.7272">
        <ele>60.081</ele>
        <time>2019-05-01T07:10:15Z</time>
      </trkpt>
      <trkpt lat="43.41002" lon="4.72721">
        <ele>59.906</ele>
        <time>2019-05-01T07:10:26Z</time>
      </trkpt>
      <trkpt lat="43.41003" lon="4.72721">
        <ele>59.727</ele>
        <time>2019-05-01T07:10:37Z</time>
      </trkpt>
      <trkpt lat="43.41004" lon="4.72723">
        <ele>59.398</ele>
        <time>2019-05-01T07:10:48Z</time>
      </trkpt>
      <trkpt lat="43.41003" lon="4.72722">
        <ele>59.376</ele>
        <time>2019-05-01T07:10:58Z</time>
      </trkpt>
      <trkpt lat="43.41004" lon="4.72718">
        <ele>58.985</ele>
        <time>2019-05-01T07:11:09Z</time>
      </trkpt>
      <trkpt lat="43.41004" lon="4.72717">
        <ele>58.703</ele>
        <time>2019-05-01T07:11:20Z</time>
      </trkpt>
      <trkpt lat="43.41002" lon="4.72714">
        <ele>57.865</ele>
        <time>2019-05-01T07:11:30Z</time>
      </trkpt>
      <trkpt lat="43.41003" lon="4.72713">
        <ele>57.756</ele>
        <time>2019-05-01T07:11:41Z</time>
      </trkpt>
      <trkpt lat="43.41002" lon="4.72724">
        <ele>61.772</ele>
        <time>2019-05-01T07:12:39Z</time>
      </trkpt>
      <trkpt lat="43.40998" lon="4.7272">
        <ele>60.912</ele>
        <time>2019-05-01T07:12:50Z</time>
      </trkpt>
      <trkpt lat="43.41" lon="4.72722">
        <ele>61.264</ele>
        <time>2019-05-01T07:13:00Z</time>
      </trkpt>
      <trkpt lat="43.41001" lon="4.72719">
        <ele>56.971</ele>
        <time>2019-05-01T07:13:11Z</time>
      </trkpt>
      <trkpt lat="43.41001" lon="4.72719">
        <ele>56.741</ele>
        <time>2019-05-01T07:13:22Z</time>
      </trkpt>
      <trkpt lat="43.41001" lon="4.72719">
        <ele>56.711</ele>
        <time>2019-05-01T07:13:32Z</time>
      </trkpt>
      <trkpt lat="43.41001" lon="4.72719">
        <ele>56.678</ele>
        <time>2019-05-01T07:13:42Z</time>
      </trkpt>
      <trkpt lat="43.41001" lon="4.72719">
        <ele>56.627</ele>
        <time>2019-05-01T07:13:52Z</time>
      </trkpt>
      <trkpt lat="43.41001" lon="4.72719">
        <ele>56.574</ele>
        <time>2019-05-01T07:14:03Z</time>
      </trkpt>
      <trkpt lat="43.41001" lon="4.72719">
        <ele>56.492</ele>
        <time>2019-05-01T07:14:14Z</time>
      </trkpt>
      <trkpt lat="43.41001" lon="4.72719">
        <ele>56.384</ele>
        <time>2019-05-01T07:14:24Z</time>
      </trkpt>
      <trkpt lat="43.41001" lon="4.72719">
        <ele>56.079</ele>
        <time>2019-05-01T07:14:35Z</time>
      </trkpt>
      <trkpt lat="43.41001" lon="4.72719">
        <ele>55.931</ele>
        <time>2019-05-01T07:14:45Z</time>
      </trkpt>
      <trkpt lat="43.41001" lon="4.72719">
        <ele>55.801</ele>
        <time>2019-05-01T07:14:55Z</time>
      </trkpt>
      <trkpt lat="43.41001" lon="4.72719">
        <ele>55.695</ele>
        <time>2019-05-01T07:15:05Z</time>
      </trkpt>
      <trkpt lat="43.41001" lon="4.72719">
        <ele>55.601</ele>
        <time>2019-05-01T07:15:16Z</time>
      </trkpt>
      <trkpt lat="43.41001" lon="4.72719">
        <ele>55.508</ele>
        <time>2019-05-01T07:15:27Z</time>
      </trkpt>
      <trkpt lat="43.41001" lon="4.72719">
        <ele>55.422</ele>
        <time>2019-05-01T07:15:37Z</time>
      </trkpt>
      <trkpt lat="43.41001" lon="4.72719">
        <ele>55.325</ele>
        <time>2019-05-01T07:15:48Z</time>
      </trkpt>
      <trkpt lat="43.41001" lon="4.72719">
        <ele>55.227</ele>
        <time>2019-05-01T07:15:59Z</time>
      </trkpt>
      <trkpt lat="43.41001" lon="4.72719">
        <ele>55.118</ele>
        <time>2019-05-01T07:16:10Z</time>
      </trkpt>
      <trkpt lat="43.41001" lon="4.72719">
        <ele>55.006</ele>
        <time>2019-05-01T07:16:20Z</time>
      </trkpt>
      <trkpt lat="43.41001" lon="4.72719">
        <ele>54.884</ele>
        <time>2019-05-01T07:16:31Z</time>
      </trkpt>
      <trkpt lat="43.41001" lon="4.72719">
        <ele>54.766</ele>
        <time>2019-05-01T07:16:41Z</time>
      </trkpt>
      <trkpt lat="43.41005" lon="4.72718">
        <ele>54.62</ele>
        <time>2019-05-01T07:16:51Z</time>
      </trkpt>
      <trkpt lat="43.41005" lon="4.72718">
        <ele>54.44</ele>
        <time>2019-05-01T07:17:02Z</time>
      </trkpt>
      <trkpt lat="43.41005" lon="4.72718">
        <ele>54.257</ele>
        <time>2019-05-01T07:17:13Z</time>
      </trkpt>
      <trkpt lat="43.41005" lon="4.72718">
        <ele>54.074</ele>
        <time>2019-05-01T07:17:23Z</time>
      </trkpt>
      <trkpt lat="43.41005" lon="4.72718">
        <ele>53.856</ele>
        <time>2019-05-01T07:17:34Z</time>
      </trkpt>
      <trkpt lat="43.41006" lon="4.72717">
        <ele>53.619</ele>
        <time>2019-05-01T07:17:45Z</time>
      </trkpt>
      <trkpt lat="43.41006" lon="4.72715">
        <ele>53.513</ele>
        <time>2019-05-01T07:17:56Z</time>
      </trkpt>
      <trkpt lat="43.41005" lon="4.72715">
        <ele>53.502</ele>
        <time>2019-05-01T07:18:06Z</time>
      </trkpt>
      <trkpt lat="43.41005" lon="4.72715">
        <ele>53.399</ele>
        <time>2019-05-01T07:18:16Z</time>
      </trkpt>
      <trkpt lat="43.41005" lon="4.72716">
        <ele>53.342</ele>
        <time>2019-05-01T07:18:26Z</time>
      </trkpt>
      <trkpt lat="43.41003" lon="4.72717">
        <ele>53.362</ele>
        <time>2019-05-01T07:18:36Z</time>
      </trkpt>
      <trkpt lat="43.41003" lon="4.72719">
        <ele>53.43</ele>
        <time>2019-05-01T07:18:47Z</time>
      </trkpt>
      <trkpt lat="43.41002" lon="4.7272">
        <ele>53.51</ele>
        <time>2019-05-01T07:18:58Z</time>
      </trkpt>
      <trkpt lat="43.41002" lon="4.7272">
        <ele>53.515</ele>
        <time>2019-05-01T07:19:08Z</time>
      </trkpt>
      <trkpt lat="43.41002" lon="4.7272">
        <ele>53.499</ele>
        <time>2019-05-01T07:19:19Z</time>
      </trkpt>
      <trkpt lat="43.41002" lon="4.7272">
        <ele>53.511</ele>
        <time>2019-05-01T07:19:30Z</time>
      </trkpt>
      <trkpt lat="43.41003" lon="4.7272">
        <ele>53.512</ele>
        <time>2019-05-01T07:19:41Z</time>
      </trkpt>
      <trkpt lat="43.41004" lon="4.7272">
        <ele>53.505</ele>
        <time>2019-05-01T07:19:51Z</time>
      </trkpt>
      <trkpt lat="43.41005" lon="4.7272">
        <ele>53.455</ele>
        <time>2019-05-01T07:20:02Z</time>
      </trkpt>
      <trkpt lat="43.41006" lon="4.7272">
        <ele>53.4</ele>
        <time>2019-05-01T07:20:13Z</time>
      </trkpt>
      <trkpt lat="43.41005" lon="4.7272">
        <ele>53.426</ele>
        <time>2019-05-01T07:20:24Z</time>
      </trkpt>
      <trkpt lat="43.41004" lon="4.7272">
        <ele>53.476</ele>
        <time>2019-05-01T07:20:35Z</time>
      </trkpt>
      <trkpt lat="43.41004" lon="4.72719">
        <ele>53.521</ele>
        <time>2019-05-01T07:20:45Z</time>
      </trkpt>
      <trkpt lat="43.41004" lon="4.72721">
        <ele>53.747</ele>
        <time>2019-05-01T07:20:56Z</time>
      </trkpt>
      <trkpt lat="43.41003" lon="4.72721">
        <ele>53.819</ele>
        <time>2019-05-01T07:21:06Z</time>
      </trkpt>
      <trkpt lat="43.41003" lon="4.7272">
        <ele>54.684</ele>
        <time>2019-05-01T07:21:17Z</time>
      </trkpt>
      <trkpt lat="43.41003" lon="4.72719">
        <ele>55.671</ele>
        <time>2019-05-01T07:21:27Z</time>
      </trkpt>
      <trkpt lat="43.41008" lon="4.72713">
        <ele>57.674</ele>
        <time>2019-05-01T07:21:39Z</time>
      </trkpt>
      <trkpt lat="43.41003" lon="4.7272">
        <ele>59.057</ele>
        <time>2019-05-01T07:21:50Z</time>
      </trkpt>
      <trkpt lat="43.41003" lon="4.72722">
        <ele>59.449</ele>
        <time>2019-05-01T07:22:02Z</time>
      </trkpt>
      <trkpt lat="43.41007" lon="4.72722">
        <ele>59.874</ele>
        <time>2019-05-01T07:22:12Z</time>
      </trkpt>
      <trkpt lat="43.40999" lon="4.72712">
        <ele>72.478</ele>
        <time>2019-05-01T07:26:27Z</time>
      </trkpt>
      <trkpt lat="43.40995" lon="4.72706">
        <ele>70.097</ele>
        <time>2019-05-01T07:26:37Z</time>
      </trkpt>
      <trkpt lat="43.40997" lon="4.72709">
        <ele>68.73</ele>
        <time>2019-05-01T07:26:48Z</time>
      </trkpt>
      <trkpt lat="43.41002" lon="4.72712">
        <ele>71.561</ele>
        <time>2019-05-01T07:27:53Z</time>
      </trkpt>
      <trkpt lat="43.41002" lon="4.7273">
        <ele>69.939</ele>
        <time>2019-05-01T07:28:03Z</time>
      </trkpt>
      <trkpt lat="43.40999" lon="4.72726">
        <ele>68.495</ele>
        <time>2019-05-01T07:28:14Z</time>
      </trkpt>
      <trkpt lat="43.40998" lon="4.72726">
        <ele>68.307</ele>
        <time>2019-05-01T07:28:24Z</time>
      </trkpt>
      <trkpt lat="43.40998" lon="4.72724">
        <ele>67.927</ele>
        <time>2019-05-01T07:28:35Z</time>
      </trkpt>
      <trkpt lat="43.40998" lon="4.72722">
        <ele>66.694</ele>
        <time>2019-05-01T07:28:46Z</time>
      </trkpt>
      <trkpt lat="43.40999" lon="4.72722">
        <ele>66.19</ele>
        <time>2019-05-01T07:28:57Z</time>
      </trkpt>
      <trkpt lat="43.40999" lon="4.72721">
        <ele>65.717</ele>
        <time>2019-05-01T07:29:08Z</time>
      </trkpt>
      <trkpt lat="43.40999" lon="4.7272">
        <ele>65.285</ele>
        <time>2019-05-01T07:29:19Z</time>
      </trkpt>
      <trkpt lat="43.41" lon="4.7272">
        <ele>64.894</ele>
        <time>2019-05-01T07:29:29Z</time>
      </trkpt>
      <trkpt lat="43.41" lon="4.72719">
        <ele>64.462</ele>
        <time>2019-05-01T07:29:39Z</time>
      </trkpt>
      <trkpt lat="43.41" lon="4.72719">
        <ele>64.047</ele>
        <time>2019-05-01T07:29:50Z</time>
      </trkpt>
      <trkpt lat="43.41" lon="4.72719">
        <ele>63.409</ele>
        <time>2019-05-01T07:30:00Z</time>
      </trkpt>
      <trkpt lat="43.41" lon="4.72719">
        <ele>63.05</ele>
        <time>2019-05-01T07:30:11Z</time>
      </trkpt>
      <trkpt lat="43.40999" lon="4.7272">
        <ele>62.121</ele>
        <time>2019-05-01T07:30:22Z</time>
      </trkpt>
      <trkpt lat="43.40997" lon="4.72717">
        <ele>61.009</ele>
        <time>2019-05-01T07:30:33Z</time>
      </trkpt>
      <trkpt lat="43.41" lon="4.72716">
        <ele>59.999</ele>
        <time>2019-05-01T07:30:44Z</time>
      </trkpt>
      <trkpt lat="43.41006" lon="4.72719">
        <ele>58.414</ele>
        <time>2019-05-01T07:30:55Z</time>
      </trkpt>
      <trkpt lat="43.41029" lon="4.72737">
        <ele>56.952</ele>
        <time>2019-05-01T07:31:05Z</time>
      </trkpt>
      <trkpt lat="43.4107" lon="4.72761">
        <ele>56.006</ele>
        <time>2019-05-01T07:31:16Z</time>
      </trkpt>
      <trkpt lat="43.41109" lon="4.72781">
        <ele>52.142</ele>
        <time>2019-05-01T07:31:27Z</time>
      </trkpt>
      <trkpt lat="43.41151" lon="4.72799">
        <ele>47.149</ele>
        <time>2019-05-01T07:31:38Z</time>
      </trkpt>
      <trkpt lat="43.41192" lon="4.72822">
        <ele>51.145</ele>
        <time>2019-05-01T07:31:49Z</time>
      </trkpt>
      <trkpt lat="43.41232" lon="4.72829">
        <ele>52.695</ele>
        <time>2019-05-01T07:31:59Z</time>
      </trkpt>
      <trkpt lat="43.41274" lon="4.72808">
        <ele>53.118</ele>
        <time>2019-05-01T07:32:10Z</time>
      </trkpt>
      <trkpt lat="43.41313" lon="4.72831">
        <ele>50.598</ele>
        <time>2019-05-01T07:32:21Z</time>
      </trkpt>
      <trkpt lat="43.41343" lon="4.72865">
        <ele>49.374</ele>
        <time>2019-05-01T07:32:31Z</time>
      </trkpt>
      <trkpt lat="43.41359" lon="4.72913">
        <ele>50.675</ele>
        <time>2019-05-01T07:32:41Z</time>
      </trkpt>
      <trkpt lat="43.41373" lon="4.72974">
        <ele>52.906</ele>
        <time>2019-05-01T07:32:52Z</time>
      </trkpt>
      <trkpt lat="43.4139" lon="4.73033">
        <ele>56.403</ele>
        <time>2019-05-01T07:33:03Z</time>
      </trkpt>
      <trkpt lat="43.41418" lon="4.73102">
        <ele>57.612</ele>
        <time>2019-05-01T07:33:14Z</time>
      </trkpt>
      <trkpt lat="43.41445" lon="4.73156">
        <ele>54.582</ele>
        <time>2019-05-01T07:33:25Z</time>
      </trkpt>
      <trkpt lat="43.41474" lon="4.73219">
        <ele>54.26</ele>
        <time>2019-05-01T07:33:36Z</time>
      </trkpt>
      <trkpt lat="43.41503" lon="4.73279">
        <ele>55.359</ele>
        <time>2019-05-01T07:33:47Z</time>
      </trkpt>
      <trkpt lat="43.41529" lon="4.73336">
        <ele>53.469</ele>
        <time>2019-05-01T07:33:57Z</time>
      </trkpt>
      <trkpt lat="43.41558" lon="4.73394">
        <ele>53.658</ele>
        <time>2019-05-01T07:34:08Z</time>
      </trkpt>
      <trkpt lat="43.41584" lon="4.73446">
        <ele>51.997</ele>
        <time>2019-05-01T07:34:18Z</time>
      </trkpt>
      <trkpt lat="43.41612" lon="4.73507">
        <ele>48.654</ele>
        <time>2019-05-01T07:34:29Z</time>
      </trkpt>
      <trkpt lat="43.4164" lon="4.73564">
        <ele>47.623</ele>
        <time>2019-05-01T07:34:39Z</time>
      </trkpt>
      <trkpt lat="43.41668" lon="4.73617">
        <ele>47.22</ele>
        <time>2019-05-01T07:34:49Z</time>
      </trkpt>
      <trkpt lat="43.41676" lon="4.73655">
        <ele>47.652</ele>
        <time>2019-05-01T07:35:00Z</time>
      </trkpt>
      <trkpt lat="43.41649" lon="4.73677">
        <ele>49.334</ele>
        <time>2019-05-01T07:35:11Z</time>
      </trkpt>
      <trkpt lat="43.41614" lon="4.73713">
        <ele>52.136</ele>
        <time>2019-05-01T07:35:21Z</time>
      </trkpt>
      <trkpt lat="43.41582" lon="4.73741">
        <ele>53.475</ele>
        <time>2019-05-01T07:35:31Z</time>
      </trkpt>
      <trkpt lat="43.41557" lon="4.73761">
        <ele>53.518</ele>
        <time>2019-05-01T07:35:42Z</time>
      </trkpt>
      <trkpt lat="43.41556" lon="4.73761">
        <ele>53.169</ele>
        <time>2019-05-01T07:35:52Z</time>
      </trkpt>
      <trkpt lat="43.41557" lon="4.73766">
        <ele>52.887</ele>
        <time>2019-05-01T07:36:02Z</time>
      </trkpt>
      <trkpt lat="43.41578" lon="4.73732">
        <ele>52.008</ele>
        <time>2019-05-01T07:36:12Z</time>
      </trkpt>
      <trkpt lat="43.41591" lon="4.73761">
        <ele>50.649</ele>
        <time>2019-05-01T07:36:23Z</time>
      </trkpt>
      <trkpt lat="43.41617" lon="4.73826">
        <ele>49.794</ele>
        <time>2019-05-01T07:36:34Z</time>
      </trkpt>
      <trkpt lat="43.41644" lon="4.7388">
        <ele>50.32</ele>
        <time>2019-05-01T07:36:44Z</time>
      </trkpt>
      <trkpt lat="43.41668" lon="4.73936">
        <ele>52.371</ele>
        <time>2019-05-01T07:36:54Z</time>
      </trkpt>
      <trkpt lat="43.41695" lon="4.73992">
        <ele>54.502</ele>
        <time>2019-05-01T07:37:04Z</time>
      </trkpt>
      <trkpt lat="43.41726" lon="4.74053">
        <ele>54.225</ele>
        <time>2019-05-01T07:37:15Z</time>
      </trkpt>
      <trkpt lat="43.41753" lon="4.74107">
        <ele>53.546</ele>
        <time>2019-05-01T07:37:25Z</time>
      </trkpt>
      <trkpt lat="43.41779" lon="4.74166">
        <ele>53.08</ele>
        <time>2019-05-01T07:37:35Z</time>
      </trkpt>
      <trkpt lat="43.41804" lon="4.74227">
        <ele>52.053</ele>
        <time>2019-05-01T07:37:46Z</time>
      </trkpt>
      <trkpt lat="43.4181" lon="4.74277">
        <ele>52.52</ele>
        <time>2019-05-01T07:37:56Z</time>
      </trkpt>
      <trkpt lat="43.41803" lon="4.7432">
        <ele>52.659</ele>
        <time>2019-05-01T07:38:06Z</time>
      </trkpt>
      <trkpt lat="43.41803" lon="4.74345">
        <ele>53.593</ele>
        <time>2019-05-01T07:38:16Z</time>
      </trkpt>
      <trkpt lat="43.41805" lon="4.7435">
        <ele>53.681</ele>
        <time>2019-05-01T07:38:27Z</time>
      </trkpt>
      <trkpt lat="43.41806" lon="4.7435">
        <ele>53.741</ele>
        <time>2019-05-01T07:38:38Z</time>
      </trkpt>
      <trkpt lat="43.41806" lon="4.7435">
        <ele>53.749</ele>
        <time>2019-05-01T07:38:48Z</time>
      </trkpt>
      <trkpt lat="43.41806" lon="4.74347">
        <ele>54.33</ele>
        <time>2019-05-01T07:38:59Z</time>
      </trkpt>
      <trkpt lat="43.41805" lon="4.74346">
        <ele>54.384</ele>
        <time>2019-05-01T07:39:10Z</time>
      </trkpt>
      <trkpt lat="43.41806" lon="4.74355">
        <ele>53.93</ele>
        <time>2019-05-01T07:39:20Z</time>
      </trkpt>
      <trkpt lat="43.41807" lon="4.74371">
        <ele>53.635</ele>
        <time>2019-05-01T07:39:31Z</time>
      </trkpt>
      <trkpt lat="43.41809" lon="4.74384">
        <ele>52.659</ele>
        <time>2019-05-01T07:39:42Z</time>
      </trkpt>
      <trkpt lat="43.41808" lon="4.74394">
        <ele>51.612</ele>
        <time>2019-05-01T07:39:53Z</time>
      </trkpt>
      <trkpt lat="43.41809" lon="4.74393">
        <ele>51.546</ele>
        <time>2019-05-01T07:40:03Z</time>
      </trkpt>
      <trkpt lat="43.41806" lon="4.7438">
        <ele>50.855</ele>
        <time>2019-05-01T07:40:14Z</time>
      </trkpt>
      <trkpt lat="43.41805" lon="4.74369">
        <ele>50.86</ele>
        <time>2019-05-01T07:40:25Z</time>
      </trkpt>
      <trkpt lat="43.41808" lon="4.74354">
        <ele>51.221</ele>
        <time>2019-05-01T07:40:35Z</time>
      </trkpt>
      <trkpt lat="43.41814" lon="4.74341">
        <ele>51.214</ele>
        <time>2019-05-01T07:40:46Z</time>
      </trkpt>
      <trkpt lat="43.41815" lon="4.74326">
        <ele>51.05</ele>
        <time>2019-05-01T07:40:57Z</time>
      </trkpt>
      <trkpt lat="43.41823" lon="4.74311">
        <ele>50.521</ele>
        <time>2019-05-01T07:41:07Z</time>
      </trkpt>
      <trkpt lat="43.41825" lon="4.74307">
        <ele>50.205</ele>
        <time>2019-05-01T07:41:18Z</time>
      </trkpt>
      <trkpt lat="43.41825" lon="4.74307">
        <ele>50.364</ele>
        <time>2019-05-01T07:41:28Z</time>
      </trkpt>
      <trkpt lat="43.41826" lon="4.74307">
        <ele>50.493</ele>
        <time>2019-05-01T07:41:39Z</time>
      </trkpt>
      <trkpt lat="43.41818" lon="4.74319">
        <ele>51.451</ele>
        <time>2019-05-01T07:41:50Z</time>
      </trkpt>
      <trkpt lat="43.41813" lon="4.74334">
        <ele>52.356</ele>
        <time>2019-05-01T07:42:00Z</time>
      </trkpt>
      <trkpt lat="43.41808" lon="4.74347">
        <ele>52.5</ele>
        <time>2019-05-01T07:42:11Z</time>
      </trkpt>
      <trkpt lat="43.41804" lon="4.74352">
        <ele>52.345</ele>
        <time>2019-05-01T07:42:21Z</time>
      </trkpt>
      <trkpt lat="43.41809" lon="4.74361">
        <ele>52.56</ele>
        <time>2019-05-01T07:42:32Z</time>
      </trkpt>
      <trkpt lat="43.41812" lon="4.7436">
        <ele>52.518</ele>
        <time>2019-05-01T07:42:42Z</time>
      </trkpt>
      <trkpt lat="43.41806" lon="4.7435">
        <ele>51.804</ele>
        <time>2019-05-01T07:42:53Z</time>
      </trkpt>
      <trkpt lat="43.41805" lon="4.74348">
        <ele>51.991</ele>
        <time>2019-05-01T07:43:04Z</time>
      </trkpt>
      <trkpt lat="43.41806" lon="4.74349">
        <ele>52.028</ele>
        <time>2019-05-01T07:43:14Z</time>
      </trkpt>
      <trkpt lat="43.41807" lon="4.74351">
        <ele>52.221</ele>
        <time>2019-05-01T07:43:25Z</time>
      </trkpt>
      <trkpt lat="43.41807" lon="4.74351">
        <ele>52.226</ele>
        <time>2019-05-01T07:43:36Z</time>
      </trkpt>
      <trkpt lat="43.41806" lon="4.74351">
        <ele>52.207</ele>
        <time>2019-05-01T07:43:47Z</time>
      </trkpt>
      <trkpt lat="43.41806" lon="4.74351">
        <ele>52.222</ele>
        <time>2019-05-01T07:43:57Z</time>
      </trkpt>
      <trkpt lat="43.41804" lon="4.74349">
        <ele>52.382</ele>
        <time>2019-05-01T07:44:08Z</time>
      </trkpt>
      <trkpt lat="43.41804" lon="4.74349">
        <ele>52.395</ele>
        <time>2019-05-01T07:44:18Z</time>
      </trkpt>
      <trkpt lat="43.41804" lon="4.7435">
        <ele>52.356</ele>
        <time>2019-05-01T07:44:28Z</time>
      </trkpt>
      <trkpt lat="43.41804" lon="4.7435">
        <ele>52.316</ele>
        <time>2019-05-01T07:44:38Z</time>
      </trkpt>
      <trkpt lat="43.41804" lon="4.7435">
        <ele>52.263</ele>
        <time>2019-05-01T07:44:49Z</time>
      </trkpt>
      <trkpt lat="43.41804" lon="4.7435">
        <ele>52.192</ele>
        <time>2019-05-01T07:45:00Z</time>
      </trkpt>
      <trkpt lat="43.41804" lon="4.74349">
        <ele>52.137</ele>
        <time>2019-05-01T07:45:11Z</time>
      </trkpt>
      <trkpt lat="43.41804" lon="4.7435">
        <ele>52.092</ele>
        <time>2019-05-01T07:45:21Z</time>
      </trkpt>
      <trkpt lat="43.41804" lon="4.7435">
        <ele>52.058</ele>
        <time>2019-05-01T07:45:31Z</time>
      </trkpt>
      <trkpt lat="43.41804" lon="4.7435">
        <ele>52.025</ele>
        <time>2019-05-01T07:45:42Z</time>
      </trkpt>
      <trkpt lat="43.41804" lon="4.7435">
        <ele>52.006</ele>
        <time>2019-05-01T07:45:53Z</time>
      </trkpt>
      <trkpt lat="43.41804" lon="4.7435">
        <ele>51.988</ele>
        <time>2019-05-01T07:46:04Z</time>
      </trkpt>
      <trkpt lat="43.41805" lon="4.7435">
        <ele>51.968</ele>
        <time>2019-05-01T07:46:14Z</time>
      </trkpt>
      <trkpt lat="43.41805" lon="4.7435">
        <ele>51.947</ele>
        <time>2019-05-01T07:46:25Z</time>
      </trkpt>
      <trkpt lat="43.41805" lon="4.7435">
        <ele>51.932</ele>
        <time>2019-05-01T07:46:35Z</time>
      </trkpt>
      <trkpt lat="43.41805" lon="4.7435">
        <ele>51.92</ele>
        <time>2019-05-01T07:46:46Z</time>
      </trkpt>
      <trkpt lat="43.41805" lon="4.7435">
        <ele>51.91</ele>
        <time>2019-05-01T07:46:56Z</time>
      </trkpt>
      <trkpt lat="43.41804" lon="4.74349">
        <ele>51.938</ele>
        <time>2019-05-01T07:47:07Z</time>
      </trkpt>
      <trkpt lat="43.41804" lon="4.7435">
        <ele>51.962</ele>
        <time>2019-05-01T07:47:17Z</time>
      </trkpt>
      <trkpt lat="43.41804" lon="4.7435">
        <ele>51.969</ele>
        <time>2019-05-01T07:47:27Z</time>
      </trkpt>
      <trkpt lat="43.41804" lon="4.7435">
        <ele>51.982</ele>
        <time>2019-05-01T07:47:37Z</time>
      </trkpt>
      <trkpt lat="43.41804" lon="4.7435">
        <ele>51.977</ele>
        <time>2019-05-01T07:47:48Z</time>
      </trkpt>
      <trkpt lat="43.41804" lon="4.7435">
        <ele>51.965</ele>
        <time>2019-05-01T07:47:58Z</time>
      </trkpt>
      <trkpt lat="43.41804" lon="4.74367">
        <ele>51.696</ele>
        <time>2019-05-01T07:48:09Z</time>
      </trkpt>
      <trkpt lat="43.41799" lon="4.74415">
        <ele>51.559</ele>
        <time>2019-05-01T07:48:20Z</time>
      </trkpt>
      <trkpt lat="43.41796" lon="4.74441">
        <ele>51.397</ele>
        <time>2019-05-01T07:48:30Z</time>
      </trkpt>
      <trkpt lat="43.41793" lon="4.74449">
        <ele>50.644</ele>
        <time>2019-05-01T07:48:41Z</time>
      </trkpt>
      <trkpt lat="43.41793" lon="4.74449">
        <ele>50.586</ele>
        <time>2019-05-01T07:48:52Z</time>
      </trkpt>
      <trkpt lat="43.41792" lon="4.7445">
        <ele>50.548</ele>
        <time>2019-05-01T07:49:03Z</time>
      </trkpt>
      <trkpt lat="43.41791" lon="4.7445">
        <ele>50.435</ele>
        <time>2019-05-01T07:49:14Z</time>
      </trkpt>
      <trkpt lat="43.4179" lon="4.74451">
        <ele>50.248</ele>
        <time>2019-05-01T07:49:25Z</time>
      </trkpt>
      <trkpt lat="43.4179" lon="4.74451">
        <ele>50.046</ele>
        <time>2019-05-01T07:49:36Z</time>
      </trkpt>
      <trkpt lat="43.41789" lon="4.74451">
        <ele>49.875</ele>
        <time>2019-05-01T07:49:47Z</time>
      </trkpt>
      <trkpt lat="43.41789" lon="4.74451">
        <ele>49.634</ele>
        <time>2019-05-01T07:49:58Z</time>
      </trkpt>
      <trkpt lat="43.41788" lon="4.74451">
        <ele>49.354</ele>
        <time>2019-05-01T07:50:08Z</time>
      </trkpt>
      <trkpt lat="43.41789" lon="4.74451">
        <ele>49.115</ele>
        <time>2019-05-01T07:50:19Z</time>
      </trkpt>
      <trkpt lat="43.41788" lon="4.74452">
        <ele>48.77</ele>
        <time>2019-05-01T07:50:30Z</time>
      </trkpt>
      <trkpt lat="43.41788" lon="4.74452">
        <ele>48.375</ele>
        <time>2019-05-01T07:50:41Z</time>
      </trkpt>
      <trkpt lat="43.41788" lon="4.74452">
        <ele>48.026</ele>
        <time>2019-05-01T07:50:52Z</time>
      </trkpt>
      <trkpt lat="43.41789" lon="4.74452">
        <ele>47.781</ele>
        <time>2019-05-01T07:51:02Z</time>
      </trkpt>
      <trkpt lat="43.41789" lon="4.74452">
        <ele>47.514</ele>
        <time>2019-05-01T07:51:13Z</time>
      </trkpt>
      <trkpt lat="43.4179" lon="4.74452">
        <ele>47.227</ele>
        <time>2019-05-01T07:51:24Z</time>
      </trkpt>
      <trkpt lat="43.41791" lon="4.74451">
        <ele>47.05</ele>
        <time>2019-05-01T07:51:35Z</time>
      </trkpt>
      <trkpt lat="43.41802" lon="4.74458">
        <ele>46.944</ele>
        <time>2019-05-01T07:51:46Z</time>
      </trkpt>
      <trkpt lat="43.41809" lon="4.74477">
        <ele>47.16</ele>
        <time>2019-05-01T07:51:57Z</time>
      </trkpt>
      <trkpt lat="43.41812" lon="4.74507">
        <ele>47.171</ele>
        <time>2019-05-01T07:52:07Z</time>
      </trkpt>
      <trkpt lat="43.41812" lon="4.74542">
        <ele>47.025</ele>
        <time>2019-05-01T07:52:17Z</time>
      </trkpt>
      <trkpt lat="43.41817" lon="4.74591">
        <ele>47.678</ele>
        <time>2019-05-01T07:52:28Z</time>
      </trkpt>
      <trkpt lat="43.41831" lon="4.74643">
        <ele>51</ele>
        <time>2019-05-01T07:52:39Z</time>
      </trkpt>
      <trkpt lat="43.41852" lon="4.74685">
        <ele>57.344</ele>
        <time>2019-05-01T07:52:50Z</time>
      </trkpt>
      <trkpt lat="43.41875" lon="4.74713">
        <ele>56.648</ele>
        <time>2019-05-01T07:53:00Z</time>
      </trkpt>
      <trkpt lat="43.41899" lon="4.74733">
        <ele>56.146</ele>
        <time>2019-05-01T07:53:11Z</time>
      </trkpt>
      <trkpt lat="43.41915" lon="4.74745">
        <ele>55.675</ele>
        <time>2019-05-01T07:53:22Z</time>
      </trkpt>
      <trkpt lat="43.41931" lon="4.74754">
        <ele>54.959</ele>
        <time>2019-05-01T07:53:33Z</time>
      </trkpt>
      <trkpt lat="43.41938" lon="4.74761">
        <ele>53.423</ele>
        <time>2019-05-01T07:53:44Z</time>
      </trkpt>
      <trkpt lat="43.41939" lon="4.74774">
        <ele>52.421</ele>
        <time>2019-05-01T07:53:55Z</time>
      </trkpt>
      <trkpt lat="43.41941" lon="4.74778">
        <ele>52</ele>
        <time>2019-05-01T07:54:06Z</time>
      </trkpt>
      <trkpt lat="43.41942" lon="4.74779">
        <ele>51.989</ele>
        <time>2019-05-01T07:54:16Z</time>
      </trkpt>
      <trkpt lat="43.41942" lon="4.74779">
        <ele>51.991</ele>
        <time>2019-05-01T07:54:27Z</time>
      </trkpt>
      <trkpt lat="43.41943" lon="4.74779">
        <ele>51.956</ele>
        <time>2019-05-01T07:54:37Z</time>
      </trkpt>
      <trkpt lat="43.41943" lon="4.74779">
        <ele>51.951</ele>
        <time>2019-05-01T07:54:48Z</time>
      </trkpt>
      <trkpt lat="43.41944" lon="4.74779">
        <ele>51.954</ele>
        <time>2019-05-01T07:54:59Z</time>
      </trkpt>
      <trkpt lat="43.41944" lon="4.74779">
        <ele>51.898</ele>
        <time>2019-05-01T07:55:09Z</time>
      </trkpt>
      <trkpt lat="43.41945" lon="4.7478">
        <ele>51.914</ele>
        <time>2019-05-01T07:55:19Z</time>
      </trkpt>
      <trkpt lat="43.41946" lon="4.7478">
        <ele>52.01</ele>
        <time>2019-05-01T07:55:29Z</time>
      </trkpt>
      <trkpt lat="43.41948" lon="4.74779">
        <ele>52.275</ele>
        <time>2019-05-01T07:55:40Z</time>
      </trkpt>
      <trkpt lat="43.41958" lon="4.74782">
        <ele>54.034</ele>
        <time>2019-05-01T07:55:50Z</time>
      </trkpt>
      <trkpt lat="43.41991" lon="4.74811">
        <ele>53.201</ele>
        <time>2019-05-01T07:56:01Z</time>
      </trkpt>
      <trkpt lat="43.42021" lon="4.74834">
        <ele>51.998</ele>
        <time>2019-05-01T07:56:11Z</time>
      </trkpt>
      <trkpt lat="43.4206" lon="4.74864">
        <ele>51.675</ele>
        <time>2019-05-01T07:56:22Z</time>
      </trkpt>
      <trkpt lat="43.42087" lon="4.74911">
        <ele>50.983</ele>
        <time>2019-05-01T07:56:33Z</time>
      </trkpt>
      <trkpt lat="43.421" lon="4.74975">
        <ele>54.071</ele>
        <time>2019-05-01T07:56:44Z</time>
      </trkpt>
      <trkpt lat="43.42106" lon="4.75049">
        <ele>55.427</ele>
        <time>2019-05-01T07:56:55Z</time>
      </trkpt>
      <trkpt lat="43.42111" lon="4.75128">
        <ele>53.913</ele>
        <time>2019-05-01T07:57:06Z</time>
      </trkpt>
      <trkpt lat="43.42119" lon="4.75202">
        <ele>50.961</ele>
        <time>2019-05-01T07:57:17Z</time>
      </trkpt>
      <trkpt lat="43.4213" lon="4.75273">
        <ele>51.43</ele>
        <time>2019-05-01T07:57:28Z</time>
      </trkpt>
      <trkpt lat="43.42143" lon="4.75339">
        <ele>51.619</ele>
        <time>2019-05-01T07:57:39Z</time>
      </trkpt>
      <trkpt lat="43.42157" lon="4.75404">
        <ele>52.577</ele>
        <time>2019-05-01T07:57:50Z</time>
      </trkpt>
      <trkpt lat="43.42176" lon="4.75468">
        <ele>52.125</ele>
        <time>2019-05-01T07:58:01Z</time>
      </trkpt>
      <trkpt lat="43.42195" lon="4.75526">
        <ele>51.408</ele>
        <time>2019-05-01T07:58:11Z</time>
      </trkpt>
      <trkpt lat="43.4222" lon="4.75587">
        <ele>52.708</ele>
        <time>2019-05-01T07:58:22Z</time>
      </trkpt>
      <trkpt lat="43.42243" lon="4.7565">
        <ele>55.436</ele>
        <time>2019-05-01T07:58:33Z</time>
      </trkpt>
      <trkpt lat="43.42273" lon="4.75717">
        <ele>54.128</ele>
        <time>2019-05-01T07:58:46Z</time>
      </trkpt>
      <trkpt lat="43.42302" lon="4.75775">
        <ele>51.941</ele>
        <time>2019-05-01T07:58:56Z</time>
      </trkpt>
      <trkpt lat="43.42331" lon="4.75833">
        <ele>51.759</ele>
        <time>2019-05-01T07:59:07Z</time>
      </trkpt>
      <trkpt lat="43.42362" lon="4.75896">
        <ele>53.179</ele>
        <time>2019-05-01T07:59:18Z</time>
      </trkpt>
      <trkpt lat="43.42392" lon="4.75957">
        <ele>53.837</ele>
        <time>2019-05-01T07:59:29Z</time>
      </trkpt>
      <trkpt lat="43.4242" lon="4.76012">
        <ele>52.657</ele>
        <time>2019-05-01T07:59:39Z</time>
      </trkpt>
      <trkpt lat="43.42449" lon="4.76068">
        <ele>51.547</ele>
        <time>2019-05-01T07:59:49Z</time>
      </trkpt>
      <trkpt lat="43.42479" lon="4.76132">
        <ele>52.592</ele>
        <time>2019-05-01T08:00:00Z</time>
      </trkpt>
      <trkpt lat="43.42506" lon="4.76194">
        <ele>52.932</ele>
        <time>2019-05-01T08:00:11Z</time>
      </trkpt>
      <trkpt lat="43.42534" lon="4.76251">
        <ele>52.982</ele>
        <time>2019-05-01T08:00:22Z</time>
      </trkpt>
      <trkpt lat="43.42563" lon="4.76312">
        <ele>52.53</ele>
        <time>2019-05-01T08:00:33Z</time>
      </trkpt>
      <trkpt lat="43.42593" lon="4.76368">
        <ele>53.157</ele>
        <time>2019-05-01T08:00:44Z</time>
      </trkpt>
      <trkpt lat="43.42622" lon="4.76427">
        <ele>53.812</ele>
        <time>2019-05-01T08:00:55Z</time>
      </trkpt>
      <trkpt lat="43.42649" lon="4.76479">
        <ele>52.814</ele>
        <time>2019-05-01T08:01:05Z</time>
      </trkpt>
      <trkpt lat="43.42672" lon="4.76529">
        <ele>52.881</ele>
        <time>2019-05-01T08:01:16Z</time>
      </trkpt>
      <trkpt lat="43.42704" lon="4.76564">
        <ele>54.311</ele>
        <time>2019-05-01T08:01:27Z</time>
      </trkpt>
      <trkpt lat="43.42728" lon="4.76567">
        <ele>54.41</ele>
        <time>2019-05-01T08:01:37Z</time>
      </trkpt>
      <trkpt lat="43.42737" lon="4.76564">
        <ele>53.764</ele>
        <time>2019-05-01T08:01:48Z</time>
      </trkpt>
      <trkpt lat="43.42736" lon="4.76563">
        <ele>53.814</ele>
        <time>2019-05-01T08:01:59Z</time>
      </trkpt>
      <trkpt lat="43.42739" lon="4.76566">
        <ele>54.306</ele>
        <time>2019-05-01T08:02:10Z</time>
      </trkpt>
      <trkpt lat="43.4275" lon="4.76555">
        <ele>54.706</ele>
        <time>2019-05-01T08:02:20Z</time>
      </trkpt>
      <trkpt lat="43.42768" lon="4.7652">
        <ele>54.696</ele>
        <time>2019-05-01T08:02:30Z</time>
      </trkpt>
      <trkpt lat="43.42765" lon="4.76475">
        <ele>55.046</ele>
        <time>2019-05-01T08:02:41Z</time>
      </trkpt>
      <trkpt lat="43.42742" lon="4.7644">
        <ele>55.752</ele>
        <time>2019-05-01T08:02:52Z</time>
      </trkpt>
      <trkpt lat="43.42751" lon="4.76404">
        <ele>56.337</ele>
        <time>2019-05-01T08:03:02Z</time>
      </trkpt>
      <trkpt lat="43.42774" lon="4.76366">
        <ele>56.75</ele>
        <time>2019-05-01T08:03:13Z</time>
      </trkpt>
      <trkpt lat="43.42799" lon="4.76339">
        <ele>56.786</ele>
        <time>2019-05-01T08:03:23Z</time>
      </trkpt>
      <trkpt lat="43.42808" lon="4.76333">
        <ele>56.89</ele>
        <time>2019-05-01T08:03:34Z</time>
      </trkpt>
      <trkpt lat="43.42808" lon="4.76335">
        <ele>57.25</ele>
        <time>2019-05-01T08:03:44Z</time>
      </trkpt>
      <trkpt lat="43.42808" lon="4.76335">
        <ele>57.345</ele>
        <time>2019-05-01T08:03:54Z</time>
      </trkpt>
      <trkpt lat="43.42809" lon="4.76334">
        <ele>57.445</ele>
        <time>2019-05-01T08:04:05Z</time>
      </trkpt>
      <trkpt lat="43.42809" lon="4.76334">
        <ele>57.529</ele>
        <time>2019-05-01T08:04:16Z</time>
      </trkpt>
      <trkpt lat="43.42808" lon="4.76334">
        <ele>57.57</ele>
        <time>2019-05-01T08:04:26Z</time>
      </trkpt>
      <trkpt lat="43.42808" lon="4.76335">
        <ele>57.642</ele>
        <time>2019-05-01T08:04:37Z</time>
      </trkpt>
      <trkpt lat="43.42808" lon="4.76335">
        <ele>57.691</ele>
        <time>2019-05-01T08:04:48Z</time>
      </trkpt>
      <trkpt lat="43.42807" lon="4.76333">
        <ele>58.154</ele>
        <time>2019-05-01T08:04:59Z</time>
      </trkpt>
      <trkpt lat="43.42806" lon="4.76332">
        <ele>58.574</ele>
        <time>2019-05-01T08:05:10Z</time>
      </trkpt>
      <trkpt lat="43.42814" lon="4.76323">
        <ele>58.794</ele>
        <time>2019-05-01T08:05:20Z</time>
      </trkpt>
      <trkpt lat="43.42856" lon="4.76287">
        <ele>58.242</ele>
        <time>2019-05-01T08:05:30Z</time>
      </trkpt>
      <trkpt lat="43.42907" lon="4.76241">
        <ele>54.906</ele>
        <time>2019-05-01T08:05:40Z</time>
      </trkpt>
      <trkpt lat="43.42966" lon="4.76206">
        <ele>51.672</ele>
        <time>2019-05-01T08:05:51Z</time>
      </trkpt>
      <trkpt lat="43.42999" lon="4.76259">
        <ele>49.331</ele>
        <time>2019-05-01T08:06:02Z</time>
      </trkpt>
      <trkpt lat="43.43034" lon="4.76313">
        <ele>50.126</ele>
        <time>2019-05-01T08:06:13Z</time>
      </trkpt>
      <trkpt lat="43.43069" lon="4.76368">
        <ele>51.133</ele>
        <time>2019-05-01T08:06:24Z</time>
      </trkpt>
      <trkpt lat="43.43105" lon="4.76423">
        <ele>51.419</ele>
        <time>2019-05-01T08:06:35Z</time>
      </trkpt>
      <trkpt lat="43.43139" lon="4.76481">
        <ele>52.134</ele>
        <time>2019-05-01T08:06:46Z</time>
      </trkpt>
      <trkpt lat="43.43169" lon="4.76533">
        <ele>53.031</ele>
        <time>2019-05-01T08:06:56Z</time>
      </trkpt>
      <trkpt lat="43.43204" lon="4.76591">
        <ele>53.421</ele>
        <time>2019-05-01T08:07:07Z</time>
      </trkpt>
      <trkpt lat="43.43237" lon="4.76648">
        <ele>53.16</ele>
        <time>2019-05-01T08:07:18Z</time>
      </trkpt>
      <trkpt lat="43.43254" lon="4.76677">
        <ele>53.005</ele>
        <time>2019-05-01T08:07:29Z</time>
      </trkpt>
      <trkpt lat="43.43254" lon="4.76677">
        <ele>52.921</ele>
        <time>2019-05-01T08:07:40Z</time>
      </trkpt>
      <trkpt lat="43.43254" lon="4.76677">
        <ele>52.84</ele>
        <time>2019-05-01T08:07:50Z</time>
      </trkpt>
      <trkpt lat="43.43254" lon="4.76677">
        <ele>52.51</ele>
        <time>2019-05-01T08:08:01Z</time>
      </trkpt>
      <trkpt lat="43.43254" lon="4.76677">
        <ele>51.719</ele>
        <time>2019-05-01T08:08:11Z</time>
      </trkpt>
      <trkpt lat="43.43254" lon="4.76677">
        <ele>51.652</ele>
        <time>2019-05-01T08:08:22Z</time>
      </trkpt>
      <trkpt lat="43.43254" lon="4.76677">
        <ele>51.596</ele>
        <time>2019-05-01T08:08:33Z</time>
      </trkpt>
      <trkpt lat="43.43254" lon="4.76677">
        <ele>51.557</ele>
        <time>2019-05-01T08:08:43Z</time>
      </trkpt>
      <trkpt lat="43.43254" lon="4.76677">
        <ele>51.521</ele>
        <time>2019-05-01T08:08:53Z</time>
      </trkpt>
      <trkpt lat="43.43254" lon="4.76677">
        <ele>51.433</ele>
        <time>2019-05-01T08:09:04Z</time>
      </trkpt>
      <trkpt lat="43.43254" lon="4.76677">
        <ele>51.384</ele>
        <time>2019-05-01T08:09:15Z</time>
      </trkpt>
      <trkpt lat="43.43254" lon="4.76677">
        <ele>51.25</ele>
        <time>2019-05-01T08:09:25Z</time>
      </trkpt>
      <trkpt lat="43.43254" lon="4.76678">
        <ele>50.919</ele>
        <time>2019-05-01T08:09:36Z</time>
      </trkpt>
      <trkpt lat="43.43254" lon="4.76678">
        <ele>50.872</ele>
        <time>2019-05-01T08:09:46Z</time>
      </trkpt>
      <trkpt lat="43.43272" lon="4.7671">
        <ele>50.287</ele>
        <time>2019-05-01T08:09:57Z</time>
      </trkpt>
      <trkpt lat="43.433" lon="4.76757">
        <ele>50.009</ele>
        <time>2019-05-01T08:10:07Z</time>
      </trkpt>
      <trkpt lat="43.43331" lon="4.7681">
        <ele>49.41</ele>
        <time>2019-05-01T08:10:18Z</time>
      </trkpt>
      <trkpt lat="43.43362" lon="4.76866">
        <ele>48.842</ele>
        <time>2019-05-01T08:10:29Z</time>
      </trkpt>
      <trkpt lat="43.4339" lon="4.76917">
        <ele>48.215</ele>
        <time>2019-05-01T08:10:39Z</time>
      </trkpt>
      <trkpt lat="43.43424" lon="4.76979">
        <ele>47.73</ele>
        <time>2019-05-01T08:10:50Z</time>
      </trkpt>
      <trkpt lat="43.43455" lon="4.77035">
        <ele>50.056</ele>
        <time>2019-05-01T08:11:00Z</time>
      </trkpt>
      <trkpt lat="43.43486" lon="4.77096">
        <ele>47.223</ele>
        <time>2019-05-01T08:11:11Z</time>
      </trkpt>
      <trkpt lat="43.43517" lon="4.77154">
        <ele>48.001</ele>
        <time>2019-05-01T08:11:21Z</time>
      </trkpt>
      <trkpt lat="43.43544" lon="4.77207">
        <ele>49.506</ele>
        <time>2019-05-01T08:11:31Z</time>
      </trkpt>
      <trkpt lat="43.43573" lon="4.77261">
        <ele>50.026</ele>
        <time>2019-05-01T08:11:41Z</time>
      </trkpt>
      <trkpt lat="43.43605" lon="4.7732">
        <ele>49.903</ele>
        <time>2019-05-01T08:11:52Z</time>
      </trkpt>
      <trkpt lat="43.43634" lon="4.77376">
        <ele>48.786</ele>
        <time>2019-05-01T08:12:02Z</time>
      </trkpt>
      <trkpt lat="43.43662" lon="4.77427">
        <ele>50.433</ele>
        <time>2019-05-01T08:12:12Z</time>
      </trkpt>
      <trkpt lat="43.43696" lon="4.77478">
        <ele>51.117</ele>
        <time>2019-05-01T08:12:23Z</time>
      </trkpt>
      <trkpt lat="43.43727" lon="4.77528">
        <ele>51.405</ele>
        <time>2019-05-01T08:12:33Z</time>
      </trkpt>
      <trkpt lat="43.4376" lon="4.77581">
        <ele>51.212</ele>
        <time>2019-05-01T08:12:44Z</time>
      </trkpt>
      <trkpt lat="43.43765" lon="4.77625">
        <ele>49.767</ele>
        <time>2019-05-01T08:12:55Z</time>
      </trkpt>
      <trkpt lat="43.4373" lon="4.77567">
        <ele>50.652</ele>
        <time>2019-05-01T08:13:05Z</time>
      </trkpt>
      <trkpt lat="43.43678" lon="4.77545">
        <ele>49.941</ele>
        <time>2019-05-01T08:13:16Z</time>
      </trkpt>
      <trkpt lat="43.4367" lon="4.77599">
        <ele>49.39</ele>
        <time>2019-05-01T08:13:26Z</time>
      </trkpt>
      <trkpt lat="43.43714" lon="4.77605">
        <ele>49.204</ele>
        <time>2019-05-01T08:13:37Z</time>
      </trkpt>
      <trkpt lat="43.43755" lon="4.77658">
        <ele>50.165</ele>
        <time>2019-05-01T08:13:48Z</time>
      </trkpt>
      <trkpt lat="43.43805" lon="4.77662">
        <ele>50.618</ele>
        <time>2019-05-01T08:13:59Z</time>
      </trkpt>
      <trkpt lat="43.43855" lon="4.77649">
        <ele>50.161</ele>
        <time>2019-05-01T08:14:10Z</time>
      </trkpt>
      <trkpt lat="43.43899" lon="4.77633">
        <ele>49.239</ele>
        <time>2019-05-01T08:14:20Z</time>
      </trkpt>
      <trkpt lat="43.43948" lon="4.77623">
        <ele>50.874</ele>
        <time>2019-05-01T08:14:31Z</time>
      </trkpt>
      <trkpt lat="43.43998" lon="4.7761">
        <ele>46.812</ele>
        <time>2019-05-01T08:14:42Z</time>
      </trkpt>
      <trkpt lat="43.44049" lon="4.77595">
        <ele>46.134</ele>
        <time>2019-05-01T08:14:53Z</time>
      </trkpt>
      <trkpt lat="43.44103" lon="4.77579">
        <ele>48.098</ele>
        <time>2019-05-01T08:15:04Z</time>
      </trkpt>
      <trkpt lat="43.44151" lon="4.77564">
        <ele>51.133</ele>
        <time>2019-05-01T08:15:14Z</time>
      </trkpt>
      <trkpt lat="43.44197" lon="4.77549">
        <ele>50.652</ele>
        <time>2019-05-01T08:15:24Z</time>
      </trkpt>
      <trkpt lat="43.44242" lon="4.77537">
        <ele>50.046</ele>
        <time>2019-05-01T08:15:34Z</time>
      </trkpt>
      <trkpt lat="43.44284" lon="4.77511">
        <ele>46.432</ele>
        <time>2019-05-01T08:15:45Z</time>
      </trkpt>
      <trkpt lat="43.44332" lon="4.77508">
        <ele>45.27</ele>
        <time>2019-05-01T08:15:56Z</time>
      </trkpt>
      <trkpt lat="43.44377" lon="4.77493">
        <ele>46.297</ele>
        <time>2019-05-01T08:16:06Z</time>
      </trkpt>
      <trkpt lat="43.44424" lon="4.77482">
        <ele>44.661</ele>
        <time>2019-05-01T08:16:17Z</time>
      </trkpt>
      <trkpt lat="43.44478" lon="4.77465">
        <ele>43.607</ele>
        <time>2019-05-01T08:16:28Z</time>
      </trkpt>
      <trkpt lat="43.44532" lon="4.7745">
        <ele>41.809</ele>
        <time>2019-05-01T08:16:39Z</time>
      </trkpt>
      <trkpt lat="43.44587" lon="4.77433">
        <ele>43.016</ele>
        <time>2019-05-01T08:16:50Z</time>
      </trkpt>
      <trkpt lat="43.44599" lon="4.77425">
        <ele>43.423</ele>
        <time>2019-05-01T08:17:01Z</time>
      </trkpt>
      <trkpt lat="43.446" lon="4.77425">
        <ele>43.448</ele>
        <time>2019-05-01T08:17:11Z</time>
      </trkpt>
      <trkpt lat="43.446" lon="4.77425">
        <ele>43.538</ele>
        <time>2019-05-01T08:17:22Z</time>
      </trkpt>
      <trkpt lat="43.44601" lon="4.77424">
        <ele>43.654</ele>
        <time>2019-05-01T08:17:33Z</time>
      </trkpt>
      <trkpt lat="43.44601" lon="4.77424">
        <ele>43.797</ele>
        <time>2019-05-01T08:17:44Z</time>
      </trkpt>
      <trkpt lat="43.44602" lon="4.77424">
        <ele>43.934</ele>
        <time>2019-05-01T08:17:54Z</time>
      </trkpt>
      <trkpt lat="43.44602" lon="4.77424">
        <ele>44.138</ele>
        <time>2019-05-01T08:18:05Z</time>
      </trkpt>
      <trkpt lat="43.44603" lon="4.77424">
        <ele>44.382</ele>
        <time>2019-05-01T08:18:16Z</time>
      </trkpt>
      <trkpt lat="43.44603" lon="4.77424">
        <ele>44.533</ele>
        <time>2019-05-01T08:18:26Z</time>
      </trkpt>
      <trkpt lat="43.44603" lon="4.77424">
        <ele>44.631</ele>
        <time>2019-05-01T08:18:37Z</time>
      </trkpt>
      <trkpt lat="43.44603" lon="4.77423">
        <ele>44.605</ele>
        <time>2019-05-01T08:18:48Z</time>
      </trkpt>
      <trkpt lat="43.44603" lon="4.77423">
        <ele>44.579</ele>
        <time>2019-05-01T08:18:59Z</time>
      </trkpt>
      <trkpt lat="43.44603" lon="4.77423">
        <ele>44.604</ele>
        <time>2019-05-01T08:19:10Z</time>
      </trkpt>
      <trkpt lat="43.44603" lon="4.77423">
        <ele>44.635</ele>
        <time>2019-05-01T08:19:21Z</time>
      </trkpt>
      <trkpt lat="43.44602" lon="4.77423">
        <ele>44.66</ele>
        <time>2019-05-01T08:19:32Z</time>
      </trkpt>
      <trkpt lat="43.44602" lon="4.77423">
        <ele>44.679</ele>
        <time>2019-05-01T08:19:43Z</time>
      </trkpt>
      <trkpt lat="43.44602" lon="4.77423">
        <ele>44.674</ele>
        <time>2019-05-01T08:19:54Z</time>
      </trkpt>
      <trkpt lat="43.44602" lon="4.77423">
        <ele>44.684</ele>
        <time>2019-05-01T08:20:05Z</time>
      </trkpt>
      <trkpt lat="43.44602" lon="4.77423">
        <ele>44.682</ele>
        <time>2019-05-01T08:20:15Z</time>
      </trkpt>
      <trkpt lat="43.44602" lon="4.77423">
        <ele>44.694</ele>
        <time>2019-05-01T08:20:26Z</time>
      </trkpt>
      <trkpt lat="43.44602" lon="4.77423">
        <ele>44.707</ele>
        <time>2019-05-01T08:20:37Z</time>
      </trkpt>
      <trkpt lat="43.44602" lon="4.77423">
        <ele>44.712</ele>
        <time>2019-05-01T08:20:48Z</time>
      </trkpt>
      <trkpt lat="43.44602" lon="4.77423">
        <ele>44.708</ele>
        <time>2019-05-01T08:20:59Z</time>
      </trkpt>
      <trkpt lat="43.44602" lon="4.77423">
        <ele>44.703</ele>
        <time>2019-05-01T08:21:09Z</time>
      </trkpt>
      <trkpt lat="43.44602" lon="4.77424">
        <ele>44.698</ele>
        <time>2019-05-01T08:21:20Z</time>
      </trkpt>
      <trkpt lat="43.44602" lon="4.77424">
        <ele>44.69</ele>
        <time>2019-05-01T08:21:31Z</time>
      </trkpt>
      <trkpt lat="43.44602" lon="4.77423">
        <ele>44.674</ele>
        <time>2019-05-01T08:21:41Z</time>
      </trkpt>
      <trkpt lat="43.44602" lon="4.77423">
        <ele>44.666</ele>
        <time>2019-05-01T08:21:52Z</time>
      </trkpt>
      <trkpt lat="43.44602" lon="4.77423">
        <ele>44.666</ele>
        <time>2019-05-01T08:22:02Z</time>
      </trkpt>
      <trkpt lat="43.44602" lon="4.77424">
        <ele>44.686</ele>
        <time>2019-05-01T08:22:13Z</time>
      </trkpt>
      <trkpt lat="43.44602" lon="4.77424">
        <ele>44.722</ele>
        <time>2019-05-01T08:22:24Z</time>
      </trkpt>
      <trkpt lat="43.44603" lon="4.77425">
        <ele>44.766</ele>
        <time>2019-05-01T08:22:35Z</time>
      </trkpt>
      <trkpt lat="43.44603" lon="4.77425">
        <ele>44.797</ele>
        <time>2019-05-01T08:22:45Z</time>
      </trkpt>
      <trkpt lat="43.44603" lon="4.77425">
        <ele>44.807</ele>
        <time>2019-05-01T08:22:55Z</time>
      </trkpt>
      <trkpt lat="43.44603" lon="4.77424">
        <ele>44.818</ele>
        <time>2019-05-01T08:23:06Z</time>
      </trkpt>
      <trkpt lat="43.44603" lon="4.77424">
        <ele>44.835</ele>
        <time>2019-05-01T08:23:17Z</time>
      </trkpt>
      <trkpt lat="43.44603" lon="4.77424">
        <ele>44.833</ele>
        <time>2019-05-01T08:23:27Z</time>
      </trkpt>
      <trkpt lat="43.44602" lon="4.77424">
        <ele>44.839</ele>
        <time>2019-05-01T08:23:37Z</time>
      </trkpt>
      <trkpt lat="43.44624" lon="4.77418">
        <ele>45.159</ele>
        <time>2019-05-01T08:23:51Z</time>
      </trkpt>
      <trkpt lat="43.44671" lon="4.77404">
        <ele>51.261</ele>
        <time>2019-05-01T08:24:02Z</time>
      </trkpt>
      <trkpt lat="43.44722" lon="4.7739">
        <ele>53.483</ele>
        <time>2019-05-01T08:24:13Z</time>
      </trkpt>
      <trkpt lat="43.4477" lon="4.77375">
        <ele>50.312</ele>
        <time>2019-05-01T08:24:23Z</time>
      </trkpt>
      <trkpt lat="43.44822" lon="4.77358">
        <ele>49.191</ele>
        <time>2019-05-01T08:24:34Z</time>
      </trkpt>
      <trkpt lat="43.44873" lon="4.77343">
        <ele>47.659</ele>
        <time>2019-05-01T08:24:45Z</time>
      </trkpt>
      <trkpt lat="43.44919" lon="4.77329">
        <ele>45.364</ele>
        <time>2019-05-01T08:24:55Z</time>
      </trkpt>
      <trkpt lat="43.44974" lon="4.77313">
        <ele>46.645</ele>
        <time>2019-05-01T08:25:06Z</time>
      </trkpt>
      <trkpt lat="43.45023" lon="4.77296">
        <ele>48.089</ele>
        <time>2019-05-01T08:25:17Z</time>
      </trkpt>
      <trkpt lat="43.45076" lon="4.77281">
        <ele>48.237</ele>
        <time>2019-05-01T08:25:28Z</time>
      </trkpt>
      <trkpt lat="43.45128" lon="4.77266">
        <ele>49.995</ele>
        <time>2019-05-01T08:25:39Z</time>
      </trkpt>
      <trkpt lat="43.45171" lon="4.77245">
        <ele>50.492</ele>
        <time>2019-05-01T08:25:49Z</time>
      </trkpt>
      <trkpt lat="43.45222" lon="4.77229">
        <ele>48.889</ele>
        <time>2019-05-01T08:26:00Z</time>
      </trkpt>
      <trkpt lat="43.4527" lon="4.77215">
        <ele>47.619</ele>
        <time>2019-05-01T08:26:11Z</time>
      </trkpt>
      <trkpt lat="43.45317" lon="4.77199">
        <ele>48.469</ele>
        <time>2019-05-01T08:26:22Z</time>
      </trkpt>
      <trkpt lat="43.45367" lon="4.77184">
        <ele>48.962</ele>
        <time>2019-05-01T08:26:33Z</time>
      </trkpt>
      <trkpt lat="43.45412" lon="4.77171">
        <ele>48.4</ele>
        <time>2019-05-01T08:26:43Z</time>
      </trkpt>
      <trkpt lat="43.45462" lon="4.77156">
        <ele>49.982</ele>
        <time>2019-05-01T08:26:54Z</time>
      </trkpt>
      <trkpt lat="43.45514" lon="4.7714">
        <ele>50.021</ele>
        <time>2019-05-01T08:27:05Z</time>
      </trkpt>
      <trkpt lat="43.45559" lon="4.77128">
        <ele>50.027</ele>
        <time>2019-05-01T08:27:15Z</time>
      </trkpt>
      <trkpt lat="43.4561" lon="4.77114">
        <ele>49.405</ele>
        <time>2019-05-01T08:27:26Z</time>
      </trkpt>
      <trkpt lat="43.45658" lon="4.771">
        <ele>48.72</ele>
        <time>2019-05-01T08:27:37Z</time>
      </trkpt>
      <trkpt lat="43.45707" lon="4.77085">
        <ele>49.012</ele>
        <time>2019-05-01T08:27:48Z</time>
      </trkpt>
      <trkpt lat="43.45751" lon="4.77071">
        <ele>48.605</ele>
        <time>2019-05-01T08:27:58Z</time>
      </trkpt>
      <trkpt lat="43.458" lon="4.77056">
        <ele>48.222</ele>
        <time>2019-05-01T08:28:09Z</time>
      </trkpt>
      <trkpt lat="43.45848" lon="4.77041">
        <ele>48.23</ele>
        <time>2019-05-01T08:28:20Z</time>
      </trkpt>
      <trkpt lat="43.45897" lon="4.77027">
        <ele>48.339</ele>
        <time>2019-05-01T08:28:31Z</time>
      </trkpt>
      <trkpt lat="43.45944" lon="4.77014">
        <ele>48.17</ele>
        <time>2019-05-01T08:28:41Z</time>
      </trkpt>
      <trkpt lat="43.45994" lon="4.77">
        <ele>48.793</ele>
        <time>2019-05-01T08:28:52Z</time>
      </trkpt>
      <trkpt lat="43.46041" lon="4.7699">
        <ele>48.974</ele>
        <time>2019-05-01T08:29:02Z</time>
      </trkpt>
      <trkpt lat="43.4609" lon="4.76979">
        <ele>48.714</ele>
        <time>2019-05-01T08:29:13Z</time>
      </trkpt>
      <trkpt lat="43.46134" lon="4.76971">
        <ele>49.003</ele>
        <time>2019-05-01T08:29:23Z</time>
      </trkpt>
      <trkpt lat="43.46181" lon="4.76963">
        <ele>49.144</ele>
        <time>2019-05-01T08:29:34Z</time>
      </trkpt>
      <trkpt lat="43.46225" lon="4.76958">
        <ele>48.97</ele>
        <time>2019-05-01T08:29:44Z</time>
      </trkpt>
      <trkpt lat="43.46269" lon="4.76953">
        <ele>48.91</ele>
        <time>2019-05-01T08:29:54Z</time>
      </trkpt>
      <trkpt lat="43.46312" lon="4.76949">
        <ele>49.315</ele>
        <time>2019-05-01T08:30:04Z</time>
      </trkpt>
      <trkpt lat="43.46356" lon="4.76945">
        <ele>48.456</ele>
        <time>2019-05-01T08:30:15Z</time>
      </trkpt>
      <trkpt lat="43.46397" lon="4.76943">
        <ele>47.813</ele>
        <time>2019-05-01T08:30:25Z</time>
      </trkpt>
      <trkpt lat="43.4644" lon="4.7694">
        <ele>47.641</ele>
        <time>2019-05-01T08:30:35Z</time>
      </trkpt>
      <trkpt lat="43.46486" lon="4.76937">
        <ele>47.125</ele>
        <time>2019-05-01T08:30:46Z</time>
      </trkpt>
      <trkpt lat="43.46529" lon="4.76935">
        <ele>46.901</ele>
        <time>2019-05-01T08:30:56Z</time>
      </trkpt>
      <trkpt lat="43.46569" lon="4.76935">
        <ele>47.712</ele>
        <time>2019-05-01T08:31:06Z</time>
      </trkpt>
      <trkpt lat="43.4661" lon="4.76936">
        <ele>47.936</ele>
        <time>2019-05-01T08:31:16Z</time>
      </trkpt>
      <trkpt lat="43.46656" lon="4.76932">
        <ele>48.672</ele>
        <time>2019-05-01T08:31:27Z</time>
      </trkpt>
      <trkpt lat="43.46701" lon="4.76929">
        <ele>48.932</ele>
        <time>2019-05-01T08:31:37Z</time>
      </trkpt>
      <trkpt lat="43.46747" lon="4.76926">
        <ele>48.506</ele>
        <time>2019-05-01T08:31:47Z</time>
      </trkpt>
      <trkpt lat="43.46798" lon="4.76922">
        <ele>47.962</ele>
        <time>2019-05-01T08:31:58Z</time>
      </trkpt>
      <trkpt lat="43.46849" lon="4.76918">
        <ele>48.246</ele>
        <time>2019-05-01T08:32:09Z</time>
      </trkpt>
      <trkpt lat="43.46896" lon="4.76915">
        <ele>48.806</ele>
        <time>2019-05-01T08:32:19Z</time>
      </trkpt>
      <trkpt lat="43.46948" lon="4.76911">
        <ele>48.023</ele>
        <time>2019-05-01T08:32:30Z</time>
      </trkpt>
      <trkpt lat="43.47" lon="4.76907">
        <ele>45.408</ele>
        <time>2019-05-01T08:32:41Z</time>
      </trkpt>
      <trkpt lat="43.47051" lon="4.76904">
        <ele>46.232</ele>
        <time>2019-05-01T08:32:52Z</time>
      </trkpt>
      <trkpt lat="43.47096" lon="4.769">
        <ele>46.509</ele>
        <time>2019-05-01T08:33:02Z</time>
      </trkpt>
      <trkpt lat="43.47144" lon="4.76898">
        <ele>45.132</ele>
        <time>2019-05-01T08:33:12Z</time>
      </trkpt>
      <trkpt lat="43.47192" lon="4.76897">
        <ele>50.644</ele>
        <time>2019-05-01T08:33:22Z</time>
      </trkpt>
      <trkpt lat="43.47253" lon="4.76891">
        <ele>45.013</ele>
        <time>2019-05-01T08:33:33Z</time>
      </trkpt>
      <trkpt lat="43.47312" lon="4.76882">
        <ele>43.293</ele>
        <time>2019-05-01T08:33:44Z</time>
      </trkpt>
      <trkpt lat="43.47361" lon="4.76878">
        <ele>46.034</ele>
        <time>2019-05-01T08:33:54Z</time>
      </trkpt>
      <trkpt lat="43.47419" lon="4.76868">
        <ele>45.667</ele>
        <time>2019-05-01T08:34:05Z</time>
      </trkpt>
      <trkpt lat="43.47472" lon="4.76857">
        <ele>46.373</ele>
        <time>2019-05-01T08:34:16Z</time>
      </trkpt>
      <trkpt lat="43.47523" lon="4.76847">
        <ele>46.728</ele>
        <time>2019-05-01T08:34:26Z</time>
      </trkpt>
      <trkpt lat="43.47578" lon="4.76836">
        <ele>46.208</ele>
        <time>2019-05-01T08:34:37Z</time>
      </trkpt>
      <trkpt lat="43.47633" lon="4.76822">
        <ele>46.161</ele>
        <time>2019-05-01T08:34:48Z</time>
      </trkpt>
      <trkpt lat="43.47678" lon="4.7681">
        <ele>44.247</ele>
        <time>2019-05-01T08:34:58Z</time>
      </trkpt>
      <trkpt lat="43.4773" lon="4.76794">
        <ele>43.347</ele>
        <time>2019-05-01T08:35:09Z</time>
      </trkpt>
      <trkpt lat="43.47785" lon="4.76776">
        <ele>46.047</ele>
        <time>2019-05-01T08:35:20Z</time>
      </trkpt>
      <trkpt lat="43.47841" lon="4.76759">
        <ele>45.584</ele>
        <time>2019-05-01T08:35:31Z</time>
      </trkpt>
      <trkpt lat="43.4789" lon="4.76746">
        <ele>44.86</ele>
        <time>2019-05-01T08:35:41Z</time>
      </trkpt>
      <trkpt lat="43.47945" lon="4.76728">
        <ele>44.206</ele>
        <time>2019-05-01T08:35:52Z</time>
      </trkpt>
      <trkpt lat="43.48001" lon="4.76712">
        <ele>43.306</ele>
        <time>2019-05-01T08:36:03Z</time>
      </trkpt>
      <trkpt lat="43.48057" lon="4.76696">
        <ele>42.651</ele>
        <time>2019-05-01T08:36:14Z</time>
      </trkpt>
      <trkpt lat="43.48115" lon="4.7668">
        <ele>45.747</ele>
        <time>2019-05-01T08:36:25Z</time>
      </trkpt>
      <trkpt lat="43.48174" lon="4.76662">
        <ele>47.603</ele>
        <time>2019-05-01T08:36:36Z</time>
      </trkpt>
      <trkpt lat="43.48227" lon="4.76645">
        <ele>46.963</ele>
        <time>2019-05-01T08:36:46Z</time>
      </trkpt>
      <trkpt lat="43.48284" lon="4.76628">
        <ele>48.096</ele>
        <time>2019-05-01T08:36:57Z</time>
      </trkpt>
      <trkpt lat="43.48337" lon="4.76611">
        <ele>50.164</ele>
        <time>2019-05-01T08:37:08Z</time>
      </trkpt>
      <trkpt lat="43.48386" lon="4.76596">
        <ele>46.426</ele>
        <time>2019-05-01T08:37:19Z</time>
      </trkpt>
      <trkpt lat="43.4844" lon="4.7658">
        <ele>45.23</ele>
        <time>2019-05-01T08:37:30Z</time>
      </trkpt>
      <trkpt lat="43.48491" lon="4.76566">
        <ele>47.307</ele>
        <time>2019-05-01T08:37:41Z</time>
      </trkpt>
      <trkpt lat="43.48544" lon="4.7655">
        <ele>47.4</ele>
        <time>2019-05-01T08:37:52Z</time>
      </trkpt>
      <trkpt lat="43.48596" lon="4.76534">
        <ele>47.864</ele>
        <time>2019-05-01T08:38:03Z</time>
      </trkpt>
      <trkpt lat="43.48646" lon="4.7652">
        <ele>48.863</ele>
        <time>2019-05-01T08:38:13Z</time>
      </trkpt>
      <trkpt lat="43.48695" lon="4.76505">
        <ele>48.321</ele>
        <time>2019-05-01T08:38:23Z</time>
      </trkpt>
      <trkpt lat="43.4875" lon="4.76487">
        <ele>46.523</ele>
        <time>2019-05-01T08:38:34Z</time>
      </trkpt>
      <trkpt lat="43.48797" lon="4.76473">
        <ele>46.222</ele>
        <time>2019-05-01T08:38:44Z</time>
      </trkpt>
      <trkpt lat="43.48845" lon="4.76458">
        <ele>46.892</ele>
        <time>2019-05-01T08:38:54Z</time>
      </trkpt>
      <trkpt lat="43.48891" lon="4.76445">
        <ele>48.455</ele>
        <time>2019-05-01T08:39:04Z</time>
      </trkpt>
      <trkpt lat="43.48944" lon="4.76429">
        <ele>47.367</ele>
        <time>2019-05-01T08:39:15Z</time>
      </trkpt>
      <trkpt lat="43.48992" lon="4.76416">
        <ele>46.549</ele>
        <time>2019-05-01T08:39:25Z</time>
      </trkpt>
      <trkpt lat="43.49043" lon="4.76402">
        <ele>46.086</ele>
        <time>2019-05-01T08:39:36Z</time>
      </trkpt>
      <trkpt lat="43.49089" lon="4.76387">
        <ele>46.965</ele>
        <time>2019-05-01T08:39:46Z</time>
      </trkpt>
      <trkpt lat="43.49135" lon="4.76373">
        <ele>46.847</ele>
        <time>2019-05-01T08:39:56Z</time>
      </trkpt>
      <trkpt lat="43.49184" lon="4.76359">
        <ele>47.704</ele>
        <time>2019-05-01T08:40:07Z</time>
      </trkpt>
      <trkpt lat="43.4923" lon="4.76344">
        <ele>48.454</ele>
        <time>2019-05-01T08:40:17Z</time>
      </trkpt>
      <trkpt lat="43.49281" lon="4.76328">
        <ele>48.262</ele>
        <time>2019-05-01T08:40:28Z</time>
      </trkpt>
      <trkpt lat="43.49328" lon="4.76314">
        <ele>47.599</ele>
        <time>2019-05-01T08:40:38Z</time>
      </trkpt>
      <trkpt lat="43.49381" lon="4.76298">
        <ele>48.098</ele>
        <time>2019-05-01T08:40:49Z</time>
      </trkpt>
      <trkpt lat="43.49433" lon="4.76283">
        <ele>46.994</ele>
        <time>2019-05-01T08:41:00Z</time>
      </trkpt>
      <trkpt lat="43.49482" lon="4.76267">
        <ele>46.994</ele>
        <time>2019-05-01T08:41:11Z</time>
      </trkpt>
      <trkpt lat="43.49524" lon="4.76255">
        <ele>47.723</ele>
        <time>2019-05-01T08:41:21Z</time>
      </trkpt>
      <trkpt lat="43.49569" lon="4.76243">
        <ele>48.19</ele>
        <time>2019-05-01T08:41:31Z</time>
      </trkpt>
      <trkpt lat="43.49619" lon="4.76227">
        <ele>47.939</ele>
        <time>2019-05-01T08:41:42Z</time>
      </trkpt>
      <trkpt lat="43.49668" lon="4.76212">
        <ele>47.925</ele>
        <time>2019-05-01T08:41:53Z</time>
      </trkpt>
      <trkpt lat="43.4971" lon="4.76198">
        <ele>47.882</ele>
        <time>2019-05-01T08:42:03Z</time>
      </trkpt>
      <trkpt lat="43.49735" lon="4.76193">
        <ele>47.669</ele>
        <time>2019-05-01T08:42:13Z</time>
      </trkpt>
      <trkpt lat="43.49735" lon="4.76193">
        <ele>47.658</ele>
        <time>2019-05-01T08:42:24Z</time>
      </trkpt>
      <trkpt lat="43.49735" lon="4.76193">
        <ele>47.689</ele>
        <time>2019-05-01T08:42:35Z</time>
      </trkpt>
      <trkpt lat="43.49736" lon="4.76192">
        <ele>47.753</ele>
        <time>2019-05-01T08:42:46Z</time>
      </trkpt>
      <trkpt lat="43.49736" lon="4.76192">
        <ele>47.803</ele>
        <time>2019-05-01T08:42:57Z</time>
      </trkpt>
      <trkpt lat="43.49736" lon="4.76193">
        <ele>47.819</ele>
        <time>2019-05-01T08:43:07Z</time>
      </trkpt>
      <trkpt lat="43.49735" lon="4.76193">
        <ele>47.865</ele>
        <time>2019-05-01T08:43:18Z</time>
      </trkpt>
      <trkpt lat="43.49759" lon="4.76184">
        <ele>48.58</ele>
        <time>2019-05-01T08:43:30Z</time>
      </trkpt>
      <trkpt lat="43.49809" lon="4.7617">
        <ele>49.939</ele>
        <time>2019-05-01T08:43:41Z</time>
      </trkpt>
      <trkpt lat="43.49857" lon="4.76155">
        <ele>49.977</ele>
        <time>2019-05-01T08:43:52Z</time>
      </trkpt>
      <trkpt lat="43.49904" lon="4.7614">
        <ele>48.92</ele>
        <time>2019-05-01T08:44:02Z</time>
      </trkpt>
      <trkpt lat="43.49953" lon="4.76127">
        <ele>50.255</ele>
        <time>2019-05-01T08:44:12Z</time>
      </trkpt>
      <trkpt lat="43.50006" lon="4.76111">
        <ele>49.83</ele>
        <time>2019-05-01T08:44:23Z</time>
      </trkpt>
      <trkpt lat="43.50059" lon="4.76094">
        <ele>47.129</ele>
        <time>2019-05-01T08:44:34Z</time>
      </trkpt>
      <trkpt lat="43.50105" lon="4.76079">
        <ele>46.765</ele>
        <time>2019-05-01T08:44:44Z</time>
      </trkpt>
      <trkpt lat="43.50158" lon="4.76062">
        <ele>45.255</ele>
        <time>2019-05-01T08:44:55Z</time>
      </trkpt>
      <trkpt lat="43.50206" lon="4.76049">
        <ele>44.34</ele>
        <time>2019-05-01T08:45:05Z</time>
      </trkpt>
      <trkpt lat="43.50258" lon="4.76033">
        <ele>44.414</ele>
        <time>2019-05-01T08:45:16Z</time>
      </trkpt>
      <trkpt lat="43.50307" lon="4.76017">
        <ele>42.123</ele>
        <time>2019-05-01T08:45:26Z</time>
      </trkpt>
      <trkpt lat="43.5036" lon="4.76002">
        <ele>42.134</ele>
        <time>2019-05-01T08:45:37Z</time>
      </trkpt>
      <trkpt lat="43.50407" lon="4.75987">
        <ele>41.194</ele>
        <time>2019-05-01T08:45:47Z</time>
      </trkpt>
      <trkpt lat="43.50459" lon="4.75975">
        <ele>41.834</ele>
        <time>2019-05-01T08:45:58Z</time>
      </trkpt>
      <trkpt lat="43.50507" lon="4.75961">
        <ele>41.521</ele>
        <time>2019-05-01T08:46:08Z</time>
      </trkpt>
      <trkpt lat="43.50558" lon="4.75945">
        <ele>41.689</ele>
        <time>2019-05-01T08:46:19Z</time>
      </trkpt>
      <trkpt lat="43.50609" lon="4.7593">
        <ele>41.257</ele>
        <time>2019-05-01T08:46:30Z</time>
      </trkpt>
      <trkpt lat="43.50656" lon="4.75916">
        <ele>41.805</ele>
        <time>2019-05-01T08:46:40Z</time>
      </trkpt>
      <trkpt lat="43.50708" lon="4.75899">
        <ele>41.885</ele>
        <time>2019-05-01T08:46:51Z</time>
      </trkpt>
      <trkpt lat="43.50759" lon="4.75884">
        <ele>41.694</ele>
        <time>2019-05-01T08:47:02Z</time>
      </trkpt>
      <trkpt lat="43.5081" lon="4.75868">
        <ele>41.896</ele>
        <time>2019-05-01T08:47:13Z</time>
      </trkpt>
      <trkpt lat="43.50859" lon="4.75854">
        <ele>42.077</ele>
        <time>2019-05-01T08:47:24Z</time>
      </trkpt>
      <trkpt lat="43.50904" lon="4.7584">
        <ele>42.711</ele>
        <time>2019-05-01T08:47:34Z</time>
      </trkpt>
      <trkpt lat="43.50954" lon="4.75826">
        <ele>43.172</ele>
        <time>2019-05-01T08:47:45Z</time>
      </trkpt>
      <trkpt lat="43.50998" lon="4.75811">
        <ele>41.754</ele>
        <time>2019-05-01T08:47:55Z</time>
      </trkpt>
      <trkpt lat="43.51049" lon="4.75796">
        <ele>42.004</ele>
        <time>2019-05-01T08:48:06Z</time>
      </trkpt>
      <trkpt lat="43.51093" lon="4.75784">
        <ele>42.701</ele>
        <time>2019-05-01T08:48:16Z</time>
      </trkpt>
      <trkpt lat="43.51141" lon="4.75769">
        <ele>42.197</ele>
        <time>2019-05-01T08:48:27Z</time>
      </trkpt>
      <trkpt lat="43.51192" lon="4.75755">
        <ele>46.253</ele>
        <time>2019-05-01T08:48:38Z</time>
      </trkpt>
      <trkpt lat="43.51236" lon="4.75742">
        <ele>46.263</ele>
        <time>2019-05-01T08:48:48Z</time>
      </trkpt>
      <trkpt lat="43.51287" lon="4.75726">
        <ele>45.56</ele>
        <time>2019-05-01T08:48:59Z</time>
      </trkpt>
      <trkpt lat="43.51338" lon="4.7571">
        <ele>43.268</ele>
        <time>2019-05-01T08:49:10Z</time>
      </trkpt>
      <trkpt lat="43.51384" lon="4.75697">
        <ele>44.56</ele>
        <time>2019-05-01T08:49:20Z</time>
      </trkpt>
      <trkpt lat="43.51428" lon="4.75684">
        <ele>44.668</ele>
        <time>2019-05-01T08:49:30Z</time>
      </trkpt>
      <trkpt lat="43.51479" lon="4.75669">
        <ele>47.409</ele>
        <time>2019-05-01T08:49:41Z</time>
      </trkpt>
      <trkpt lat="43.5153" lon="4.75654">
        <ele>47.932</ele>
        <time>2019-05-01T08:49:52Z</time>
      </trkpt>
      <trkpt lat="43.51581" lon="4.75638">
        <ele>48.145</ele>
        <time>2019-05-01T08:50:03Z</time>
      </trkpt>
      <trkpt lat="43.51635" lon="4.7562">
        <ele>46.367</ele>
        <time>2019-05-01T08:50:14Z</time>
      </trkpt>
      <trkpt lat="43.51684" lon="4.75606">
        <ele>46.061</ele>
        <time>2019-05-01T08:50:24Z</time>
      </trkpt>
      <trkpt lat="43.51738" lon="4.7559">
        <ele>45.621</ele>
        <time>2019-05-01T08:50:35Z</time>
      </trkpt>
      <trkpt lat="43.51785" lon="4.75575">
        <ele>44.423</ele>
        <time>2019-05-01T08:50:45Z</time>
      </trkpt>
      <trkpt lat="43.51838" lon="4.75559">
        <ele>43.514</ele>
        <time>2019-05-01T08:50:56Z</time>
      </trkpt>
      <trkpt lat="43.51887" lon="4.75544">
        <ele>43.408</ele>
        <time>2019-05-01T08:51:06Z</time>
      </trkpt>
      <trkpt lat="43.51939" lon="4.75528">
        <ele>43.515</ele>
        <time>2019-05-01T08:51:17Z</time>
      </trkpt>
      <trkpt lat="43.51983" lon="4.75515">
        <ele>42.981</ele>
        <time>2019-05-01T08:51:27Z</time>
      </trkpt>
      <trkpt lat="43.52024" lon="4.755">
        <ele>44.105</ele>
        <time>2019-05-01T08:51:37Z</time>
      </trkpt>
      <trkpt lat="43.52075" lon="4.75486">
        <ele>48.681</ele>
        <time>2019-05-01T08:51:48Z</time>
      </trkpt>
      <trkpt lat="43.52122" lon="4.75474">
        <ele>51.099</ele>
        <time>2019-05-01T08:51:58Z</time>
      </trkpt>
      <trkpt lat="43.52151" lon="4.75464">
        <ele>51.719</ele>
        <time>2019-05-01T08:52:09Z</time>
      </trkpt>
      <trkpt lat="43.52151" lon="4.75462">
        <ele>51.75</ele>
        <time>2019-05-01T08:52:20Z</time>
      </trkpt>
      <trkpt lat="43.52153" lon="4.75457">
        <ele>52.282</ele>
        <time>2019-05-01T08:52:30Z</time>
      </trkpt>
      <trkpt lat="43.52151" lon="4.75458">
        <ele>52.831</ele>
        <time>2019-05-01T08:52:40Z</time>
      </trkpt>
      <trkpt lat="43.52151" lon="4.75458">
        <ele>52.898</ele>
        <time>2019-05-01T08:52:52Z</time>
      </trkpt>
      <trkpt lat="43.52151" lon="4.75458">
        <ele>52.908</ele>
        <time>2019-05-01T08:53:03Z</time>
      </trkpt>
      <trkpt lat="43.52151" lon="4.75459">
        <ele>52.774</ele>
        <time>2019-05-01T08:53:13Z</time>
      </trkpt>
      <trkpt lat="43.52153" lon="4.75459">
        <ele>52.702</ele>
        <time>2019-05-01T08:53:24Z</time>
      </trkpt>
      <trkpt lat="43.52179" lon="4.75455">
        <ele>52.08</ele>
        <time>2019-05-01T08:53:35Z</time>
      </trkpt>
      <trkpt lat="43.52224" lon="4.75443">
        <ele>51.287</ele>
        <time>2019-05-01T08:53:46Z</time>
      </trkpt>
      <trkpt lat="43.52278" lon="4.75427">
        <ele>51.276</ele>
        <time>2019-05-01T08:53:57Z</time>
      </trkpt>
      <trkpt lat="43.5233" lon="4.75409">
        <ele>49.674</ele>
        <time>2019-05-01T08:54:08Z</time>
      </trkpt>
      <trkpt lat="43.52373" lon="4.75397">
        <ele>50.335</ele>
        <time>2019-05-01T08:54:18Z</time>
      </trkpt>
      <trkpt lat="43.52416" lon="4.75382">
        <ele>52.289</ele>
        <time>2019-05-01T08:54:28Z</time>
      </trkpt>
      <trkpt lat="43.52461" lon="4.75364">
        <ele>51.654</ele>
        <time>2019-05-01T08:54:38Z</time>
      </trkpt>
      <trkpt lat="43.52509" lon="4.75341">
        <ele>50.504</ele>
        <time>2019-05-01T08:54:49Z</time>
      </trkpt>
      <trkpt lat="43.52559" lon="4.75314">
        <ele>48.79</ele>
        <time>2019-05-01T08:55:00Z</time>
      </trkpt>
      <trkpt lat="43.52601" lon="4.7529">
        <ele>51.807</ele>
        <time>2019-05-01T08:55:10Z</time>
      </trkpt>
      <trkpt lat="43.52653" lon="4.75259">
        <ele>49.648</ele>
        <time>2019-05-01T08:55:21Z</time>
      </trkpt>
      <trkpt lat="43.52695" lon="4.75234">
        <ele>48.456</ele>
        <time>2019-05-01T08:55:31Z</time>
      </trkpt>
      <trkpt lat="43.52735" lon="4.75208">
        <ele>50.176</ele>
        <time>2019-05-01T08:55:41Z</time>
      </trkpt>
      <trkpt lat="43.52779" lon="4.75176">
        <ele>51.088</ele>
        <time>2019-05-01T08:55:52Z</time>
      </trkpt>
      <trkpt lat="43.52824" lon="4.75141">
        <ele>50.331</ele>
        <time>2019-05-01T08:56:03Z</time>
      </trkpt>
      <trkpt lat="43.52871" lon="4.75106">
        <ele>49.183</ele>
        <time>2019-05-01T08:56:14Z</time>
      </trkpt>
      <trkpt lat="43.52916" lon="4.7507">
        <ele>48.479</ele>
        <time>2019-05-01T08:56:25Z</time>
      </trkpt>
      <trkpt lat="43.52957" lon="4.75041">
        <ele>48.767</ele>
        <time>2019-05-01T08:56:35Z</time>
      </trkpt>
      <trkpt lat="43.53005" lon="4.75003">
        <ele>49.063</ele>
        <time>2019-05-01T08:56:46Z</time>
      </trkpt>
      <trkpt lat="43.5305" lon="4.74969">
        <ele>49.243</ele>
        <time>2019-05-01T08:56:56Z</time>
      </trkpt>
      <trkpt lat="43.53095" lon="4.74933">
        <ele>48.727</ele>
        <time>2019-05-01T08:57:06Z</time>
      </trkpt>
      <trkpt lat="43.53138" lon="4.74897">
        <ele>46.361</ele>
        <time>2019-05-01T08:57:17Z</time>
      </trkpt>
      <trkpt lat="43.53177" lon="4.74866">
        <ele>48.95</ele>
        <time>2019-05-01T08:57:27Z</time>
      </trkpt>
      <trkpt lat="43.53221" lon="4.74833">
        <ele>45.861</ele>
        <time>2019-05-01T08:57:37Z</time>
      </trkpt>
      <trkpt lat="43.53265" lon="4.74799">
        <ele>44.945</ele>
        <time>2019-05-01T08:57:47Z</time>
      </trkpt>
      <trkpt lat="43.53311" lon="4.74764">
        <ele>47.673</ele>
        <time>2019-05-01T08:57:58Z</time>
      </trkpt>
      <trkpt lat="43.53363" lon="4.74724">
        <ele>48.627</ele>
        <time>2019-05-01T08:58:09Z</time>
      </trkpt>
      <trkpt lat="43.53407" lon="4.7469">
        <ele>48.231</ele>
        <time>2019-05-01T08:58:19Z</time>
      </trkpt>
      <trkpt lat="43.5345" lon="4.74656">
        <ele>46.293</ele>
        <time>2019-05-01T08:58:29Z</time>
      </trkpt>
      <trkpt lat="43.53494" lon="4.74622">
        <ele>47.221</ele>
        <time>2019-05-01T08:58:40Z</time>
      </trkpt>
      <trkpt lat="43.53533" lon="4.74592">
        <ele>48.136</ele>
        <time>2019-05-01T08:58:50Z</time>
      </trkpt>
      <trkpt lat="43.53578" lon="4.74558">
        <ele>48.704</ele>
        <time>2019-05-01T08:59:01Z</time>
      </trkpt>
      <trkpt lat="43.53621" lon="4.74523">
        <ele>46.703</ele>
        <time>2019-05-01T08:59:11Z</time>
      </trkpt>
      <trkpt lat="43.53664" lon="4.74489">
        <ele>46.197</ele>
        <time>2019-05-01T08:59:21Z</time>
      </trkpt>
      <trkpt lat="43.53709" lon="4.74453">
        <ele>45.618</ele>
        <time>2019-05-01T08:59:32Z</time>
      </trkpt>
      <trkpt lat="43.53749" lon="4.74421">
        <ele>46.144</ele>
        <time>2019-05-01T08:59:42Z</time>
      </trkpt>
      <trkpt lat="43.53798" lon="4.74385">
        <ele>46.803</ele>
        <time>2019-05-01T08:59:53Z</time>
      </trkpt>
      <trkpt lat="43.53849" lon="4.74347">
        <ele>48.789</ele>
        <time>2019-05-01T09:00:04Z</time>
      </trkpt>
      <trkpt lat="43.53895" lon="4.74308">
        <ele>46.768</ele>
        <time>2019-05-01T09:00:14Z</time>
      </trkpt>
      <trkpt lat="43.53945" lon="4.7427">
        <ele>48.181</ele>
        <time>2019-05-01T09:00:25Z</time>
      </trkpt>
      <trkpt lat="43.53994" lon="4.74234">
        <ele>50.544</ele>
        <time>2019-05-01T09:00:36Z</time>
      </trkpt>
      <trkpt lat="43.54039" lon="4.74198">
        <ele>49.915</ele>
        <time>2019-05-01T09:00:46Z</time>
      </trkpt>
      <trkpt lat="43.5409" lon="4.74158">
        <ele>47.604</ele>
        <time>2019-05-01T09:00:57Z</time>
      </trkpt>
      <trkpt lat="43.54132" lon="4.74122">
        <ele>46.059</ele>
        <time>2019-05-01T09:01:07Z</time>
      </trkpt>
      <trkpt lat="43.54178" lon="4.74085">
        <ele>48.367</ele>
        <time>2019-05-01T09:01:18Z</time>
      </trkpt>
      <trkpt lat="43.54226" lon="4.74044">
        <ele>47.542</ele>
        <time>2019-05-01T09:01:29Z</time>
      </trkpt>
      <trkpt lat="43.5427" lon="4.74004">
        <ele>46.164</ele>
        <time>2019-05-01T09:01:39Z</time>
      </trkpt>
      <trkpt lat="43.54311" lon="4.73968">
        <ele>47.552</ele>
        <time>2019-05-01T09:01:49Z</time>
      </trkpt>
      <trkpt lat="43.54364" lon="4.7392">
        <ele>45.781</ele>
        <time>2019-05-01T09:02:00Z</time>
      </trkpt>
      <trkpt lat="43.54405" lon="4.73881">
        <ele>46.313</ele>
        <time>2019-05-01T09:02:10Z</time>
      </trkpt>
      <trkpt lat="43.5445" lon="4.73838">
        <ele>46.675</ele>
        <time>2019-05-01T09:02:20Z</time>
      </trkpt>
      <trkpt lat="43.54499" lon="4.73793">
        <ele>47.167</ele>
        <time>2019-05-01T09:02:31Z</time>
      </trkpt>
      <trkpt lat="43.54542" lon="4.73755">
        <ele>48.046</ele>
        <time>2019-05-01T09:02:41Z</time>
      </trkpt>
      <trkpt lat="43.54588" lon="4.73713">
        <ele>48.441</ele>
        <time>2019-05-01T09:02:52Z</time>
      </trkpt>
      <trkpt lat="43.54632" lon="4.73668">
        <ele>46.338</ele>
        <time>2019-05-01T09:03:02Z</time>
      </trkpt>
      <trkpt lat="43.54683" lon="4.73621">
        <ele>43.845</ele>
        <time>2019-05-01T09:03:13Z</time>
      </trkpt>
      <trkpt lat="43.54733" lon="4.73574">
        <ele>46.006</ele>
        <time>2019-05-01T09:03:24Z</time>
      </trkpt>
      <trkpt lat="43.54778" lon="4.7353">
        <ele>44.722</ele>
        <time>2019-05-01T09:03:34Z</time>
      </trkpt>
      <trkpt lat="43.54827" lon="4.73485">
        <ele>42.172</ele>
        <time>2019-05-01T09:03:45Z</time>
      </trkpt>
      <trkpt lat="43.5487" lon="4.73446">
        <ele>42.305</ele>
        <time>2019-05-01T09:03:55Z</time>
      </trkpt>
      <trkpt lat="43.54914" lon="4.73407">
        <ele>44.446</ele>
        <time>2019-05-01T09:04:05Z</time>
      </trkpt>
      <trkpt lat="43.54961" lon="4.73363">
        <ele>48.001</ele>
        <time>2019-05-01T09:04:16Z</time>
      </trkpt>
      <trkpt lat="43.55008" lon="4.73321">
        <ele>49.558</ele>
        <time>2019-05-01T09:04:27Z</time>
      </trkpt>
      <trkpt lat="43.55052" lon="4.73279">
        <ele>47.923</ele>
        <time>2019-05-01T09:04:37Z</time>
      </trkpt>
      <trkpt lat="43.55102" lon="4.73236">
        <ele>46.926</ele>
        <time>2019-05-01T09:04:48Z</time>
      </trkpt>
      <trkpt lat="43.55144" lon="4.73195">
        <ele>47.596</ele>
        <time>2019-05-01T09:04:58Z</time>
      </trkpt>
      <trkpt lat="43.5519" lon="4.73151">
        <ele>48.449</ele>
        <time>2019-05-01T09:05:09Z</time>
      </trkpt>
      <trkpt lat="43.55239" lon="4.73107">
        <ele>48.532</ele>
        <time>2019-05-01T09:05:20Z</time>
      </trkpt>
      <trkpt lat="43.55283" lon="4.73064">
        <ele>49.492</ele>
        <time>2019-05-01T09:05:30Z</time>
      </trkpt>
      <trkpt lat="43.55335" lon="4.73016">
        <ele>49.913</ele>
        <time>2019-05-01T09:05:41Z</time>
      </trkpt>
      <trkpt lat="43.55382" lon="4.72972">
        <ele>49.319</ele>
        <time>2019-05-01T09:05:51Z</time>
      </trkpt>
      <trkpt lat="43.5543" lon="4.72928">
        <ele>50.006</ele>
        <time>2019-05-01T09:06:01Z</time>
      </trkpt>
      <trkpt lat="43.5548" lon="4.7288">
        <ele>50.708</ele>
        <time>2019-05-01T09:06:12Z</time>
      </trkpt>
      <trkpt lat="43.55531" lon="4.72832">
        <ele>50.419</ele>
        <time>2019-05-01T09:06:23Z</time>
      </trkpt>
      <trkpt lat="43.55582" lon="4.72784">
        <ele>50.554</ele>
        <time>2019-05-01T09:06:34Z</time>
      </trkpt>
      <trkpt lat="43.55628" lon="4.72742">
        <ele>50.36</ele>
        <time>2019-05-01T09:06:44Z</time>
      </trkpt>
      <trkpt lat="43.55677" lon="4.72696">
        <ele>50.072</ele>
        <time>2019-05-01T09:06:55Z</time>
      </trkpt>
      <trkpt lat="43.55721" lon="4.72655">
        <ele>50.588</ele>
        <time>2019-05-01T09:07:05Z</time>
      </trkpt>
      <trkpt lat="43.55766" lon="4.72615">
        <ele>49.18</ele>
        <time>2019-05-01T09:07:16Z</time>
      </trkpt>
      <trkpt lat="43.55805" lon="4.7258">
        <ele>49.484</ele>
        <time>2019-05-01T09:07:27Z</time>
      </trkpt>
      <trkpt lat="43.55838" lon="4.72549">
        <ele>51.08</ele>
        <time>2019-05-01T09:07:37Z</time>
      </trkpt>
      <trkpt lat="43.5587" lon="4.72518">
        <ele>52.033</ele>
        <time>2019-05-01T09:07:47Z</time>
      </trkpt>
      <trkpt lat="43.55917" lon="4.72472">
        <ele>50.739</ele>
        <time>2019-05-01T09:07:58Z</time>
      </trkpt>
      <trkpt lat="43.55959" lon="4.72434">
        <ele>50.238</ele>
        <time>2019-05-01T09:08:08Z</time>
      </trkpt>
      <trkpt lat="43.56" lon="4.72395">
        <ele>49.901</ele>
        <time>2019-05-01T09:08:18Z</time>
      </trkpt>
      <trkpt lat="43.56048" lon="4.72352">
        <ele>49.397</ele>
        <time>2019-05-01T09:08:29Z</time>
      </trkpt>
      <trkpt lat="43.561" lon="4.72304">
        <ele>45.527</ele>
        <time>2019-05-01T09:08:40Z</time>
      </trkpt>
      <trkpt lat="43.56144" lon="4.72263">
        <ele>44.957</ele>
        <time>2019-05-01T09:08:50Z</time>
      </trkpt>
      <trkpt lat="43.5619" lon="4.7222">
        <ele>47.38</ele>
        <time>2019-05-01T09:09:01Z</time>
      </trkpt>
      <trkpt lat="43.56233" lon="4.7218">
        <ele>47.978</ele>
        <time>2019-05-01T09:09:12Z</time>
      </trkpt>
      <trkpt lat="43.56271" lon="4.72144">
        <ele>48.653</ele>
        <time>2019-05-01T09:09:22Z</time>
      </trkpt>
      <trkpt lat="43.56315" lon="4.72104">
        <ele>47.81</ele>
        <time>2019-05-01T09:09:33Z</time>
      </trkpt>
      <trkpt lat="43.56352" lon="4.72065">
        <ele>47.99</ele>
        <time>2019-05-01T09:09:44Z</time>
      </trkpt>
      <trkpt lat="43.56391" lon="4.72035">
        <ele>49.169</ele>
        <time>2019-05-01T09:09:55Z</time>
      </trkpt>
      <trkpt lat="43.56433" lon="4.71996">
        <ele>50.121</ele>
        <time>2019-05-01T09:10:06Z</time>
      </trkpt>
      <trkpt lat="43.56473" lon="4.71959">
        <ele>49.77</ele>
        <time>2019-05-01T09:10:16Z</time>
      </trkpt>
      <trkpt lat="43.5652" lon="4.71915">
        <ele>48.592</ele>
        <time>2019-05-01T09:10:27Z</time>
      </trkpt>
      <trkpt lat="43.56567" lon="4.71871">
        <ele>49.269</ele>
        <time>2019-05-01T09:10:38Z</time>
      </trkpt>
      <trkpt lat="43.56615" lon="4.71827">
        <ele>48.936</ele>
        <time>2019-05-01T09:10:49Z</time>
      </trkpt>
      <trkpt lat="43.56662" lon="4.71782">
        <ele>50.343</ele>
        <time>2019-05-01T09:11:00Z</time>
      </trkpt>
      <trkpt lat="43.56706" lon="4.71741">
        <ele>50.707</ele>
        <time>2019-05-01T09:11:10Z</time>
      </trkpt>
      <trkpt lat="43.56759" lon="4.7169">
        <ele>49.134</ele>
        <time>2019-05-01T09:11:21Z</time>
      </trkpt>
      <trkpt lat="43.56804" lon="4.71649">
        <ele>49.263</ele>
        <time>2019-05-01T09:11:31Z</time>
      </trkpt>
      <trkpt lat="43.56851" lon="4.71607">
        <ele>49.781</ele>
        <time>2019-05-01T09:11:42Z</time>
      </trkpt>
      <trkpt lat="43.5689" lon="4.7157">
        <ele>49.154</ele>
        <time>2019-05-01T09:11:52Z</time>
      </trkpt>
      <trkpt lat="43.56935" lon="4.71529">
        <ele>50.253</ele>
        <time>2019-05-01T09:12:03Z</time>
      </trkpt>
      <trkpt lat="43.56976" lon="4.7149">
        <ele>50.462</ele>
        <time>2019-05-01T09:12:13Z</time>
      </trkpt>
      <trkpt lat="43.57017" lon="4.71453">
        <ele>51.468</ele>
        <time>2019-05-01T09:12:23Z</time>
      </trkpt>
      <trkpt lat="43.57063" lon="4.71409">
        <ele>51.64</ele>
        <time>2019-05-01T09:12:34Z</time>
      </trkpt>
      <trkpt lat="43.57104" lon="4.71371">
        <ele>51.063</ele>
        <time>2019-05-01T09:12:44Z</time>
      </trkpt>
      <trkpt lat="43.57148" lon="4.7133">
        <ele>50.894</ele>
        <time>2019-05-01T09:12:55Z</time>
      </trkpt>
      <trkpt lat="43.5719" lon="4.71292">
        <ele>51.386</ele>
        <time>2019-05-01T09:13:05Z</time>
      </trkpt>
      <trkpt lat="43.5723" lon="4.71254">
        <ele>49.914</ele>
        <time>2019-05-01T09:13:15Z</time>
      </trkpt>
      <trkpt lat="43.57274" lon="4.71212">
        <ele>49.552</ele>
        <time>2019-05-01T09:13:26Z</time>
      </trkpt>
      <trkpt lat="43.57314" lon="4.71175">
        <ele>49.255</ele>
        <time>2019-05-01T09:13:36Z</time>
      </trkpt>
      <trkpt lat="43.57358" lon="4.71134">
        <ele>48.991</ele>
        <time>2019-05-01T09:13:47Z</time>
      </trkpt>
      <trkpt lat="43.57396" lon="4.711">
        <ele>48.897</ele>
        <time>2019-05-01T09:13:57Z</time>
      </trkpt>
      <trkpt lat="43.57437" lon="4.71061">
        <ele>49.502</ele>
        <time>2019-05-01T09:14:07Z</time>
      </trkpt>
      <trkpt lat="43.57485" lon="4.71017">
        <ele>49.145</ele>
        <time>2019-05-01T09:14:18Z</time>
      </trkpt>
      <trkpt lat="43.5753" lon="4.70975">
        <ele>48.108</ele>
        <time>2019-05-01T09:14:28Z</time>
      </trkpt>
      <trkpt lat="43.57574" lon="4.70934">
        <ele>48.165</ele>
        <time>2019-05-01T09:14:38Z</time>
      </trkpt>
      <trkpt lat="43.57622" lon="4.7089">
        <ele>48.332</ele>
        <time>2019-05-01T09:14:49Z</time>
      </trkpt>
      <trkpt lat="43.57663" lon="4.70851">
        <ele>46.898</ele>
        <time>2019-05-01T09:14:59Z</time>
      </trkpt>
      <trkpt lat="43.57707" lon="4.70811">
        <ele>47.263</ele>
        <time>2019-05-01T09:15:10Z</time>
      </trkpt>
      <trkpt lat="43.57749" lon="4.70772">
        <ele>49.048</ele>
        <time>2019-05-01T09:15:20Z</time>
      </trkpt>
      <trkpt lat="43.57792" lon="4.70731">
        <ele>49.454</ele>
        <time>2019-05-01T09:15:30Z</time>
      </trkpt>
      <trkpt lat="43.57838" lon="4.70687">
        <ele>49.517</ele>
        <time>2019-05-01T09:15:41Z</time>
      </trkpt>
      <trkpt lat="43.57884" lon="4.70645">
        <ele>49.545</ele>
        <time>2019-05-01T09:15:52Z</time>
      </trkpt>
      <trkpt lat="43.57926" lon="4.70608">
        <ele>49.816</ele>
        <time>2019-05-01T09:16:02Z</time>
      </trkpt>
      <trkpt lat="43.57972" lon="4.70565">
        <ele>49.452</ele>
        <time>2019-05-01T09:16:13Z</time>
      </trkpt>
      <trkpt lat="43.58017" lon="4.70523">
        <ele>49.403</ele>
        <time>2019-05-01T09:16:24Z</time>
      </trkpt>
      <trkpt lat="43.58059" lon="4.70485">
        <ele>50.607</ele>
        <time>2019-05-01T09:16:34Z</time>
      </trkpt>
      <trkpt lat="43.58101" lon="4.70443">
        <ele>52.115</ele>
        <time>2019-05-01T09:16:45Z</time>
      </trkpt>
      <trkpt lat="43.58138" lon="4.70398">
        <ele>51.899</ele>
        <time>2019-05-01T09:16:55Z</time>
      </trkpt>
      <trkpt lat="43.58175" lon="4.70353">
        <ele>50.859</ele>
        <time>2019-05-01T09:17:05Z</time>
      </trkpt>
      <trkpt lat="43.58212" lon="4.70294">
        <ele>49.733</ele>
        <time>2019-05-01T09:17:16Z</time>
      </trkpt>
      <trkpt lat="43.58244" lon="4.70235">
        <ele>49.121</ele>
        <time>2019-05-01T09:17:26Z</time>
      </trkpt>
      <trkpt lat="43.58275" lon="4.70162">
        <ele>48.527</ele>
        <time>2019-05-01T09:17:37Z</time>
      </trkpt>
      <trkpt lat="43.583" lon="4.70091">
        <ele>47.964</ele>
        <time>2019-05-01T09:17:47Z</time>
      </trkpt>
      <trkpt lat="43.58321" lon="4.70012">
        <ele>48.231</ele>
        <time>2019-05-01T09:17:58Z</time>
      </trkpt>
      <trkpt lat="43.58334" lon="4.69939">
        <ele>48.364</ele>
        <time>2019-05-01T09:18:08Z</time>
      </trkpt>
      <trkpt lat="43.58341" lon="4.69857">
        <ele>48.119</ele>
        <time>2019-05-01T09:18:19Z</time>
      </trkpt>
      <trkpt lat="43.58345" lon="4.69774">
        <ele>49.208</ele>
        <time>2019-05-01T09:18:30Z</time>
      </trkpt>
      <trkpt lat="43.58341" lon="4.69693">
        <ele>49.404</ele>
        <time>2019-05-01T09:18:41Z</time>
      </trkpt>
      <trkpt lat="43.58332" lon="4.69613">
        <ele>46.73</ele>
        <time>2019-05-01T09:18:52Z</time>
      </trkpt>
      <trkpt lat="43.58321" lon="4.69549">
        <ele>46.106</ele>
        <time>2019-05-01T09:19:02Z</time>
      </trkpt>
      <trkpt lat="43.5831" lon="4.69486">
        <ele>47.226</ele>
        <time>2019-05-01T09:19:12Z</time>
      </trkpt>
      <trkpt lat="43.58302" lon="4.69433">
        <ele>47.478</ele>
        <time>2019-05-01T09:19:22Z</time>
      </trkpt>
      <trkpt lat="43.58294" lon="4.69389">
        <ele>48.113</ele>
        <time>2019-05-01T09:19:33Z</time>
      </trkpt>
      <trkpt lat="43.58287" lon="4.69323">
        <ele>51.632</ele>
        <time>2019-05-01T09:19:43Z</time>
      </trkpt>
      <trkpt lat="43.58277" lon="4.69245">
        <ele>50.236</ele>
        <time>2019-05-01T09:19:54Z</time>
      </trkpt>
      <trkpt lat="43.58268" lon="4.69178">
        <ele>49.627</ele>
        <time>2019-05-01T09:20:04Z</time>
      </trkpt>
      <trkpt lat="43.58258" lon="4.69105">
        <ele>49.239</ele>
        <time>2019-05-01T09:20:15Z</time>
      </trkpt>
      <trkpt lat="43.58247" lon="4.69032">
        <ele>47.429</ele>
        <time>2019-05-01T09:20:26Z</time>
      </trkpt>
      <trkpt lat="43.58238" lon="4.68958">
        <ele>48.022</ele>
        <time>2019-05-01T09:20:37Z</time>
      </trkpt>
      <trkpt lat="43.5823" lon="4.68893">
        <ele>47.667</ele>
        <time>2019-05-01T09:20:47Z</time>
      </trkpt>
      <trkpt lat="43.58225" lon="4.6883">
        <ele>47.846</ele>
        <time>2019-05-01T09:20:57Z</time>
      </trkpt>
      <trkpt lat="43.58228" lon="4.68762">
        <ele>46.562</ele>
        <time>2019-05-01T09:21:07Z</time>
      </trkpt>
      <trkpt lat="43.58236" lon="4.68692">
        <ele>45.368</ele>
        <time>2019-05-01T09:21:18Z</time>
      </trkpt>
      <trkpt lat="43.5825" lon="4.68627">
        <ele>43.653</ele>
        <time>2019-05-01T09:21:28Z</time>
      </trkpt>
      <trkpt lat="43.58272" lon="4.68561">
        <ele>45.504</ele>
        <time>2019-05-01T09:21:39Z</time>
      </trkpt>
      <trkpt lat="43.58304" lon="4.68505">
        <ele>47.587</ele>
        <time>2019-05-01T09:21:49Z</time>
      </trkpt>
      <trkpt lat="43.5834" lon="4.68455">
        <ele>49.961</ele>
        <time>2019-05-01T09:21:59Z</time>
      </trkpt>
      <trkpt lat="43.5838" lon="4.68403">
        <ele>48.521</ele>
        <time>2019-05-01T09:22:10Z</time>
      </trkpt>
      <trkpt lat="43.58419" lon="4.68355">
        <ele>48.034</ele>
        <time>2019-05-01T09:22:21Z</time>
      </trkpt>
      <trkpt lat="43.58461" lon="4.68302">
        <ele>48.84</ele>
        <time>2019-05-01T09:22:32Z</time>
      </trkpt>
      <trkpt lat="43.58495" lon="4.68262">
        <ele>51.446</ele>
        <time>2019-05-01T09:22:42Z</time>
      </trkpt>
      <trkpt lat="43.5853" lon="4.68211">
        <ele>49.983</ele>
        <time>2019-05-01T09:22:52Z</time>
      </trkpt>
      <trkpt lat="43.58573" lon="4.68159">
        <ele>48.017</ele>
        <time>2019-05-01T09:23:03Z</time>
      </trkpt>
      <trkpt lat="43.58613" lon="4.68109">
        <ele>46.641</ele>
        <time>2019-05-01T09:23:13Z</time>
      </trkpt>
      <trkpt lat="43.58654" lon="4.68059">
        <ele>47.423</ele>
        <time>2019-05-01T09:23:24Z</time>
      </trkpt>
      <trkpt lat="43.58667" lon="4.68043">
        <ele>47.714</ele>
        <time>2019-05-01T09:23:34Z</time>
      </trkpt>
      <trkpt lat="43.5866" lon="4.6805">
        <ele>48.043</ele>
        <time>2019-05-01T09:23:45Z</time>
      </trkpt>
      <trkpt lat="43.58662" lon="4.68046">
        <ele>48.209</ele>
        <time>2019-05-01T09:23:56Z</time>
      </trkpt>
      <trkpt lat="43.58662" lon="4.68047">
        <ele>48.244</ele>
        <time>2019-05-01T09:24:07Z</time>
      </trkpt>
      <trkpt lat="43.58663" lon="4.68048">
        <ele>48.328</ele>
        <time>2019-05-01T09:24:18Z</time>
      </trkpt>
      <trkpt lat="43.58663" lon="4.68049">
        <ele>48.414</ele>
        <time>2019-05-01T09:24:28Z</time>
      </trkpt>
      <trkpt lat="43.58663" lon="4.68049">
        <ele>48.512</ele>
        <time>2019-05-01T09:24:38Z</time>
      </trkpt>
      <trkpt lat="43.58662" lon="4.68048">
        <ele>48.727</ele>
        <time>2019-05-01T09:24:48Z</time>
      </trkpt>
      <trkpt lat="43.58662" lon="4.68047">
        <ele>48.848</ele>
        <time>2019-05-01T09:24:59Z</time>
      </trkpt>
      <trkpt lat="43.58662" lon="4.68047">
        <ele>48.889</ele>
        <time>2019-05-01T09:25:10Z</time>
      </trkpt>
      <trkpt lat="43.58662" lon="4.68047">
        <ele>48.914</ele>
        <time>2019-05-01T09:25:20Z</time>
      </trkpt>
      <trkpt lat="43.58662" lon="4.68046">
        <ele>48.956</ele>
        <time>2019-05-01T09:25:30Z</time>
      </trkpt>
      <trkpt lat="43.58663" lon="4.68046">
        <ele>49.01</ele>
        <time>2019-05-01T09:25:41Z</time>
      </trkpt>
      <trkpt lat="43.58663" lon="4.68045">
        <ele>49.068</ele>
        <time>2019-05-01T09:25:52Z</time>
      </trkpt>
      <trkpt lat="43.58664" lon="4.68045">
        <ele>49.117</ele>
        <time>2019-05-01T09:26:03Z</time>
      </trkpt>
      <trkpt lat="43.58664" lon="4.68045">
        <ele>49.164</ele>
        <time>2019-05-01T09:26:14Z</time>
      </trkpt>
      <trkpt lat="43.58665" lon="4.68045">
        <ele>49.224</ele>
        <time>2019-05-01T09:26:25Z</time>
      </trkpt>
      <trkpt lat="43.58665" lon="4.68044">
        <ele>49.289</ele>
        <time>2019-05-01T09:26:35Z</time>
      </trkpt>
      <trkpt lat="43.58665" lon="4.68044">
        <ele>49.359</ele>
        <time>2019-05-01T09:26:46Z</time>
      </trkpt>
      <trkpt lat="43.58664" lon="4.68044">
        <ele>49.417</ele>
        <time>2019-05-01T09:26:57Z</time>
      </trkpt>
      <trkpt lat="43.58664" lon="4.68044">
        <ele>49.476</ele>
        <time>2019-05-01T09:27:07Z</time>
      </trkpt>
      <trkpt lat="43.58664" lon="4.68043">
        <ele>49.544</ele>
        <time>2019-05-01T09:27:18Z</time>
      </trkpt>
      <trkpt lat="43.58665" lon="4.68043">
        <ele>49.621</ele>
        <time>2019-05-01T09:27:29Z</time>
      </trkpt>
      <trkpt lat="43.58665" lon="4.68043">
        <ele>49.656</ele>
        <time>2019-05-01T09:27:39Z</time>
      </trkpt>
      <trkpt lat="43.58665" lon="4.68043">
        <ele>49.663</ele>
        <time>2019-05-01T09:27:50Z</time>
      </trkpt>
      <trkpt lat="43.58665" lon="4.68042">
        <ele>49.674</ele>
        <time>2019-05-01T09:28:01Z</time>
      </trkpt>
      <trkpt lat="43.58666" lon="4.68042">
        <ele>49.687</ele>
        <time>2019-05-01T09:28:12Z</time>
      </trkpt>
      <trkpt lat="43.58666" lon="4.68042">
        <ele>49.703</ele>
        <time>2019-05-01T09:28:23Z</time>
      </trkpt>
      <trkpt lat="43.58666" lon="4.68042">
        <ele>49.718</ele>
        <time>2019-05-01T09:28:34Z</time>
      </trkpt>
      <trkpt lat="43.58666" lon="4.68042">
        <ele>49.726</ele>
        <time>2019-05-01T09:28:45Z</time>
      </trkpt>
      <trkpt lat="43.58666" lon="4.68042">
        <ele>49.73</ele>
        <time>2019-05-01T09:28:56Z</time>
      </trkpt>
      <trkpt lat="43.58666" lon="4.68041">
        <ele>49.738</ele>
        <time>2019-05-01T09:29:07Z</time>
      </trkpt>
      <trkpt lat="43.58666" lon="4.68041">
        <ele>49.745</ele>
        <time>2019-05-01T09:29:18Z</time>
      </trkpt>
      <trkpt lat="43.58666" lon="4.68041">
        <ele>49.749</ele>
        <time>2019-05-01T09:29:29Z</time>
      </trkpt>
      <trkpt lat="43.58666" lon="4.68041">
        <ele>49.764</ele>
        <time>2019-05-01T09:29:40Z</time>
      </trkpt>
      <trkpt lat="43.58667" lon="4.6804">
        <ele>49.776</ele>
        <time>2019-05-01T09:29:50Z</time>
      </trkpt>
      <trkpt lat="43.58667" lon="4.68041">
        <ele>49.779</ele>
        <time>2019-05-01T09:30:01Z</time>
      </trkpt>
      <trkpt lat="43.58666" lon="4.68041">
        <ele>49.778</ele>
        <time>2019-05-01T09:30:12Z</time>
      </trkpt>
      <trkpt lat="43.58666" lon="4.68041">
        <ele>49.774</ele>
        <time>2019-05-01T09:30:23Z</time>
      </trkpt>
      <trkpt lat="43.58666" lon="4.68041">
        <ele>49.78</ele>
        <time>2019-05-01T09:30:33Z</time>
      </trkpt>
      <trkpt lat="43.58666" lon="4.68044">
        <ele>49.932</ele>
        <time>2019-05-01T09:30:44Z</time>
      </trkpt>
      <trkpt lat="43.58663" lon="4.68046">
        <ele>50.349</ele>
        <time>2019-05-01T09:30:54Z</time>
      </trkpt>
      <trkpt lat="43.58663" lon="4.68047">
        <ele>50.378</ele>
        <time>2019-05-01T09:31:05Z</time>
      </trkpt>
      <trkpt lat="43.58664" lon="4.68047">
        <ele>50.341</ele>
        <time>2019-05-01T09:31:15Z</time>
      </trkpt>
      <trkpt lat="43.58663" lon="4.68047">
        <ele>50.348</ele>
        <time>2019-05-01T09:31:25Z</time>
      </trkpt>
      <trkpt lat="43.58663" lon="4.68047">
        <ele>50.356</ele>
        <time>2019-05-01T09:31:36Z</time>
      </trkpt>
      <trkpt lat="43.58663" lon="4.68048">
        <ele>50.319</ele>
        <time>2019-05-01T09:31:47Z</time>
      </trkpt>
      <trkpt lat="43.58662" lon="4.68048">
        <ele>50.094</ele>
        <time>2019-05-01T09:31:57Z</time>
      </trkpt>
      <trkpt lat="43.58665" lon="4.68047">
        <ele>50.236</ele>
        <time>2019-05-01T09:32:08Z</time>
      </trkpt>
      <trkpt lat="43.58665" lon="4.68043">
        <ele>50.104</ele>
        <time>2019-05-01T09:32:18Z</time>
      </trkpt>
      <trkpt lat="43.58665" lon="4.68043">
        <ele>50.125</ele>
        <time>2019-05-01T09:32:28Z</time>
      </trkpt>
      <trkpt lat="43.58672" lon="4.68036">
        <ele>49.569</ele>
        <time>2019-05-01T09:32:39Z</time>
      </trkpt>
      <trkpt lat="43.5867" lon="4.68036">
        <ele>49.578</ele>
        <time>2019-05-01T09:32:49Z</time>
      </trkpt>
      <trkpt lat="43.58671" lon="4.68036">
        <ele>49.684</ele>
        <time>2019-05-01T09:33:00Z</time>
      </trkpt>
      <trkpt lat="43.58686" lon="4.68014">
        <ele>50.6</ele>
        <time>2019-05-01T09:33:11Z</time>
      </trkpt>
      <trkpt lat="43.58718" lon="4.67977">
        <ele>49.566</ele>
        <time>2019-05-01T09:33:21Z</time>
      </trkpt>
      <trkpt lat="43.58752" lon="4.67932">
        <ele>49.347</ele>
        <time>2019-05-01T09:33:32Z</time>
      </trkpt>
      <trkpt lat="43.58791" lon="4.67884">
        <ele>49.741</ele>
        <time>2019-05-01T09:33:43Z</time>
      </trkpt>
      <trkpt lat="43.58826" lon="4.6784">
        <ele>49.506</ele>
        <time>2019-05-01T09:33:53Z</time>
      </trkpt>
      <trkpt lat="43.58863" lon="4.67792">
        <ele>49.226</ele>
        <time>2019-05-01T09:34:04Z</time>
      </trkpt>
      <trkpt lat="43.58895" lon="4.67747">
        <ele>48.009</ele>
        <time>2019-05-01T09:34:14Z</time>
      </trkpt>
      <trkpt lat="43.58929" lon="4.67709">
        <ele>49.232</ele>
        <time>2019-05-01T09:34:24Z</time>
      </trkpt>
      <trkpt lat="43.5896" lon="4.67665">
        <ele>48.971</ele>
        <time>2019-05-01T09:34:34Z</time>
      </trkpt>
      <trkpt lat="43.59001" lon="4.67616">
        <ele>48.921</ele>
        <time>2019-05-01T09:34:45Z</time>
      </trkpt>
      <trkpt lat="43.59034" lon="4.67571">
        <ele>49.13</ele>
        <time>2019-05-01T09:34:55Z</time>
      </trkpt>
      <trkpt lat="43.59064" lon="4.6752">
        <ele>49.239</ele>
        <time>2019-05-01T09:35:06Z</time>
      </trkpt>
      <trkpt lat="43.5909" lon="4.67464">
        <ele>49.108</ele>
        <time>2019-05-01T09:35:16Z</time>
      </trkpt>
      <trkpt lat="43.59112" lon="4.6741">
        <ele>46.535</ele>
        <time>2019-05-01T09:35:26Z</time>
      </trkpt>
      <trkpt lat="43.59138" lon="4.67344">
        <ele>46.997</ele>
        <time>2019-05-01T09:35:37Z</time>
      </trkpt>
      <trkpt lat="43.59162" lon="4.67285">
        <ele>46.797</ele>
        <time>2019-05-01T09:35:47Z</time>
      </trkpt>
      <trkpt lat="43.59185" lon="4.67223">
        <ele>47.499</ele>
        <time>2019-05-01T09:35:57Z</time>
      </trkpt>
      <trkpt lat="43.59209" lon="4.67162">
        <ele>47.019</ele>
        <time>2019-05-01T09:36:07Z</time>
      </trkpt>
      <trkpt lat="43.59232" lon="4.67103">
        <ele>45.733</ele>
        <time>2019-05-01T09:36:18Z</time>
      </trkpt>
      <trkpt lat="43.59253" lon="4.67054">
        <ele>47.953</ele>
        <time>2019-05-01T09:36:28Z</time>
      </trkpt>
      <trkpt lat="43.5928" lon="4.66987">
        <ele>47.517</ele>
        <time>2019-05-01T09:36:39Z</time>
      </trkpt>
      <trkpt lat="43.59306" lon="4.66922">
        <ele>46.973</ele>
        <time>2019-05-01T09:36:50Z</time>
      </trkpt>
      <trkpt lat="43.59333" lon="4.66852">
        <ele>48.773</ele>
        <time>2019-05-01T09:37:01Z</time>
      </trkpt>
      <trkpt lat="43.59357" lon="4.66793">
        <ele>50.686</ele>
        <time>2019-05-01T09:37:11Z</time>
      </trkpt>
      <trkpt lat="43.5938" lon="4.66736">
        <ele>47.156</ele>
        <time>2019-05-01T09:37:21Z</time>
      </trkpt>
      <trkpt lat="43.59408" lon="4.66677">
        <ele>47.03</ele>
        <time>2019-05-01T09:37:32Z</time>
      </trkpt>
      <trkpt lat="43.59438" lon="4.66627">
        <ele>47.75</ele>
        <time>2019-05-01T09:37:42Z</time>
      </trkpt>
      <trkpt lat="43.59471" lon="4.66577">
        <ele>48.277</ele>
        <time>2019-05-01T09:37:53Z</time>
      </trkpt>
      <trkpt lat="43.59505" lon="4.66531">
        <ele>49.453</ele>
        <time>2019-05-01T09:38:04Z</time>
      </trkpt>
      <trkpt lat="43.59539" lon="4.66489">
        <ele>50.106</ele>
        <time>2019-05-01T09:38:14Z</time>
      </trkpt>
      <trkpt lat="43.59579" lon="4.66444">
        <ele>50.919</ele>
        <time>2019-05-01T09:38:25Z</time>
      </trkpt>
      <trkpt lat="43.59623" lon="4.66404">
        <ele>52.892</ele>
        <time>2019-05-01T09:38:36Z</time>
      </trkpt>
      <trkpt lat="43.59663" lon="4.66375">
        <ele>52.773</ele>
        <time>2019-05-01T09:38:46Z</time>
      </trkpt>
      <trkpt lat="43.59708" lon="4.66345">
        <ele>51.921</ele>
        <time>2019-05-01T09:38:57Z</time>
      </trkpt>
      <trkpt lat="43.59751" lon="4.6632">
        <ele>52.234</ele>
        <time>2019-05-01T09:39:07Z</time>
      </trkpt>
      <trkpt lat="43.59794" lon="4.66295">
        <ele>52.644</ele>
        <time>2019-05-01T09:39:17Z</time>
      </trkpt>
      <trkpt lat="43.59837" lon="4.6627">
        <ele>51.978</ele>
        <time>2019-05-01T09:39:27Z</time>
      </trkpt>
      <trkpt lat="43.59884" lon="4.66246">
        <ele>52.766</ele>
        <time>2019-05-01T09:39:38Z</time>
      </trkpt>
      <trkpt lat="43.59933" lon="4.66215">
        <ele>52.17</ele>
        <time>2019-05-01T09:39:49Z</time>
      </trkpt>
      <trkpt lat="43.59977" lon="4.66192">
        <ele>54.191</ele>
        <time>2019-05-01T09:39:59Z</time>
      </trkpt>
      <trkpt lat="43.60022" lon="4.66171">
        <ele>51.426</ele>
        <time>2019-05-01T09:40:09Z</time>
      </trkpt>
      <trkpt lat="43.60068" lon="4.66154">
        <ele>51.44</ele>
        <time>2019-05-01T09:40:19Z</time>
      </trkpt>
      <trkpt lat="43.60116" lon="4.6614">
        <ele>53.745</ele>
        <time>2019-05-01T09:40:30Z</time>
      </trkpt>
      <trkpt lat="43.60164" lon="4.66132">
        <ele>54.628</ele>
        <time>2019-05-01T09:40:41Z</time>
      </trkpt>
      <trkpt lat="43.60211" lon="4.66125">
        <ele>53.688</ele>
        <time>2019-05-01T09:40:51Z</time>
      </trkpt>
      <trkpt lat="43.60261" lon="4.66121">
        <ele>52.318</ele>
        <time>2019-05-01T09:41:01Z</time>
      </trkpt>
      <trkpt lat="43.60315" lon="4.66124">
        <ele>51.57</ele>
        <time>2019-05-01T09:41:12Z</time>
      </trkpt>
      <trkpt lat="43.6037" lon="4.66129">
        <ele>49.351</ele>
        <time>2019-05-01T09:41:23Z</time>
      </trkpt>
      <trkpt lat="43.60422" lon="4.66141">
        <ele>49.452</ele>
        <time>2019-05-01T09:41:34Z</time>
      </trkpt>
      <trkpt lat="43.60477" lon="4.66153">
        <ele>50.01</ele>
        <time>2019-05-01T09:41:45Z</time>
      </trkpt>
      <trkpt lat="43.60529" lon="4.66165">
        <ele>51.083</ele>
        <time>2019-05-01T09:41:55Z</time>
      </trkpt>
      <trkpt lat="43.60579" lon="4.66178">
        <ele>51.694</ele>
        <time>2019-05-01T09:42:05Z</time>
      </trkpt>
      <trkpt lat="43.60629" lon="4.6619">
        <ele>50.532</ele>
        <time>2019-05-01T09:42:15Z</time>
      </trkpt>
      <trkpt lat="43.60681" lon="4.662">
        <ele>48.888</ele>
        <time>2019-05-01T09:42:26Z</time>
      </trkpt>
      <trkpt lat="43.60735" lon="4.66207">
        <ele>50.031</ele>
        <time>2019-05-01T09:42:37Z</time>
      </trkpt>
      <trkpt lat="43.60785" lon="4.66213">
        <ele>48.978</ele>
        <time>2019-05-01T09:42:47Z</time>
      </trkpt>
      <trkpt lat="43.60836" lon="4.66219">
        <ele>48.119</ele>
        <time>2019-05-01T09:42:58Z</time>
      </trkpt>
      <trkpt lat="43.60881" lon="4.66224">
        <ele>49.318</ele>
        <time>2019-05-01T09:43:08Z</time>
      </trkpt>
      <trkpt lat="43.60932" lon="4.66235">
        <ele>50.528</ele>
        <time>2019-05-01T09:43:19Z</time>
      </trkpt>
      <trkpt lat="43.60979" lon="4.66242">
        <ele>50.982</ele>
        <time>2019-05-01T09:43:29Z</time>
      </trkpt>
      <trkpt lat="43.61032" lon="4.66246">
        <ele>49.168</ele>
        <time>2019-05-01T09:43:40Z</time>
      </trkpt>
      <trkpt lat="43.61085" lon="4.66255">
        <ele>49.252</ele>
        <time>2019-05-01T09:43:51Z</time>
      </trkpt>
      <trkpt lat="43.61133" lon="4.66266">
        <ele>50.701</ele>
        <time>2019-05-01T09:44:02Z</time>
      </trkpt>
      <trkpt lat="43.61181" lon="4.66273">
        <ele>49.228</ele>
        <time>2019-05-01T09:44:12Z</time>
      </trkpt>
      <trkpt lat="43.61236" lon="4.6628">
        <ele>50.836</ele>
        <time>2019-05-01T09:44:23Z</time>
      </trkpt>
      <trkpt lat="43.61289" lon="4.66288">
        <ele>50.708</ele>
        <time>2019-05-01T09:44:34Z</time>
      </trkpt>
      <trkpt lat="43.61337" lon="4.66296">
        <ele>49.963</ele>
        <time>2019-05-01T09:44:44Z</time>
      </trkpt>
      <trkpt lat="43.61391" lon="4.66303">
        <ele>50.276</ele>
        <time>2019-05-01T09:44:55Z</time>
      </trkpt>
      <trkpt lat="43.61439" lon="4.66311">
        <ele>50.555</ele>
        <time>2019-05-01T09:45:05Z</time>
      </trkpt>
      <trkpt lat="43.61492" lon="4.6632">
        <ele>49.9</ele>
        <time>2019-05-01T09:45:16Z</time>
      </trkpt>
      <trkpt lat="43.61545" lon="4.66328">
        <ele>49.702</ele>
        <time>2019-05-01T09:45:27Z</time>
      </trkpt>
      <trkpt lat="43.61597" lon="4.66335">
        <ele>49.08</ele>
        <time>2019-05-01T09:45:38Z</time>
      </trkpt>
      <trkpt lat="43.61645" lon="4.66343">
        <ele>48.408</ele>
        <time>2019-05-01T09:45:48Z</time>
      </trkpt>
      <trkpt lat="43.61694" lon="4.66345">
        <ele>48.771</ele>
        <time>2019-05-01T09:45:59Z</time>
      </trkpt>
      <trkpt lat="43.61725" lon="4.66355">
        <ele>49.122</ele>
        <time>2019-05-01T09:46:09Z</time>
      </trkpt>
      <trkpt lat="43.61773" lon="4.66364">
        <ele>49.261</ele>
        <time>2019-05-01T09:46:20Z</time>
      </trkpt>
      <trkpt lat="43.61824" lon="4.66372">
        <ele>49.534</ele>
        <time>2019-05-01T09:46:31Z</time>
      </trkpt>
      <trkpt lat="43.61877" lon="4.66379">
        <ele>49.237</ele>
        <time>2019-05-01T09:46:42Z</time>
      </trkpt>
      <trkpt lat="43.61929" lon="4.66389">
        <ele>48.858</ele>
        <time>2019-05-01T09:46:53Z</time>
      </trkpt>
      <trkpt lat="43.61976" lon="4.66397">
        <ele>48.091</ele>
        <time>2019-05-01T09:47:03Z</time>
      </trkpt>
      <trkpt lat="43.62024" lon="4.66403">
        <ele>47.767</ele>
        <time>2019-05-01T09:47:13Z</time>
      </trkpt>
      <trkpt lat="43.62076" lon="4.66411">
        <ele>47.881</ele>
        <time>2019-05-01T09:47:24Z</time>
      </trkpt>
      <trkpt lat="43.62129" lon="4.66418">
        <ele>48.497</ele>
        <time>2019-05-01T09:47:35Z</time>
      </trkpt>
      <trkpt lat="43.62177" lon="4.66426">
        <ele>48.123</ele>
        <time>2019-05-01T09:47:45Z</time>
      </trkpt>
      <trkpt lat="43.62225" lon="4.66434">
        <ele>48.31</ele>
        <time>2019-05-01T09:47:55Z</time>
      </trkpt>
      <trkpt lat="43.62277" lon="4.66442">
        <ele>48.885</ele>
        <time>2019-05-01T09:48:06Z</time>
      </trkpt>
      <trkpt lat="43.62324" lon="4.66447">
        <ele>49.625</ele>
        <time>2019-05-01T09:48:16Z</time>
      </trkpt>
      <trkpt lat="43.6237" lon="4.66454">
        <ele>50.698</ele>
        <time>2019-05-01T09:48:26Z</time>
      </trkpt>
      <trkpt lat="43.62422" lon="4.66462">
        <ele>50.515</ele>
        <time>2019-05-01T09:48:37Z</time>
      </trkpt>
      <trkpt lat="43.62468" lon="4.66469">
        <ele>49.986</ele>
        <time>2019-05-01T09:48:47Z</time>
      </trkpt>
      <trkpt lat="43.62515" lon="4.66476">
        <ele>50.12</ele>
        <time>2019-05-01T09:48:57Z</time>
      </trkpt>
      <trkpt lat="43.62559" lon="4.66485">
        <ele>50.495</ele>
        <time>2019-05-01T09:49:07Z</time>
      </trkpt>
      <trkpt lat="43.6261" lon="4.66492">
        <ele>50.831</ele>
        <time>2019-05-01T09:49:18Z</time>
      </trkpt>
      <trkpt lat="43.62657" lon="4.66499">
        <ele>50.149</ele>
        <time>2019-05-01T09:49:28Z</time>
      </trkpt>
      <trkpt lat="43.62708" lon="4.66508">
        <ele>49.6</ele>
        <time>2019-05-01T09:49:39Z</time>
      </trkpt>
      <trkpt lat="43.62759" lon="4.66515">
        <ele>49.687</ele>
        <time>2019-05-01T09:49:50Z</time>
      </trkpt>
      <trkpt lat="43.62807" lon="4.66523">
        <ele>50.106</ele>
        <time>2019-05-01T09:50:00Z</time>
      </trkpt>
      <trkpt lat="43.62853" lon="4.66531">
        <ele>50.29</ele>
        <time>2019-05-01T09:50:10Z</time>
      </trkpt>
      <trkpt lat="43.629" lon="4.66537">
        <ele>50.252</ele>
        <time>2019-05-01T09:50:20Z</time>
      </trkpt>
      <trkpt lat="43.62952" lon="4.66539">
        <ele>50.261</ele>
        <time>2019-05-01T09:50:31Z</time>
      </trkpt>
      <trkpt lat="43.62999" lon="4.66535">
        <ele>51.328</ele>
        <time>2019-05-01T09:50:41Z</time>
      </trkpt>
      <trkpt lat="43.63048" lon="4.66525">
        <ele>53.505</ele>
        <time>2019-05-01T09:50:52Z</time>
      </trkpt>
      <trkpt lat="43.63094" lon="4.66509">
        <ele>54.463</ele>
        <time>2019-05-01T09:51:02Z</time>
      </trkpt>
      <trkpt lat="43.63141" lon="4.66487">
        <ele>52.928</ele>
        <time>2019-05-01T09:51:13Z</time>
      </trkpt>
      <trkpt lat="43.63184" lon="4.66459">
        <ele>50.815</ele>
        <time>2019-05-01T09:51:24Z</time>
      </trkpt>
      <trkpt lat="43.63197" lon="4.6645">
        <ele>50.697</ele>
        <time>2019-05-01T09:51:35Z</time>
      </trkpt>
      <trkpt lat="43.63199" lon="4.66449">
        <ele>50.738</ele>
        <time>2019-05-01T09:51:46Z</time>
      </trkpt>
      <trkpt lat="43.63199" lon="4.66449">
        <ele>50.788</ele>
        <time>2019-05-01T09:51:56Z</time>
      </trkpt>
      <trkpt lat="43.63197" lon="4.66448">
        <ele>50.803</ele>
        <time>2019-05-01T09:52:06Z</time>
      </trkpt>
      <trkpt lat="43.63197" lon="4.66448">
        <ele>50.778</ele>
        <time>2019-05-01T09:52:17Z</time>
      </trkpt>
      <trkpt lat="43.63201" lon="4.66446">
        <ele>50.751</ele>
        <time>2019-05-01T09:52:27Z</time>
      </trkpt>
      <trkpt lat="43.63201" lon="4.66446">
        <ele>50.712</ele>
        <time>2019-05-01T09:52:38Z</time>
      </trkpt>
      <trkpt lat="43.63199" lon="4.66447">
        <ele>50.672</ele>
        <time>2019-05-01T09:52:49Z</time>
      </trkpt>
      <trkpt lat="43.63199" lon="4.6645">
        <ele>50.443</ele>
        <time>2019-05-01T09:53:00Z</time>
      </trkpt>
      <trkpt lat="43.63199" lon="4.6645">
        <ele>50.452</ele>
        <time>2019-05-01T09:53:11Z</time>
      </trkpt>
      <trkpt lat="43.63216" lon="4.66441">
        <ele>50.922</ele>
        <time>2019-05-01T09:53:21Z</time>
      </trkpt>
      <trkpt lat="43.63252" lon="4.66406">
        <ele>52.417</ele>
        <time>2019-05-01T09:53:31Z</time>
      </trkpt>
      <trkpt lat="43.63288" lon="4.66365">
        <ele>50.311</ele>
        <time>2019-05-01T09:53:41Z</time>
      </trkpt>
      <trkpt lat="43.63321" lon="4.66323">
        <ele>48.347</ele>
        <time>2019-05-01T09:53:51Z</time>
      </trkpt>
      <trkpt lat="43.63353" lon="4.66274">
        <ele>48.1</ele>
        <time>2019-05-01T09:54:02Z</time>
      </trkpt>
      <trkpt lat="43.63384" lon="4.66223">
        <ele>47.555</ele>
        <time>2019-05-01T09:54:13Z</time>
      </trkpt>
      <trkpt lat="43.63415" lon="4.66171">
        <ele>47.812</ele>
        <time>2019-05-01T09:54:24Z</time>
      </trkpt>
      <trkpt lat="43.63428" lon="4.66147">
        <ele>48.056</ele>
        <time>2019-05-01T09:54:34Z</time>
      </trkpt>
      <trkpt lat="43.63427" lon="4.66147">
        <ele>48.343</ele>
        <time>2019-05-01T09:54:45Z</time>
      </trkpt>
      <trkpt lat="43.63427" lon="4.66148">
        <ele>48.993</ele>
        <time>2019-05-01T09:54:56Z</time>
      </trkpt>
      <trkpt lat="43.63427" lon="4.66145">
        <ele>51.029</ele>
        <time>2019-05-01T09:55:06Z</time>
      </trkpt>
      <trkpt lat="43.63429" lon="4.66145">
        <ele>51.697</ele>
        <time>2019-05-01T09:55:17Z</time>
      </trkpt>
      <trkpt lat="43.6345" lon="4.66106">
        <ele>51.107</ele>
        <time>2019-05-01T09:55:27Z</time>
      </trkpt>
      <trkpt lat="43.6348" lon="4.66054">
        <ele>50.483</ele>
        <time>2019-05-01T09:55:38Z</time>
      </trkpt>
      <trkpt lat="43.63508" lon="4.66007">
        <ele>52.115</ele>
        <time>2019-05-01T09:55:49Z</time>
      </trkpt>
      <trkpt lat="43.63537" lon="4.6596">
        <ele>51.056</ele>
        <time>2019-05-01T09:56:00Z</time>
      </trkpt>
      <trkpt lat="43.6357" lon="4.65905">
        <ele>52.326</ele>
        <time>2019-05-01T09:56:11Z</time>
      </trkpt>
      <trkpt lat="43.63602" lon="4.65853">
        <ele>53.026</ele>
        <time>2019-05-01T09:56:21Z</time>
      </trkpt>
      <trkpt lat="43.63633" lon="4.65799">
        <ele>52.333</ele>
        <time>2019-05-01T09:56:31Z</time>
      </trkpt>
      <trkpt lat="43.63665" lon="4.65745">
        <ele>51.703</ele>
        <time>2019-05-01T09:56:42Z</time>
      </trkpt>
      <trkpt lat="43.63693" lon="4.65696">
        <ele>52.183</ele>
        <time>2019-05-01T09:56:52Z</time>
      </trkpt>
      <trkpt lat="43.63723" lon="4.65647">
        <ele>51.713</ele>
        <time>2019-05-01T09:57:02Z</time>
      </trkpt>
      <trkpt lat="43.63753" lon="4.65596">
        <ele>50.531</ele>
        <time>2019-05-01T09:57:12Z</time>
      </trkpt>
      <trkpt lat="43.63785" lon="4.65542">
        <ele>50.504</ele>
        <time>2019-05-01T09:57:23Z</time>
      </trkpt>
      <trkpt lat="43.63815" lon="4.65489">
        <ele>50.225</ele>
        <time>2019-05-01T09:57:34Z</time>
      </trkpt>
      <trkpt lat="43.63843" lon="4.65441">
        <ele>49.264</ele>
        <time>2019-05-01T09:57:44Z</time>
      </trkpt>
      <trkpt lat="43.63876" lon="4.65385">
        <ele>49.159</ele>
        <time>2019-05-01T09:57:55Z</time>
      </trkpt>
      <trkpt lat="43.63908" lon="4.65333">
        <ele>48.252</ele>
        <time>2019-05-01T09:58:05Z</time>
      </trkpt>
      <trkpt lat="43.63938" lon="4.65278">
        <ele>47.798</ele>
        <time>2019-05-01T09:58:15Z</time>
      </trkpt>
      <trkpt lat="43.63966" lon="4.65222">
        <ele>49.331</ele>
        <time>2019-05-01T09:58:25Z</time>
      </trkpt>
      <trkpt lat="43.63994" lon="4.65161">
        <ele>49.953</ele>
        <time>2019-05-01T09:58:36Z</time>
      </trkpt>
      <trkpt lat="43.6402" lon="4.65099">
        <ele>48.014</ele>
        <time>2019-05-01T09:58:47Z</time>
      </trkpt>
      <trkpt lat="43.64045" lon="4.65033">
        <ele>48.012</ele>
        <time>2019-05-01T09:58:58Z</time>
      </trkpt>
      <trkpt lat="43.64068" lon="4.64964">
        <ele>48.367</ele>
        <time>2019-05-01T09:59:09Z</time>
      </trkpt>
      <trkpt lat="43.64087" lon="4.64901">
        <ele>48.313</ele>
        <time>2019-05-01T09:59:19Z</time>
      </trkpt>
      <trkpt lat="43.64107" lon="4.6483">
        <ele>47.858</ele>
        <time>2019-05-01T09:59:30Z</time>
      </trkpt>
      <trkpt lat="43.64122" lon="4.64756">
        <ele>50.181</ele>
        <time>2019-05-01T09:59:41Z</time>
      </trkpt>
      <trkpt lat="43.64136" lon="4.64682">
        <ele>50.193</ele>
        <time>2019-05-01T09:59:52Z</time>
      </trkpt>
      <trkpt lat="43.64146" lon="4.64616">
        <ele>51.22</ele>
        <time>2019-05-01T10:00:02Z</time>
      </trkpt>
      <trkpt lat="43.64154" lon="4.64548">
        <ele>52.222</ele>
        <time>2019-05-01T10:00:12Z</time>
      </trkpt>
      <trkpt lat="43.6416" lon="4.64475">
        <ele>52.996</ele>
        <time>2019-05-01T10:00:23Z</time>
      </trkpt>
      <trkpt lat="43.64166" lon="4.64397">
        <ele>53.147</ele>
        <time>2019-05-01T10:00:34Z</time>
      </trkpt>
      <trkpt lat="43.64174" lon="4.64315">
        <ele>53.816</ele>
        <time>2019-05-01T10:00:45Z</time>
      </trkpt>
      <trkpt lat="43.64179" lon="4.64245">
        <ele>53.152</ele>
        <time>2019-05-01T10:00:55Z</time>
      </trkpt>
      <trkpt lat="43.64182" lon="4.64176">
        <ele>50.682</ele>
        <time>2019-05-01T10:01:05Z</time>
      </trkpt>
      <trkpt lat="43.64193" lon="4.64099">
        <ele>53.296</ele>
        <time>2019-05-01T10:01:16Z</time>
      </trkpt>
      <trkpt lat="43.64199" lon="4.64031">
        <ele>54.834</ele>
        <time>2019-05-01T10:01:26Z</time>
      </trkpt>
      <trkpt lat="43.64204" lon="4.63955">
        <ele>54.228</ele>
        <time>2019-05-01T10:01:37Z</time>
      </trkpt>
      <trkpt lat="43.64211" lon="4.63879">
        <ele>54.507</ele>
        <time>2019-05-01T10:01:48Z</time>
      </trkpt>
      <trkpt lat="43.64216" lon="4.638">
        <ele>53.943</ele>
        <time>2019-05-01T10:01:59Z</time>
      </trkpt>
      <trkpt lat="43.64224" lon="4.63722">
        <ele>55.09</ele>
        <time>2019-05-01T10:02:10Z</time>
      </trkpt>
      <trkpt lat="43.6423" lon="4.63642">
        <ele>55.8</ele>
        <time>2019-05-01T10:02:21Z</time>
      </trkpt>
      <trkpt lat="43.64236" lon="4.63564">
        <ele>55.494</ele>
        <time>2019-05-01T10:02:32Z</time>
      </trkpt>
      <trkpt lat="43.64243" lon="4.63493">
        <ele>55.443</ele>
        <time>2019-05-01T10:02:42Z</time>
      </trkpt>
      <trkpt lat="43.64248" lon="4.63422">
        <ele>55.681</ele>
        <time>2019-05-01T10:02:52Z</time>
      </trkpt>
      <trkpt lat="43.64254" lon="4.63347">
        <ele>55.551</ele>
        <time>2019-05-01T10:03:03Z</time>
      </trkpt>
      <trkpt lat="43.64259" lon="4.63277">
        <ele>54.988</ele>
        <time>2019-05-01T10:03:13Z</time>
      </trkpt>
      <trkpt lat="43.64265" lon="4.63205">
        <ele>55.258</ele>
        <time>2019-05-01T10:03:24Z</time>
      </trkpt>
      <trkpt lat="43.64271" lon="4.6313">
        <ele>55.244</ele>
        <time>2019-05-01T10:03:35Z</time>
      </trkpt>
      <trkpt lat="43.64276" lon="4.63062">
        <ele>54.656</ele>
        <time>2019-05-01T10:03:45Z</time>
      </trkpt>
      <trkpt lat="43.64282" lon="4.62989">
        <ele>55.315</ele>
        <time>2019-05-01T10:03:56Z</time>
      </trkpt>
      <trkpt lat="43.64282" lon="4.62949">
        <ele>55.215</ele>
        <time>2019-05-01T10:04:06Z</time>
      </trkpt>
      <trkpt lat="43.64294" lon="4.62892">
        <ele>53.949</ele>
        <time>2019-05-01T10:04:17Z</time>
      </trkpt>
      <trkpt lat="43.64311" lon="4.62827">
        <ele>54.516</ele>
        <time>2019-05-01T10:04:28Z</time>
      </trkpt>
      <trkpt lat="43.64337" lon="4.62761">
        <ele>53.362</ele>
        <time>2019-05-01T10:04:39Z</time>
      </trkpt>
      <trkpt lat="43.64371" lon="4.62699">
        <ele>53.186</ele>
        <time>2019-05-01T10:04:50Z</time>
      </trkpt>
      <trkpt lat="43.64412" lon="4.62651">
        <ele>53.947</ele>
        <time>2019-05-01T10:05:00Z</time>
      </trkpt>
      <trkpt lat="43.6446" lon="4.62613">
        <ele>54.754</ele>
        <time>2019-05-01T10:05:11Z</time>
      </trkpt>
      <trkpt lat="43.6451" lon="4.62585">
        <ele>54.86</ele>
        <time>2019-05-01T10:05:22Z</time>
      </trkpt>
      <trkpt lat="43.64563" lon="4.62559">
        <ele>54.037</ele>
        <time>2019-05-01T10:05:33Z</time>
      </trkpt>
      <trkpt lat="43.64617" lon="4.62533">
        <ele>53.246</ele>
        <time>2019-05-01T10:05:44Z</time>
      </trkpt>
      <trkpt lat="43.6467" lon="4.62506">
        <ele>52.082</ele>
        <time>2019-05-01T10:05:55Z</time>
      </trkpt>
      <trkpt lat="43.64719" lon="4.6248">
        <ele>52.053</ele>
        <time>2019-05-01T10:06:05Z</time>
      </trkpt>
      <trkpt lat="43.6477" lon="4.62454">
        <ele>50.901</ele>
        <time>2019-05-01T10:06:15Z</time>
      </trkpt>
      <trkpt lat="43.64825" lon="4.62427">
        <ele>50.447</ele>
        <time>2019-05-01T10:06:26Z</time>
      </trkpt>
      <trkpt lat="43.64875" lon="4.62403">
        <ele>51.856</ele>
        <time>2019-05-01T10:06:36Z</time>
      </trkpt>
      <trkpt lat="43.64929" lon="4.62375">
        <ele>51.814</ele>
        <time>2019-05-01T10:06:47Z</time>
      </trkpt>
      <trkpt lat="43.64978" lon="4.6235">
        <ele>51.33</ele>
        <time>2019-05-01T10:06:57Z</time>
      </trkpt>
      <trkpt lat="43.65035" lon="4.62321">
        <ele>49.345</ele>
        <time>2019-05-01T10:07:08Z</time>
      </trkpt>
      <trkpt lat="43.65085" lon="4.62297">
        <ele>49.674</ele>
        <time>2019-05-01T10:07:18Z</time>
      </trkpt>
      <trkpt lat="43.65138" lon="4.62271">
        <ele>50.731</ele>
        <time>2019-05-01T10:07:29Z</time>
      </trkpt>
      <trkpt lat="43.65185" lon="4.62249">
        <ele>50.274</ele>
        <time>2019-05-01T10:07:39Z</time>
      </trkpt>
      <trkpt lat="43.65235" lon="4.62227">
        <ele>50.433</ele>
        <time>2019-05-01T10:07:50Z</time>
      </trkpt>
      <trkpt lat="43.65282" lon="4.62204">
        <ele>50.824</ele>
        <time>2019-05-01T10:08:01Z</time>
      </trkpt>
      <trkpt lat="43.65332" lon="4.62183">
        <ele>51.825</ele>
        <time>2019-05-01T10:08:12Z</time>
      </trkpt>
      <trkpt lat="43.65377" lon="4.62161">
        <ele>51.962</ele>
        <time>2019-05-01T10:08:22Z</time>
      </trkpt>
      <trkpt lat="43.65424" lon="4.62138">
        <ele>51.081</ele>
        <time>2019-05-01T10:08:32Z</time>
      </trkpt>
      <trkpt lat="43.65473" lon="4.62114">
        <ele>50.56</ele>
        <time>2019-05-01T10:08:43Z</time>
      </trkpt>
      <trkpt lat="43.65522" lon="4.6209">
        <ele>50.462</ele>
        <time>2019-05-01T10:08:54Z</time>
      </trkpt>
      <trkpt lat="43.65569" lon="4.62082">
        <ele>50.256</ele>
        <time>2019-05-01T10:09:05Z</time>
      </trkpt>
      <trkpt lat="43.65572" lon="4.62081">
        <ele>50.278</ele>
        <time>2019-05-01T10:09:15Z</time>
      </trkpt>
      <trkpt lat="43.65573" lon="4.62079">
        <ele>50.317</ele>
        <time>2019-05-01T10:09:26Z</time>
      </trkpt>
      <trkpt lat="43.65573" lon="4.6208">
        <ele>50.296</ele>
        <time>2019-05-01T10:09:36Z</time>
      </trkpt>
      <trkpt lat="43.65583" lon="4.62078">
        <ele>50.788</ele>
        <time>2019-05-01T10:09:46Z</time>
      </trkpt>
      <trkpt lat="43.65628" lon="4.62068">
        <ele>53.252</ele>
        <time>2019-05-01T10:09:57Z</time>
      </trkpt>
      <trkpt lat="43.65676" lon="4.62087">
        <ele>53.583</ele>
        <time>2019-05-01T10:10:08Z</time>
      </trkpt>
      <trkpt lat="43.6568" lon="4.62088">
        <ele>53.554</ele>
        <time>2019-05-01T10:10:19Z</time>
      </trkpt>
      <trkpt lat="43.6568" lon="4.62088">
        <ele>53.552</ele>
        <time>2019-05-01T10:10:30Z</time>
      </trkpt>
      <trkpt lat="43.6568" lon="4.62089">
        <ele>53.54</ele>
        <time>2019-05-01T10:10:41Z</time>
      </trkpt>
      <trkpt lat="43.65688" lon="4.62088">
        <ele>53.518</ele>
        <time>2019-05-01T10:10:52Z</time>
      </trkpt>
      <trkpt lat="43.6573" lon="4.62084">
        <ele>54.485</ele>
        <time>2019-05-01T10:11:02Z</time>
      </trkpt>
      <trkpt lat="43.65778" lon="4.62085">
        <ele>54.768</ele>
        <time>2019-05-01T10:11:12Z</time>
      </trkpt>
      <trkpt lat="43.65828" lon="4.6208">
        <ele>54.163</ele>
        <time>2019-05-01T10:11:23Z</time>
      </trkpt>
      <trkpt lat="43.65876" lon="4.62086">
        <ele>53.071</ele>
        <time>2019-05-01T10:11:34Z</time>
      </trkpt>
      <trkpt lat="43.65916" lon="4.62127">
        <ele>53.774</ele>
        <time>2019-05-01T10:11:44Z</time>
      </trkpt>
      <trkpt lat="43.6594" lon="4.62191">
        <ele>53.694</ele>
        <time>2019-05-01T10:11:55Z</time>
      </trkpt>
      <trkpt lat="43.65977" lon="4.62245">
        <ele>53.422</ele>
        <time>2019-05-01T10:12:06Z</time>
      </trkpt>
      <trkpt lat="43.66021" lon="4.6229">
        <ele>53.599</ele>
        <time>2019-05-01T10:12:16Z</time>
      </trkpt>
      <trkpt lat="43.66066" lon="4.62334">
        <ele>56.683</ele>
        <time>2019-05-01T10:12:27Z</time>
      </trkpt>
      <trkpt lat="43.66115" lon="4.62381">
        <ele>55.567</ele>
        <time>2019-05-01T10:12:38Z</time>
      </trkpt>
      <trkpt lat="43.66165" lon="4.62425">
        <ele>51.436</ele>
        <time>2019-05-01T10:12:49Z</time>
      </trkpt>
      <trkpt lat="43.662" lon="4.62466">
        <ele>53.358</ele>
        <time>2019-05-01T10:12:59Z</time>
      </trkpt>
      <trkpt lat="43.66239" lon="4.62504">
        <ele>53.574</ele>
        <time>2019-05-01T10:13:09Z</time>
      </trkpt>
      <trkpt lat="43.66279" lon="4.62545">
        <ele>53.547</ele>
        <time>2019-05-01T10:13:20Z</time>
      </trkpt>
      <trkpt lat="43.6632" lon="4.62585">
        <ele>53.961</ele>
        <time>2019-05-01T10:13:31Z</time>
      </trkpt>
      <trkpt lat="43.66361" lon="4.62626">
        <ele>54.635</ele>
        <time>2019-05-01T10:13:42Z</time>
      </trkpt>
      <trkpt lat="43.664" lon="4.62664">
        <ele>56.462</ele>
        <time>2019-05-01T10:13:53Z</time>
      </trkpt>
      <trkpt lat="43.66437" lon="4.62703">
        <ele>56.755</ele>
        <time>2019-05-01T10:14:03Z</time>
      </trkpt>
      <trkpt lat="43.6648" lon="4.62737">
        <ele>54.62</ele>
        <time>2019-05-01T10:14:14Z</time>
      </trkpt>
      <trkpt lat="43.66524" lon="4.62755">
        <ele>52.834</ele>
        <time>2019-05-01T10:14:25Z</time>
      </trkpt>
      <trkpt lat="43.66568" lon="4.6276">
        <ele>53.681</ele>
        <time>2019-05-01T10:14:35Z</time>
      </trkpt>
      <trkpt lat="43.66619" lon="4.62752">
        <ele>50.859</ele>
        <time>2019-05-01T10:14:45Z</time>
      </trkpt>
      <trkpt lat="43.66669" lon="4.62744">
        <ele>53.124</ele>
        <time>2019-05-01T10:14:56Z</time>
      </trkpt>
      <trkpt lat="43.66709" lon="4.6272">
        <ele>54.286</ele>
        <time>2019-05-01T10:15:06Z</time>
      </trkpt>
      <trkpt lat="43.66748" lon="4.62672">
        <ele>52.829</ele>
        <time>2019-05-01T10:15:17Z</time>
      </trkpt>
      <trkpt lat="43.66791" lon="4.62623">
        <ele>50.86</ele>
        <time>2019-05-01T10:15:28Z</time>
      </trkpt>
      <trkpt lat="43.66827" lon="4.6261">
        <ele>50.93</ele>
        <time>2019-05-01T10:15:39Z</time>
      </trkpt>
      <trkpt lat="43.66866" lon="4.6256">
        <ele>50.563</ele>
        <time>2019-05-01T10:15:50Z</time>
      </trkpt>
      <trkpt lat="43.66897" lon="4.6252">
        <ele>50.342</ele>
        <time>2019-05-01T10:16:01Z</time>
      </trkpt>
      <trkpt lat="43.6693" lon="4.6248">
        <ele>51.853</ele>
        <time>2019-05-01T10:16:11Z</time>
      </trkpt>
      <trkpt lat="43.66965" lon="4.62442">
        <ele>53.743</ele>
        <time>2019-05-01T10:16:21Z</time>
      </trkpt>
      <trkpt lat="43.67005" lon="4.62395">
        <ele>54.671</ele>
        <time>2019-05-01T10:16:32Z</time>
      </trkpt>
      <trkpt lat="43.67038" lon="4.62353">
        <ele>53.084</ele>
        <time>2019-05-01T10:16:42Z</time>
      </trkpt>
      <trkpt lat="43.67074" lon="4.62304">
        <ele>52.926</ele>
        <time>2019-05-01T10:16:53Z</time>
      </trkpt>
      <trkpt lat="43.67104" lon="4.62259">
        <ele>53.497</ele>
        <time>2019-05-01T10:17:04Z</time>
      </trkpt>
      <trkpt lat="43.67072" lon="4.62226">
        <ele>52.693</ele>
        <time>2019-05-01T10:17:14Z</time>
      </trkpt>
      <trkpt lat="43.6707" lon="4.6218">
        <ele>52.576</ele>
        <time>2019-05-01T10:17:24Z</time>
      </trkpt>
      <trkpt lat="43.67093" lon="4.62196">
        <ele>53.163</ele>
        <time>2019-05-01T10:17:35Z</time>
      </trkpt>
      <trkpt lat="43.67117" lon="4.62225">
        <ele>54.014</ele>
        <time>2019-05-01T10:17:46Z</time>
      </trkpt>
      <trkpt lat="43.67139" lon="4.62257">
        <ele>54.735</ele>
        <time>2019-05-01T10:17:56Z</time>
      </trkpt>
      <trkpt lat="43.67165" lon="4.62301">
        <ele>58.076</ele>
        <time>2019-05-01T10:18:07Z</time>
      </trkpt>
      <trkpt lat="43.67196" lon="4.62333">
        <ele>60.343</ele>
        <time>2019-05-01T10:18:17Z</time>
      </trkpt>
      <trkpt lat="43.67217" lon="4.62347">
        <ele>61.54</ele>
        <time>2019-05-01T10:18:27Z</time>
      </trkpt>
      <trkpt lat="43.67222" lon="4.62348">
        <ele>61.608</ele>
        <time>2019-05-01T10:18:38Z</time>
      </trkpt>
      <trkpt lat="43.67222" lon="4.62348">
        <ele>61.559</ele>
        <time>2019-05-01T10:18:48Z</time>
      </trkpt>
      <trkpt lat="43.67225" lon="4.62344">
        <ele>61.181</ele>
        <time>2019-05-01T10:18:59Z</time>
      </trkpt>
      <trkpt lat="43.67224" lon="4.62338">
        <ele>60.909</ele>
        <time>2019-05-01T10:19:09Z</time>
      </trkpt>
      <trkpt lat="43.67218" lon="4.62316">
        <ele>60.296</ele>
        <time>2019-05-01T10:19:20Z</time>
      </trkpt>
      <trkpt lat="43.67255" lon="4.62272">
        <ele>55.813</ele>
        <time>2019-05-01T10:19:31Z</time>
      </trkpt>
      <trkpt lat="43.67298" lon="4.62225">
        <ele>53.932</ele>
        <time>2019-05-01T10:19:42Z</time>
      </trkpt>
      <trkpt lat="43.67307" lon="4.62214">
        <ele>53.654</ele>
        <time>2019-05-01T10:19:52Z</time>
      </trkpt>
      <trkpt lat="43.67309" lon="4.62214">
        <ele>53.479</ele>
        <time>2019-05-01T10:20:03Z</time>
      </trkpt>
      <trkpt lat="43.67308" lon="4.62216">
        <ele>54.135</ele>
        <time>2019-05-01T10:20:14Z</time>
      </trkpt>
      <trkpt lat="43.67307" lon="4.62211">
        <ele>54.684</ele>
        <time>2019-05-01T10:20:24Z</time>
      </trkpt>
      <trkpt lat="43.6732" lon="4.62197">
        <ele>54.878</ele>
        <time>2019-05-01T10:20:34Z</time>
      </trkpt>
      <trkpt lat="43.67345" lon="4.6216">
        <ele>55.465</ele>
        <time>2019-05-01T10:20:45Z</time>
      </trkpt>
      <trkpt lat="43.67365" lon="4.6211">
        <ele>55.727</ele>
        <time>2019-05-01T10:20:56Z</time>
      </trkpt>
      <trkpt lat="43.67391" lon="4.62122">
        <ele>55.613</ele>
        <time>2019-05-01T10:21:06Z</time>
      </trkpt>
      <trkpt lat="43.67406" lon="4.62184">
        <ele>56.61</ele>
        <time>2019-05-01T10:21:17Z</time>
      </trkpt>
      <trkpt lat="43.67429" lon="4.62244">
        <ele>54.967</ele>
        <time>2019-05-01T10:21:28Z</time>
      </trkpt>
      <trkpt lat="43.67448" lon="4.62293">
        <ele>55.254</ele>
        <time>2019-05-01T10:21:39Z</time>
      </trkpt>
      <trkpt lat="43.67461" lon="4.62327">
        <ele>55.312</ele>
        <time>2019-05-01T10:21:50Z</time>
      </trkpt>
      <trkpt lat="43.67464" lon="4.62341">
        <ele>56.169</ele>
        <time>2019-05-01T10:22:01Z</time>
      </trkpt>
      <trkpt lat="43.67479" lon="4.62403">
        <ele>54.463</ele>
        <time>2019-05-01T10:22:12Z</time>
      </trkpt>
      <trkpt lat="43.67489" lon="4.62464">
        <ele>54.229</ele>
        <time>2019-05-01T10:22:22Z</time>
      </trkpt>
      <trkpt lat="43.67489" lon="4.6248">
        <ele>53.929</ele>
        <time>2019-05-01T10:22:32Z</time>
      </trkpt>
      <trkpt lat="43.67488" lon="4.62515">
        <ele>54.457</ele>
        <time>2019-05-01T10:22:43Z</time>
      </trkpt>
      <trkpt lat="43.67494" lon="4.62567">
        <ele>54.781</ele>
        <time>2019-05-01T10:22:54Z</time>
      </trkpt>
      <trkpt lat="43.675" lon="4.62628">
        <ele>56.271</ele>
        <time>2019-05-01T10:23:04Z</time>
      </trkpt>
      <trkpt lat="43.67514" lon="4.62673">
        <ele>57.831</ele>
        <time>2019-05-01T10:23:15Z</time>
      </trkpt>
      <trkpt lat="43.67518" lon="4.62727">
        <ele>59.756</ele>
        <time>2019-05-01T10:23:26Z</time>
      </trkpt>
      <trkpt lat="43.67527" lon="4.62779">
        <ele>60.363</ele>
        <time>2019-05-01T10:23:37Z</time>
      </trkpt>
      <trkpt lat="43.67529" lon="4.62822">
        <ele>60.769</ele>
        <time>2019-05-01T10:23:47Z</time>
      </trkpt>
      <trkpt lat="43.67529" lon="4.62879">
        <ele>62.239</ele>
        <time>2019-05-01T10:23:58Z</time>
      </trkpt>
      <trkpt lat="43.67524" lon="4.62931">
        <ele>66.005</ele>
        <time>2019-05-01T10:24:08Z</time>
      </trkpt>
      <trkpt lat="43.67524" lon="4.62993">
        <ele>66.675</ele>
        <time>2019-05-01T10:24:19Z</time>
      </trkpt>
      <trkpt lat="43.67522" lon="4.63031">
        <ele>66.067</ele>
        <time>2019-05-01T10:24:29Z</time>
      </trkpt>
      <trkpt lat="43.67511" lon="4.63081">
        <ele>66.73</ele>
        <time>2019-05-01T10:24:39Z</time>
      </trkpt>
      <trkpt lat="43.67513" lon="4.63136">
        <ele>67.095</ele>
        <time>2019-05-01T10:24:49Z</time>
      </trkpt>
      <trkpt lat="43.67505" lon="4.63195">
        <ele>67.827</ele>
        <time>2019-05-01T10:25:00Z</time>
      </trkpt>
      <trkpt lat="43.67521" lon="4.63237">
        <ele>67.954</ele>
        <time>2019-05-01T10:25:10Z</time>
      </trkpt>
      <trkpt lat="43.67536" lon="4.63187">
        <ele>67.477</ele>
        <time>2019-05-01T10:25:21Z</time>
      </trkpt>
      <trkpt lat="43.67556" lon="4.63141">
        <ele>67.399</ele>
        <time>2019-05-01T10:25:32Z</time>
      </trkpt>
      <trkpt lat="43.67573" lon="4.63097">
        <ele>67.026</ele>
        <time>2019-05-01T10:25:43Z</time>
      </trkpt>
      <trkpt lat="43.67585" lon="4.63055">
        <ele>68.01</ele>
        <time>2019-05-01T10:25:54Z</time>
      </trkpt>
      <trkpt lat="43.67598" lon="4.63035">
        <ele>69.145</ele>
        <time>2019-05-01T10:26:04Z</time>
      </trkpt>
      <trkpt lat="43.67622" lon="4.63043">
        <ele>71.774</ele>
        <time>2019-05-01T10:26:15Z</time>
      </trkpt>
      <trkpt lat="43.67651" lon="4.63052">
        <ele>74.39</ele>
        <time>2019-05-01T10:26:25Z</time>
      </trkpt>
      <trkpt lat="43.67672" lon="4.63043">
        <ele>75.032</ele>
        <time>2019-05-01T10:26:36Z</time>
      </trkpt>
      <trkpt lat="43.67672" lon="4.63039">
        <ele>75.515</ele>
        <time>2019-05-01T10:26:47Z</time>
      </trkpt>
      <trkpt lat="43.6767" lon="4.63044">
        <ele>75.996</ele>
        <time>2019-05-01T10:26:57Z</time>
      </trkpt>
      <trkpt lat="43.67672" lon="4.63043">
        <ele>75.729</ele>
        <time>2019-05-01T10:27:07Z</time>
      </trkpt>
      <trkpt lat="43.67674" lon="4.63043">
        <ele>75.48</ele>
        <time>2019-05-01T10:27:18Z</time>
      </trkpt>
      <trkpt lat="43.67685" lon="4.63047">
        <ele>78.416</ele>
        <time>2019-05-01T10:27:28Z</time>
      </trkpt>
      <trkpt lat="43.67687" lon="4.63048">
        <ele>79.124</ele>
        <time>2019-05-01T10:27:39Z</time>
      </trkpt>
      <trkpt lat="43.67681" lon="4.63043">
        <ele>79.406</ele>
        <time>2019-05-01T10:27:50Z</time>
      </trkpt>
      <trkpt lat="43.67675" lon="4.63037">
        <ele>80.341</ele>
        <time>2019-05-01T10:28:01Z</time>
      </trkpt>
      <trkpt lat="43.6767" lon="4.63039">
        <ele>81.895</ele>
        <time>2019-05-01T10:28:11Z</time>
      </trkpt>
      <trkpt lat="43.6767" lon="4.63038">
        <ele>82.883</ele>
        <time>2019-05-01T10:28:22Z</time>
      </trkpt>
      <trkpt lat="43.67672" lon="4.63038">
        <ele>83.149</ele>
        <time>2019-05-01T10:28:33Z</time>
      </trkpt>
      <trkpt lat="43.6767" lon="4.63039">
        <ele>83.711</ele>
        <time>2019-05-01T10:28:44Z</time>
      </trkpt>
      <trkpt lat="43.67672" lon="4.63037">
        <ele>85.344</ele>
        <time>2019-05-01T10:28:54Z</time>
      </trkpt>
      <trkpt lat="43.67675" lon="4.63039">
        <ele>85.809</ele>
        <time>2019-05-01T10:29:05Z</time>
      </trkpt>
      <trkpt lat="43.67673" lon="4.63046">
        <ele>85.537</ele>
        <time>2019-05-01T10:29:15Z</time>
      </trkpt>
      <trkpt lat="43.67674" lon="4.63046">
        <ele>85.093</ele>
        <time>2019-05-01T10:29:26Z</time>
      </trkpt>
      <trkpt lat="43.67675" lon="4.63045">
        <ele>83.773</ele>
        <time>2019-05-01T10:29:36Z</time>
      </trkpt>
      <trkpt lat="43.67675" lon="4.63052">
        <ele>82.682</ele>
        <time>2019-05-01T10:29:46Z</time>
      </trkpt>
      <trkpt lat="43.67684" lon="4.6306">
        <ele>81.651</ele>
        <time>2019-05-01T10:29:57Z</time>
      </trkpt>
      <trkpt lat="43.67694" lon="4.63067">
        <ele>81.072</ele>
        <time>2019-05-01T10:30:09Z</time>
      </trkpt>
      <trkpt lat="43.67697" lon="4.6307">
        <ele>80.919</ele>
        <time>2019-05-01T10:30:22Z</time>
      </trkpt>
      <trkpt lat="43.67695" lon="4.63069">
        <ele>81.98</ele>
        <time>2019-05-01T10:30:33Z</time>
      </trkpt>
      <trkpt lat="43.67694" lon="4.63071">
        <ele>85.584</ele>
        <time>2019-05-01T10:30:44Z</time>
      </trkpt>
      <trkpt lat="43.67694" lon="4.63071">
        <ele>87.458</ele>
        <time>2019-05-01T10:30:54Z</time>
      </trkpt>
      <trkpt lat="43.67691" lon="4.63074">
        <ele>88.369</ele>
        <time>2019-05-01T10:31:05Z</time>
      </trkpt>
      <trkpt lat="43.67684" lon="4.63071">
        <ele>88.434</ele>
        <time>2019-05-01T10:31:16Z</time>
      </trkpt>
      <trkpt lat="43.67667" lon="4.63065">
        <ele>84.803</ele>
        <time>2019-05-01T10:31:27Z</time>
      </trkpt>
      <trkpt lat="43.67664" lon="4.63063">
        <ele>81.839</ele>
        <time>2019-05-01T10:31:38Z</time>
      </trkpt>
      <trkpt lat="43.67664" lon="4.63058">
        <ele>78.679</ele>
        <time>2019-05-01T10:31:48Z</time>
      </trkpt>
      <trkpt lat="43.67668" lon="4.63052">
        <ele>76.585</ele>
        <time>2019-05-01T10:31:59Z</time>
      </trkpt>
      <trkpt lat="43.67667" lon="4.63051">
        <ele>76.195</ele>
        <time>2019-05-01T10:32:09Z</time>
      </trkpt>
      <trkpt lat="43.67669" lon="4.63046">
        <ele>75.504</ele>
        <time>2019-05-01T10:32:20Z</time>
      </trkpt>
      <trkpt lat="43.67669" lon="4.63044">
        <ele>75.465</ele>
        <time>2019-05-01T10:32:31Z</time>
      </trkpt>
      <trkpt lat="43.67666" lon="4.63046">
        <ele>75.224</ele>
        <time>2019-05-01T10:32:42Z</time>
      </trkpt>
      <trkpt lat="43.67666" lon="4.63045">
        <ele>75.282</ele>
        <time>2019-05-01T10:32:53Z</time>
      </trkpt>
    </trkseg>
  </trk>
</gpx>